Provisional Data: West Branch Susquehanna River near Milton, PA


Please select a monitoring station.
Please select start date.
Please select start date.

Toggle Unit: C/F Toggle Unit: C/F
Sample Time Temperature (C) Temperature (F) Specific Conductivity (mS/cm) pH   Turbidity (NTU+) DO (mg/L)
9/6/2021 12:00:00 AM 19.81 67.658 0.167 7.39 15.67 8.79
9/6/2021 12:15:00 AM 19.8 67.64 0.167 7.38 13.44 8.79
9/6/2021 12:30:00 AM 19.79 67.622 0.167 7.38 14.4 8.76
9/6/2021 12:45:00 AM 19.78 67.604 0.166 7.39 19.57 8.83
9/6/2021 1:00:00 AM 19.77 67.586 0.166 7.39 16.48 8.85
9/6/2021 1:15:00 AM 20.05 68.09 0.191 7.41 11.46 9
9/6/2021 1:30:00 AM 20.02 68.036 0.186 7.38 9.99 8.99
9/6/2021 1:45:00 AM 19.78 67.604 0.169 7.39 14.72 8.89
9/6/2021 2:00:00 AM 19.73 67.514 0.166 7.39 13.86 8.85
9/6/2021 2:15:00 AM 19.7 67.46 0.165 7.38 12.95 8.83
9/6/2021 2:30:00 AM 19.69 67.442 0.165 7.38 13.98 8.82
9/6/2021 2:45:00 AM 19.67 67.406 0.166 7.38 14.28 8.79
9/6/2021 3:00:00 AM 19.66 67.388 0.165 7.38 14.5 8.82
9/6/2021 3:15:00 AM 19.64 67.352 0.165 7.38 15.11 8.81
9/6/2021 3:30:00 AM 19.63 67.334 0.166 7.38 14.1 8.8
9/6/2021 3:45:00 AM 19.61 67.298 0.165 7.38 14.75 8.83
9/6/2021 4:00:00 AM 19.59 67.262 0.165 7.38 15.81 8.82
9/6/2021 4:15:00 AM 19.57 67.226 0.165 7.39 14.7 8.83
9/6/2021 4:30:00 AM 19.56 67.208 0.164 7.38 14.61 8.85
9/6/2021 4:45:00 AM 19.54 67.172 0.164 7.38 14.11 8.84
9/6/2021 5:00:00 AM 19.52 67.136 0.163 7.38 14.67 8.85
9/6/2021 5:15:00 AM 19.49 67.082 0.166 7.39 13.91 8.82
9/6/2021 5:30:00 AM 19.47 67.046 0.163 7.38 14.38 8.85
9/6/2021 5:45:00 AM 19.45 67.01 0.163 7.38 14.43 8.85
9/6/2021 6:00:00 AM 19.43 66.974 0.163 7.38 15.12 8.84
9/6/2021 6:15:00 AM 19.41 66.938 0.164 7.38 14.65 8.84
9/6/2021 6:30:00 AM 19.4 66.92 0.163 7.39 15.56 8.85
9/6/2021 6:45:00 AM 19.38 66.884 0.163 7.38 13.83 8.83
9/6/2021 7:00:00 AM 19.36 66.848 0.163 7.39 15.67 8.83
9/6/2021 7:15:00 AM 19.34 66.812 0.163 7.38 14.18 8.84
9/6/2021 7:30:00 AM 19.33 66.794 0.163 7.38 14.37 8.84
9/6/2021 7:45:00 AM 19.32 66.776 0.162 7.38 15.61 8.84
9/6/2021 8:00:00 AM 19.32 66.776 0.164 7.38 13.4 8.82
9/6/2021 8:15:00 AM 19.32 66.776 0.163 7.38 14.08 8.84
9/6/2021 8:30:00 AM 19.32 66.776 0.164 7.37 14.08 8.84
9/6/2021 8:45:00 AM 19.33 66.794 0.163 7.36 14.75 8.82
9/6/2021 9:00:00 AM 19.35 66.83 0.165 7.37 15.54 8.81
9/6/2021 9:15:00 AM 19.37 66.866 0.164 7.38 14.79 8.81
9/6/2021 9:30:00 AM 19.39 66.902 0.164 7.37 16.41 8.81
9/6/2021 9:45:00 AM 19.42 66.956 0.164 7.37 13.02 8.81
9/6/2021 10:00:00 AM 19.45 67.01 0.163 7.38 15.26 8.81
9/6/2021 10:15:00 AM 19.49 67.082 0.164 7.38 13.59 8.82
9/6/2021 10:30:00 AM 19.54 67.172 0.162 7.39 14.45 8.85
9/6/2021 10:45:00 AM 19.61 67.298 0.161 7.4 13.67 8.86
9/6/2021 11:00:00 AM 19.67 67.406 0.161 7.39 13.81 8.85
9/6/2021 11:15:00 AM 19.74 67.532 0.162 7.4 14.26 8.9
9/6/2021 11:30:00 AM 19.81 67.658 0.161 7.4 16.23 8.9
9/6/2021 11:45:00 AM 19.89 67.802 0.16 7.41 16.13 8.93
9/6/2021 12:00:00 PM 19.96 67.92799 0.16 7.41 15.48 8.93
9/6/2021 12:15:00 PM 20.03 68.054 0.16 7.41 15.53 8.94
9/6/2021 12:30:00 PM 20.1 68.18 0.16 7.42 15.1 8.96
9/6/2021 12:45:00 PM 20.17 68.306 0.159 7.42 15.81 8.96
9/6/2021 1:00:00 PM 20.23 68.414 0.159 7.42 14.1 8.97
9/6/2021 1:15:00 PM 20.26 68.468 0.159 7.42 15.63 8.99
9/6/2021 1:30:00 PM 20.3 68.54 0.157 7.43 15.47 9.01
9/6/2021 1:45:00 PM 20.3 68.54 0.157 7.42 17.07 9
9/6/2021 2:00:00 PM 20.33 68.594 0.157 7.42 14.25 8.98
9/6/2021 2:15:00 PM 20.41 68.738 0.156 7.43 15.43 8.99
9/6/2021 2:30:00 PM 20.47 68.846 0.156 7.42 16.18 9
9/6/2021 2:45:00 PM 20.53 68.954 0.155 7.44 16.83 9.06
9/6/2021 3:00:00 PM 20.55 68.99 0.155 7.44 14.36 9.07
9/6/2021 3:15:00 PM 20.58 69.044 0.155 7.43 16.52 9.07
9/6/2021 3:30:00 PM 20.63 69.134 0.155 7.44 16.3 9.08
9/6/2021 3:45:00 PM 20.7 69.26 0.155 7.44 16.29 9.08
9/6/2021 4:00:00 PM 20.76 69.368 0.155 7.45 16.56 9.1
9/6/2021 4:15:00 PM 20.8 69.44 0.155 7.45 15.75 9.09
9/6/2021 4:30:00 PM 20.82 69.476 0.154 7.45 15.73 9.1
9/6/2021 4:45:00 PM 20.84 69.512 0.155 7.44 14.79 9.06
9/6/2021 5:00:00 PM 20.86 69.548 0.154 7.45 15.69 9.08
9/6/2021 5:15:00 PM 20.86 69.548 0.154 7.45 16.8 9.06
9/6/2021 5:30:00 PM 20.88 69.584 0.155 7.44 17.41 9.03
9/6/2021 5:45:00 PM 20.9 69.62 0.154 7.44 16.33 9.03
9/6/2021 6:00:00 PM 20.89 69.602 0.154 7.44 17.69 9.03
9/6/2021 6:15:00 PM 20.88 69.584 0.154 7.44 17.04 9.02
9/6/2021 6:30:00 PM 20.87 69.566 0.154 7.44 16.45 9.01
9/6/2021 6:45:00 PM 20.91 69.638 0.165 7.46 19.15 9.09
9/6/2021 7:00:00 PM 20.83 69.494 0.174 7.41 11.72 9.23
9/6/2021 7:15:00 PM 20.8 69.44 0.159 7.41 15.33 9.07
9/6/2021 7:30:00 PM 20.82 69.476 0.155 7.43 21.31 9.01
9/6/2021 7:45:00 PM 20.79 69.422 0.154 7.43 17.33 9
9/6/2021 8:00:00 PM 20.75 69.35 0.154 7.43 17.42 9.01
9/6/2021 8:15:00 PM 20.71 69.278 0.155 7.43 17.59 9.01
9/6/2021 8:30:00 PM 20.69 69.242 0.154 7.43 17.2 9.02
9/6/2021 8:45:00 PM 20.66 69.188 0.154 7.43 18.3 9.02
9/6/2021 9:00:00 PM 20.64 69.152 0.154 7.43 17.64 9.01
9/6/2021 9:15:00 PM 20.62 69.116 0.154 7.43 16.09 9.03
9/6/2021 9:30:00 PM 20.6 69.08 0.154 7.43 15.08 9.01
9/6/2021 9:45:00 PM 20.58 69.044 0.154 7.43 14.46 9
9/6/2021 10:00:00 PM 20.56 69.008 0.155 7.43 16.19 9
9/6/2021 10:15:00 PM 20.54 68.972 0.155 7.42 15.41 9
9/6/2021 10:30:00 PM 20.52 68.936 0.155 7.43 14.45 9.01
9/6/2021 10:45:00 PM 20.51 68.918 0.155 7.43 15.19 9.01
9/6/2021 11:00:00 PM 20.5 68.9 0.155 7.43 14.52 9.01
9/6/2021 11:15:00 PM 20.5 68.9 0.154 7.43 15.21 9.02
9/6/2021 11:30:00 PM 20.49 68.882 0.154 7.44 14.25 9.02
9/6/2021 11:45:00 PM 20.48 68.864 0.154 7.43 14.34 9.02
9/7/2021 12:00:00 AM 20.47 68.846 0.154 7.43 14.03 9.04
9/7/2021 12:15:00 AM 20.46 68.828 0.154 7.44 13.78 9.03
9/7/2021 12:30:00 AM 20.46 68.828 0.155 7.44 14.14 9.03
9/7/2021 12:45:00 AM 20.45 68.81 0.155 7.44 15.17 9.03
9/7/2021 1:00:00 AM 20.45 68.81 0.155 7.44 14.6 9.03
9/7/2021 1:15:00 AM 20.44 68.792 0.155 7.44 13.53 9.03
9/7/2021 1:30:00 AM 20.44 68.792 0.158 7.44 21.94 9.05
9/7/2021 1:45:00 AM 20.46 68.828 0.171 7.44 9.99 9.25
9/7/2021 2:00:00 AM 20.42 68.756 0.164 7.39 9.74 9.15
9/7/2021 2:15:00 AM 20.38 68.684 0.156 7.43 12.71 9.03
9/7/2021 2:30:00 AM 20.36 68.648 0.155 7.44 12.57 9.03
9/7/2021 2:45:00 AM 20.34 68.612 0.155 7.44 11.98 9.02
9/7/2021 3:00:00 AM 20.31 68.558 0.155 7.44 12.04 9.02
9/7/2021 3:15:00 AM 20.29 68.522 0.155 7.44 11.84 9.01
9/7/2021 3:30:00 AM 20.25 68.45 0.156 7.44 12.34 9
9/7/2021 3:45:00 AM 20.22 68.396 0.156 7.44 12.1 8.99
9/7/2021 4:00:00 AM 20.19 68.342 0.156 7.43 12.73 8.98
9/7/2021 4:15:00 AM 20.16 68.288 0.156 7.43 11.93 8.97
9/7/2021 4:30:00 AM 20.12 68.216 0.156 7.43 11.37 8.96
9/7/2021 4:45:00 AM 20.08 68.144 0.156 7.43 11.38 8.95
9/7/2021 5:00:00 AM 20.05 68.09 0.156 7.43 11.62 8.95
9/7/2021 5:15:00 AM 20.01 68.018 0.156 7.43 11.29 8.93
9/7/2021 5:30:00 AM 19.97 67.946 0.156 7.42 10.87 8.92
9/7/2021 5:45:00 AM 19.92 67.856 0.156 7.43 13.47 8.92
9/7/2021 6:00:00 AM 19.87 67.766 0.157 7.43 15.47 8.93
9/7/2021 6:15:00 AM 19.83 67.694 0.157 7.43 12.64 8.93
9/7/2021 6:30:00 AM 19.79 67.622 0.157 7.42 12.02 8.92
9/7/2021 6:45:00 AM 19.74 67.532 0.157 7.42 12.1 8.92
9/7/2021 7:00:00 AM 19.71 67.478 0.156 7.42 11.53 8.92
9/7/2021 7:15:00 AM 19.69 67.442 0.156 7.42 11.67 8.92
9/7/2021 7:30:00 AM 19.66 67.388 0.156 7.42 11.57 8.91
9/7/2021 7:45:00 AM 19.64 67.352 0.156 7.42 11.18 8.91
9/7/2021 8:00:00 AM 19.62 67.316 0.156 7.42 10.89 8.92
9/7/2021 8:15:00 AM 19.61 67.298 0.157 7.42 11.49 8.92
9/7/2021 8:30:00 AM 19.61 67.298 0.157 7.42 11.4 8.93
9/7/2021 8:45:00 AM 19.61 67.298 0.157 7.42 11.51 8.93
9/7/2021 9:00:00 AM 19.61 67.298 0.157 7.42 11.93 8.94
9/7/2021 9:15:00 AM 19.63 67.334 0.157 7.43 11.32 8.95
9/7/2021 9:30:00 AM 19.65 67.37 0.157 7.42 11.87 8.96
9/7/2021 9:45:00 AM 19.67 67.406 0.157 7.43 11.1 8.97
9/7/2021 10:00:00 AM 19.7 67.46 0.158 7.42 10.6 8.97
9/7/2021 10:15:00 AM 19.74 67.532 0.157 7.43 10.94 8.99
9/7/2021 10:30:00 AM 19.78 67.604 0.157 7.44 11.33 9.03
9/7/2021 10:45:00 AM 19.82 67.676 0.158 7.44 11.59 9.06
9/7/2021 11:00:00 AM 19.87 67.766 0.158 7.44 10.93 9.05
9/7/2021 11:15:00 AM 19.92 67.856 0.159 7.45 11.3 9.08
9/7/2021 11:30:00 AM 19.98 67.964 0.158 7.46 10.52 9.11
9/7/2021 11:45:00 AM 20.04 68.07201 0.158 7.46 10.69 9.12
9/7/2021 12:00:00 PM 20.09 68.162 0.158 7.46 10.6 9.16
9/7/2021 12:15:00 PM 20.16 68.288 0.158 7.47 10.64 9.2
9/7/2021 12:30:00 PM 20.24 68.432 0.158 7.49 10.92 9.23
9/7/2021 12:45:00 PM 20.3 68.54 0.158 7.47 11.24 9.25
9/7/2021 1:00:00 PM 20.38 68.684 0.158 7.5 10.38 9.32
9/7/2021 1:15:00 PM 20.44 68.792 0.158 7.51 11.49 9.3
9/7/2021 1:30:00 PM 20.52 68.936 0.158 7.52 10.62 9.36
9/7/2021 1:45:00 PM 20.58 69.044 0.159 7.52 10.22 9.4
9/7/2021 2:00:00 PM 20.65 69.17 0.159 7.53 10.68 9.41
9/7/2021 2:15:00 PM 20.7 69.26 0.159 7.53 10.5 9.4
9/7/2021 2:30:00 PM 20.76 69.368 0.159 7.51 10.44 9.37
9/7/2021 2:45:00 PM 20.83 69.494 0.159 7.53 11.16 9.44
9/7/2021 3:00:00 PM 20.89 69.602 0.16 7.55 10.53 9.5
9/7/2021 3:15:00 PM 20.91 69.638 0.16 7.52 10.03 9.44
9/7/2021 3:30:00 PM 20.95 69.71 0.16 7.55 9.21 9.48
9/7/2021 3:45:00 PM 21 69.8 0.16 7.54 9.95 9.49
9/7/2021 4:00:00 PM 21.05 69.89 0.16 7.55 9.08 9.5
9/7/2021 4:15:00 PM 21.09 69.962 0.16 7.55 9.67 9.52
9/7/2021 4:30:00 PM 21.12 70.016 0.16 7.57 9.23 9.54
9/7/2021 4:45:00 PM 21.14 70.052 0.16 7.57 8.94 9.55
9/7/2021 5:00:00 PM 21.16 70.088 0.16 7.58 9.56 9.55
9/7/2021 5:15:00 PM 21.16 70.088 0.161 7.57 8.9 9.54
9/7/2021 5:30:00 PM 21.16 70.088 0.161 7.59 9.42 9.55
9/7/2021 5:45:00 PM 21.14 70.052 0.161 7.59 9.06 9.56
9/7/2021 6:00:00 PM 21.13 70.034 0.161 7.58 10.16 9.56
9/7/2021 6:15:00 PM 21.12 70.016 0.162 7.58 9.43 9.55
9/7/2021 6:30:00 PM 21.11 69.998 0.162 7.59 8.71 9.55
9/7/2021 6:45:00 PM 21.11 69.998 0.161 7.59 9.99 9.53
9/7/2021 7:00:00 PM 21.1 69.98 0.161 7.59 9.04 9.54
9/7/2021 7:15:00 PM 21.09 69.962 0.161 7.59 9.29 9.54
9/7/2021 7:30:00 PM 21.07 69.926 0.161 7.59 9.24 9.52
9/7/2021 7:45:00 PM 21.04 69.872 0.162 7.58 9.55 9.52
9/7/2021 8:00:00 PM 21 69.8 0.162 7.58 9.14 9.51
9/7/2021 8:15:00 PM 20.97 69.746 0.162 7.58 9.04 9.47
9/7/2021 8:30:00 PM 20.93 69.674 0.163 7.58 9.66 9.48
9/7/2021 8:45:00 PM 20.9 69.62 0.163 7.57 9.86 9.48
9/7/2021 9:00:00 PM 20.88 69.584 0.163 7.57 9.98 9.47
9/7/2021 9:15:00 PM 20.85 69.53 0.163 7.57 10.4 9.47
9/7/2021 9:30:00 PM 20.82 69.476 0.162 7.57 9.42 9.46
9/7/2021 9:45:00 PM 20.79 69.422 0.162 7.56 9.41 9.47
9/7/2021 10:00:00 PM 20.77 69.386 0.162 7.56 9.54 9.46
9/7/2021 10:15:00 PM 20.76 69.368 0.162 7.56 9.19 9.44
9/7/2021 10:30:00 PM 20.74 69.332 0.163 7.55 10.11 9.42
9/7/2021 10:45:00 PM 20.72 69.296 0.163 7.55 9.44 9.41
9/7/2021 11:00:00 PM 20.71 69.278 0.163 7.54 10.07 9.39
9/7/2021 11:15:00 PM 20.7 69.26 0.164 7.54 9.46 9.38
9/7/2021 11:30:00 PM 20.7 69.26 0.164 7.54 9.89 9.36
9/7/2021 11:45:00 PM 20.69 69.242 0.164 7.53 9.71 9.33
9/8/2021 12:00:00 AM 20.7 69.26 0.164 7.53 8.83 9.33
9/8/2021 12:15:00 AM 20.7 69.26 0.164 7.53 9.01 9.32
9/8/2021 12:30:00 AM 20.7 69.26 0.163 7.53 9.78 9.32
9/8/2021 12:45:00 AM 20.69 69.242 0.163 7.53 9.46 9.32
9/8/2021 1:00:00 AM 20.69 69.242 0.164 7.53 9.72 9.3
9/8/2021 1:15:00 AM 20.69 69.242 0.164 7.52 9.34 9.29
9/8/2021 1:30:00 AM 20.69 69.242 0.164 7.52 9.6 9.27
9/8/2021 1:45:00 AM 20.82 69.476 0.174 7.51 9.02 9.31
9/8/2021 2:00:00 AM 20.74 69.332 0.17 7.45 7.4 9.29
9/8/2021 2:15:00 AM 20.68 69.224 0.165 7.5 10.26 9.24
9/8/2021 2:30:00 AM 20.67 69.206 0.165 7.51 9.4 9.22
9/8/2021 2:45:00 AM 20.66 69.188 0.165 7.51 9.38 9.22
9/8/2021 3:00:00 AM 20.65 69.17 0.165 7.5 9.25 9.22
9/8/2021 3:15:00 AM 20.64 69.152 0.165 7.51 9.89 9.21
9/8/2021 3:30:00 AM 20.63 69.134 0.165 7.51 9.53 9.2
9/8/2021 3:45:00 AM 20.62 69.116 0.165 7.5 9.26 9.18
9/8/2021 4:00:00 AM 20.61 69.098 0.165 7.5 8.88 9.17
9/8/2021 4:15:00 AM 20.59 69.062 0.165 7.5 9.76 9.15
9/8/2021 4:30:00 AM 20.58 69.044 0.166 7.5 8.66 9.13
9/8/2021 4:45:00 AM 20.57 69.026 0.166 7.5 8.62 9.11
9/8/2021 5:00:00 AM 20.55 68.99 0.166 7.5 9.74 9.11
9/8/2021 5:15:00 AM 20.53 68.954 0.166 7.49 8.75 9.08
9/8/2021 5:30:00 AM 20.51 68.918 0.166 7.49 9.07 9.07
9/8/2021 5:45:00 AM 20.49 68.882 0.166 7.48 8.81 9.06
9/8/2021 6:00:00 AM 20.47 68.846 0.166 7.48 8.74 9.05
9/8/2021 6:15:00 AM 20.45 68.81 0.166 7.48 8.85 9.02
9/8/2021 6:30:00 AM 20.43 68.774 0.166 7.48 8.55 9.01
9/8/2021 6:45:00 AM 20.41 68.738 0.166 7.48 8.54 9
9/8/2021 7:00:00 AM 20.38 68.684 0.166 7.47 8.6 8.98
9/8/2021 7:15:00 AM 20.36 68.648 0.167 7.47 8.54 8.96
9/8/2021 7:30:00 AM 20.35 68.63 0.167 7.47 8.7 8.95
9/8/2021 7:45:00 AM 20.33 68.594 0.167 7.47 8.29 8.95
9/8/2021 8:00:00 AM 20.32 68.576 0.167 7.47 8.44 8.92
9/8/2021 8:15:00 AM 20.31 68.558 0.167 7.47 7.93 8.91
9/8/2021 8:30:00 AM 20.31 68.558 0.167 7.46 8.56 8.91
9/8/2021 8:45:00 AM 20.31 68.558 0.167 7.47 8.53 8.92
9/8/2021 9:00:00 AM 20.31 68.558 0.167 7.45 7.96 8.93
9/8/2021 9:15:00 AM 20.33 68.594 0.167 7.46 8.1 8.92
9/8/2021 9:30:00 AM 20.35 68.63 0.166 7.47 8.46 8.94
9/8/2021 9:45:00 AM 20.37 68.666 0.167 7.47 8.05 8.93
9/8/2021 10:00:00 AM 20.39 68.702 0.167 7.46 8.17 8.95
9/8/2021 10:15:00 AM 20.42 68.756 0.168 7.46 9.06 8.92
9/8/2021 10:30:00 AM 20.46 68.828 0.168 7.46 8.43 8.95
9/8/2021 10:45:00 AM 20.51 68.918 0.168 7.48 7.77 9.03
9/8/2021 11:00:00 AM 20.56 69.008 0.167 7.49 8.47 9.06
9/8/2021 11:15:00 AM 20.62 69.116 0.167 7.5 8.07 9.1
9/8/2021 11:30:00 AM 20.65 69.17 0.167 7.49 9.23 9.06
9/8/2021 11:45:00 AM 20.75 69.35 0.167 7.51 8.23 9.17
9/8/2021 12:00:00 PM 20.85 69.53 0.166 7.54 8.98 9.24
9/8/2021 12:15:00 PM 20.93 69.674 0.166 7.56 8.39 9.31
9/8/2021 12:30:00 PM 21 69.8 0.167 7.55 8.47 9.32
9/8/2021 12:45:00 PM 21.09 69.962 0.167 7.58 8.59 9.38
9/8/2021 1:00:00 PM 21.14 70.052 0.167 7.57 8.47 9.39
9/8/2021 1:15:00 PM 21.17 70.106 0.167 7.6 8.84 9.43
9/8/2021 1:30:00 PM 21.19 70.142 0.167 7.6 8.58 9.45
9/8/2021 1:45:00 PM 21.24 70.232 0.167 7.6 8.06 9.44
9/8/2021 2:00:00 PM 21.3 70.34 0.167 7.6 8.69 9.45
9/8/2021 2:15:00 PM 21.4 70.52 0.166 7.64 8.32 9.54
9/8/2021 2:30:00 PM 21.46 70.628 0.167 7.63 9.13 9.55
9/8/2021 2:45:00 PM 21.54 70.772 0.167 7.66 8.89 9.62
9/8/2021 3:00:00 PM 21.58 70.844 0.167 7.67 8.05 9.63
9/8/2021 3:15:00 PM 21.59 70.862 0.166 7.68 7.8 9.65
9/8/2021 3:30:00 PM 21.59 70.862 0.166 7.68 9.03 9.64
9/8/2021 3:45:00 PM 21.58 70.844 0.167 7.68 8.46 9.63
9/8/2021 4:00:00 PM 21.57 70.826 0.167 7.68 8.28 9.61
9/8/2021 4:15:00 PM 21.57 70.826 0.168 7.68 8.17 9.59
9/8/2021 4:30:00 PM 21.56 70.808 0.172 7.69 10.25 9.58
9/8/2021 4:45:00 PM 21.43 70.574 0.177 7.52 5.92 9.42
9/8/2021 5:00:00 PM 21.46 70.628 0.17 7.58 6.99 9.44
9/8/2021 5:15:00 PM 21.49 70.682 0.167 7.66 10.41 9.55
9/8/2021 5:30:00 PM 21.46 70.628 0.166 7.66 7.94 9.55
9/8/2021 5:45:00 PM 21.42 70.556 0.167 7.66 8.11 9.53
9/8/2021 6:00:00 PM 21.39 70.502 0.166 7.65 8.68 9.51
9/8/2021 6:15:00 PM 21.37 70.466 0.166 7.65 8.31 9.49
9/8/2021 6:30:00 PM 21.36 70.448 0.166 7.64 8.01 9.47
9/8/2021 6:45:00 PM 21.34 70.412 0.167 7.64 10.2 9.45
9/8/2021 7:00:00 PM 21.34 70.412 0.167 7.64 10.1 9.46
9/8/2021 7:15:00 PM 21.33 70.394 0.167 7.64 8.9 9.44
9/8/2021 7:30:00 PM 21.3 70.34 0.167 7.63 9.27 9.42
9/8/2021 7:45:00 PM 21.26 70.268 0.167 7.63 9.3 9.41
9/8/2021 8:00:00 PM 21.22 70.196 0.167 7.62 8.74 9.39
9/8/2021 8:15:00 PM 21.16 70.088 0.167 7.61 8.11 9.35
9/8/2021 8:30:00 PM 21.1 69.98 0.166 7.61 7.92 9.34
9/8/2021 8:45:00 PM 21.04 69.872 0.166 7.6 8.86 9.31
9/8/2021 9:00:00 PM 20.99 69.782 0.166 7.59 8.03 9.29
9/8/2021 9:15:00 PM 20.95 69.71 0.166 7.58 9.2 9.27
9/8/2021 9:30:00 PM 20.91 69.638 0.166 7.57 8.4 9.26
9/8/2021 9:45:00 PM 20.88 69.584 0.167 7.57 8.12 9.23
9/8/2021 10:00:00 PM 20.87 69.566 0.167 7.56 8.58 9.21
9/8/2021 10:15:00 PM 20.85 69.53 0.167 7.56 7.86 9.2
9/8/2021 10:30:00 PM 20.84 69.512 0.168 7.56 7.8 9.2
9/8/2021 10:45:00 PM 20.84 69.512 0.167 7.56 8.42 9.2
9/8/2021 11:00:00 PM 20.83 69.494 0.167 7.55 8.25 9.19
9/8/2021 11:15:00 PM 20.83 69.494 0.167 7.55 8.72 9.19
9/8/2021 11:30:00 PM 20.82 69.476 0.167 7.55 8.67 9.17
9/8/2021 11:45:00 PM 20.83 69.494 0.167 7.54 8.16 9.17
9/9/2021 12:00:00 AM 20.84 69.512 0.167 7.54 8.41 9.17
9/9/2021 12:15:00 AM 20.85 69.53 0.167 7.54 8.51 9.17
9/9/2021 12:30:00 AM 20.87 69.566 0.167 7.54 8.02 9.15
9/9/2021 12:45:00 AM 20.88 69.584 0.167 7.54 8.39 9.16
9/9/2021 1:00:00 AM 20.9 69.62 0.167 7.54 7.6 9.16
9/9/2021 1:15:00 AM 20.9 69.62 0.167 7.54 7.69 9.13
9/9/2021 1:30:00 AM 20.99 69.782 0.172 7.56 7.36 9.2
9/9/2021 1:45:00 AM 21 69.8 0.172 7.5 6.38 9.18
9/9/2021 2:00:00 AM 20.94 69.692 0.167 7.52 7.14 9.14
9/9/2021 2:15:00 AM 20.93 69.674 0.166 7.53 8.08 9.11
9/9/2021 2:30:00 AM 20.94 69.692 0.166 7.53 7.79 9.1
9/9/2021 2:45:00 AM 20.94 69.692 0.167 7.53 8.02 9.09
9/9/2021 3:00:00 AM 20.94 69.692 0.167 7.53 8.34 9.08
9/9/2021 3:15:00 AM 20.93 69.674 0.167 7.52 8.34 9.06
9/9/2021 3:30:00 AM 20.93 69.674 0.167 7.52 8.57 9.04
9/9/2021 3:45:00 AM 20.92 69.656 0.167 7.52 8.39 9.03
9/9/2021 4:00:00 AM 20.9 69.62 0.166 7.52 8.72 9.01
9/9/2021 4:15:00 AM 20.88 69.584 0.166 7.51 8.28 9
9/9/2021 4:30:00 AM 20.87 69.566 0.166 7.51 8.19 8.99
9/9/2021 4:45:00 AM 20.84 69.512 0.166 7.51 8.03 8.97
9/9/2021 5:00:00 AM 20.83 69.494 0.166 7.5 8.33 8.95
9/9/2021 5:15:00 AM 20.82 69.476 0.167 7.5 8.58 8.92
9/9/2021 5:30:00 AM 20.8 69.44 0.167 7.49 9.17 8.9
9/9/2021 5:45:00 AM 20.78 69.404 0.167 7.49 8.45 8.88
9/9/2021 6:00:00 AM 20.77 69.386 0.167 7.49 8.79 8.85
9/9/2021 6:15:00 AM 20.75 69.35 0.167 7.49 8.71 8.84
9/9/2021 6:30:00 AM 20.73 69.314 0.167 7.49 8.51 8.84
9/9/2021 6:45:00 AM 20.71 69.278 0.167 7.48 7.95 8.83
9/9/2021 7:00:00 AM 20.69 69.242 0.167 7.48 8.14 8.8
9/9/2021 7:15:00 AM 20.66 69.188 0.167 7.48 7.91 8.79
9/9/2021 7:30:00 AM 20.63 69.134 0.167 7.48 8.41 8.75
9/9/2021 7:45:00 AM 20.61 69.098 0.167 7.47 8.03 8.78
9/9/2021 8:00:00 AM 20.59 69.062 0.167 7.47 8.36 8.75
9/9/2021 8:15:00 AM 20.58 69.044 0.167 7.46 8.02 8.76
9/9/2021 8:30:00 AM 20.57 69.026 0.167 7.47 8.05 8.77
9/9/2021 8:45:00 AM 20.55 68.99 0.167 7.47 8.11 8.77
9/9/2021 9:00:00 AM 20.55 68.99 0.166 7.47 9.49 8.78
9/9/2021 9:15:00 AM 20.54 68.972 0.166 7.46 8.48 8.78
9/9/2021 9:30:00 AM 20.54 68.972 0.165 7.47 8.92 8.81
9/9/2021 9:45:00 AM 20.56 69.008 0.164 7.47 8.41 8.82
9/9/2021 10:00:00 AM 20.57 69.026 0.164 7.47 8.42 8.83
9/9/2021 10:15:00 AM 20.58 69.044 0.163 7.47 9.49 8.84
9/9/2021 10:30:00 AM 20.57 69.026 0.162 7.47 9.18 8.85
9/9/2021 10:45:00 AM 20.58 69.044 0.161 7.48 9.34 8.85
9/9/2021 11:00:00 AM 20.58 69.044 0.161 7.47 9.81 8.88
9/9/2021 11:15:00 AM 20.59 69.062 0.16 7.47 9.57 8.87
9/9/2021 11:30:00 AM 20.61 69.098 0.159 7.48 9.67 8.89
9/9/2021 11:45:00 AM 20.61 69.098 0.159 7.47 10.48 8.88
9/9/2021 12:00:00 PM 20.6 69.08 0.158 7.48 9.8 8.89
9/9/2021 12:15:00 PM 20.59 69.062 0.157 7.47 10.98 8.89
9/9/2021 12:30:00 PM 20.59 69.062 0.157 7.47 11.41 8.87
9/9/2021 12:45:00 PM 20.58 69.044 0.157 7.47 11.97 8.87
9/9/2021 1:00:00 PM 20.58 69.044 0.156 7.47 12.11 8.88
9/9/2021 1:15:00 PM 20.56 69.008 0.156 7.46 11.27 8.88
9/9/2021 1:30:00 PM 20.57 69.026 0.156 7.46 12.21 8.89
9/9/2021 1:45:00 PM 20.59 69.062 0.155 7.46 13.02 8.89
9/9/2021 2:00:00 PM 20.61 69.098 0.155 7.46 13.05 8.91
9/9/2021 2:15:00 PM 20.66 69.188 0.156 7.47 11.69 8.91
9/9/2021 2:30:00 PM 20.7 69.26 0.155 7.47 12.44 8.92
9/9/2021 2:45:00 PM 20.74 69.332 0.155 7.47 13.23 8.95
9/9/2021 3:00:00 PM 20.74 69.332 0.155 7.48 12.25 8.95
9/9/2021 3:15:00 PM 20.74 69.332 0.155 7.48 13.33 8.97
9/9/2021 3:30:00 PM 20.72 69.296 0.154 7.47 13.43 8.98
9/9/2021 3:45:00 PM 20.71 69.278 0.154 7.48 12.33 9
9/9/2021 4:00:00 PM 20.68 69.224 0.154 7.49 13.12 9.01
9/9/2021 4:15:00 PM 20.66 69.188 0.154 7.51 11.89 9.02
9/9/2021 4:30:00 PM 20.68 69.224 0.154 7.5 13.09 9.04
9/9/2021 4:45:00 PM 20.7 69.26 0.154 7.5 12.53 9.06
9/9/2021 5:00:00 PM 20.69 69.242 0.154 7.5 12.89 9.06
9/9/2021 5:15:00 PM 20.67 69.206 0.153 7.5 12.86 9.07
9/9/2021 5:30:00 PM 20.65 69.17 0.153 7.5 12.23 9.08
9/9/2021 5:45:00 PM 20.62 69.116 0.153 7.5 11.77 9.07
9/9/2021 6:00:00 PM 20.63 69.134 0.153 7.5 11.41 9.08
9/9/2021 6:15:00 PM 20.62 69.116 0.152 7.51 11.66 9.11
9/9/2021 6:30:00 PM 20.61 69.098 0.152 7.51 11.25 9.11
9/9/2021 6:45:00 PM 20.59 69.062 0.151 7.51 12.4 9.12
9/9/2021 7:00:00 PM 20.58 69.044 0.151 7.51 10.91 9.11
9/9/2021 7:15:00 PM 20.87 69.566 0.169 7.51 8.82 9.19
9/9/2021 7:30:00 PM 20.75 69.35 0.164 7.44 7.13 9.19
9/9/2021 7:45:00 PM 20.48 68.864 0.151 7.49 11.21 9.12
9/9/2021 8:00:00 PM 20.41 68.738 0.149 7.5 11.01 9.11
9/9/2021 8:15:00 PM 20.37 68.666 0.149 7.5 10.65 9.12
9/9/2021 8:30:00 PM 20.34 68.612 0.149 7.5 10.92 9.13
9/9/2021 8:45:00 PM 20.33 68.594 0.148 7.5 10.87 9.13
9/9/2021 9:00:00 PM 20.31 68.558 0.148 7.51 10.89 9.15
9/9/2021 9:15:00 PM 20.3 68.54 0.148 7.5 11.96 9.16
9/9/2021 9:30:00 PM 20.27 68.486 0.147 7.51 11.61 9.18
9/9/2021 9:45:00 PM 20.26 68.468 0.147 7.51 10.97 9.18
9/9/2021 10:00:00 PM 20.23 68.414 0.147 7.51 10.58 9.17
9/9/2021 10:15:00 PM 20.2 68.36 0.147 7.51 9.73 9.18
9/9/2021 10:30:00 PM 20.17 68.306 0.147 7.5 10.71 9.15
9/9/2021 10:45:00 PM 20.15 68.27 0.147 7.5 10.98 9.17
9/9/2021 11:00:00 PM 20.13 68.234 0.147 7.5 10.64 9.16
9/9/2021 11:15:00 PM 20.12 68.216 0.148 7.5 9.9 9.16
9/9/2021 11:30:00 PM 20.11 68.198 0.148 7.49 10.73 9.16
9/9/2021 11:45:00 PM 20.09 68.162 0.149 7.49 10.72 9.17
9/10/2021 12:00:00 AM 20.08 68.144 0.149 7.5 10.04 9.16
9/10/2021 12:15:00 AM 20.05 68.09 0.15 7.5 10.51 9.16
9/10/2021 12:30:00 AM 20.02 68.036 0.15 7.49 10.88 9.16
9/10/2021 12:45:00 AM 19.99 67.982 0.151 7.5 10.34 9.15
9/10/2021 1:00:00 AM 19.95 67.91 0.151 7.5 10.6 9.14
9/10/2021 1:15:00 AM 19.91 67.838 0.153 7.5 10.51 9.13
9/10/2021 1:30:00 AM 19.88 67.784 0.153 7.5 10.31 9.14
9/10/2021 1:45:00 AM 20.09 68.162 0.163 7.53 9.05 9.19
9/10/2021 2:00:00 AM 20.06 68.108 0.16 7.48 8.36 9.21
9/10/2021 2:15:00 AM 19.81 67.658 0.156 7.51 11.01 9.14
9/10/2021 2:30:00 AM 19.77 67.586 0.157 7.51 9.93 9.13
9/10/2021 2:45:00 AM 19.74 67.532 0.157 7.52 10.61 9.13
9/10/2021 3:00:00 AM 19.71 67.478 0.157 7.52 10.94 9.13
9/10/2021 3:15:00 AM 19.69 67.442 0.157 7.52 11.48 9.12
9/10/2021 3:30:00 AM 19.66 67.388 0.157 7.52 11.53 9.09
9/10/2021 3:45:00 AM 19.65 67.37 0.157 7.5 12.1 9.1
9/10/2021 4:00:00 AM 19.62 67.316 0.156 7.51 12.58 9.09
9/10/2021 4:15:00 AM 19.6 67.28 0.156 7.5 12.67 9.09
9/10/2021 4:30:00 AM 19.58 67.244 0.155 7.5 12.35 9.08
9/10/2021 4:45:00 AM 19.55 67.19 0.154 7.5 12.49 9.07
9/10/2021 5:00:00 AM 19.52 67.136 0.154 7.5 12.36 9.06
9/10/2021 5:15:00 AM 19.5 67.1 0.154 7.49 11.9 9.05
9/10/2021 5:30:00 AM 19.48 67.064 0.154 7.49 12.66 9.05
9/10/2021 5:45:00 AM 19.46 67.028 0.153 7.48 12.25 9.05
9/10/2021 6:00:00 AM 19.43 66.974 0.153 7.48 13.06 9.04
9/10/2021 6:15:00 AM 19.41 66.938 0.153 7.48 12 9.01
9/10/2021 6:30:00 AM 19.38 66.884 0.153 7.47 13.01 9.02
9/10/2021 6:45:00 AM 19.36 66.848 0.154 7.48 12.39 9.01
9/10/2021 7:00:00 AM 19.35 66.83 0.154 7.47 12.85 9
9/10/2021 7:15:00 AM 19.34 66.812 0.154 7.47 12.98 8.99
9/10/2021 7:30:00 AM 19.33 66.794 0.154 7.47 12.89 9
9/10/2021 7:45:00 AM 19.31 66.758 0.154 7.47 12.88 8.98
9/10/2021 8:00:00 AM 19.31 66.758 0.154 7.47 12.55 8.99
9/10/2021 8:15:00 AM 19.3 66.74 0.154 7.46 12.69 8.98
9/10/2021 8:30:00 AM 19.29 66.722 0.154 7.46 11.89 8.99
9/10/2021 8:45:00 AM 19.29 66.722 0.154 7.45 12.54 8.98
9/10/2021 9:00:00 AM 19.29 66.722 0.154 7.46 13.07 9
9/10/2021 9:15:00 AM 19.29 66.722 0.154 7.46 12.55 9
9/10/2021 9:30:00 AM 19.32 66.776 0.154 7.46 12.81 9.01
9/10/2021 9:45:00 AM 19.33 66.794 0.155 7.46 12.21 9.02
9/10/2021 10:00:00 AM 19.36 66.848 0.155 7.46 12.86 9.05
9/10/2021 10:15:00 AM 19.41 66.938 0.155 7.46 12.5 9.04
9/10/2021 10:30:00 AM 19.44 66.992 0.155 7.45 10.9 9.07
9/10/2021 10:45:00 AM 19.51 67.118 0.155 7.48 11.78 9.11
9/10/2021 11:00:00 AM 19.57 67.226 0.154 7.48 11.9 9.15
9/10/2021 11:15:00 AM 19.62 67.316 0.154 7.49 12.36 9.18
9/10/2021 11:30:00 AM 19.67 67.406 0.154 7.51 11.82 9.22
9/10/2021 11:45:00 AM 19.68 67.424 0.154 7.51 11.43 9.23
9/10/2021 12:00:00 PM 19.73 67.514 0.154 7.51 11.54 9.25
9/10/2021 12:15:00 PM 19.82 67.676 0.155 7.52 10.99 9.29
9/10/2021 12:30:00 PM 19.9 67.82 0.155 7.53 11.7 9.34
9/10/2021 12:45:00 PM 19.97 67.946 0.155 7.53 11.06 9.34
9/10/2021 1:00:00 PM 20.04 68.07201 0.155 7.54 10.95 9.4
9/10/2021 1:15:00 PM 20.09 68.162 0.155 7.55 11.16 9.42
9/10/2021 1:30:00 PM 20.11 68.198 0.155 7.56 10.57 9.47
9/10/2021 1:45:00 PM 20.13 68.234 0.155 7.57 10.75 9.48
9/10/2021 2:00:00 PM 20.17 68.306 0.155 7.57 10.27 9.5
9/10/2021 2:15:00 PM 20.23 68.414 0.155 7.58 10.94 9.57
9/10/2021 2:30:00 PM 20.29 68.522 0.155 7.58 10.6 9.57
9/10/2021 2:45:00 PM 20.37 68.666 0.155 7.6 10.68 9.61
9/10/2021 3:00:00 PM 20.41 68.738 0.155 7.6 10.76 9.63
9/10/2021 3:15:00 PM 20.45 68.81 0.156 7.62 10.55 9.67
9/10/2021 3:30:00 PM 20.5 68.9 0.156 7.62 10.38 9.71
9/10/2021 3:45:00 PM 20.55 68.99 0.156 7.63 10.5 9.73
9/10/2021 4:00:00 PM 20.58 69.044 0.157 7.64 10.01 9.75
9/10/2021 4:15:00 PM 20.61 69.098 0.157 7.64 9.97 9.79
9/10/2021 4:30:00 PM 20.64 69.152 0.157 7.65 10.29 9.79
9/10/2021 4:45:00 PM 20.66 69.188 0.157 7.66 10.17 9.81
9/10/2021 5:00:00 PM 20.64 69.152 0.157 7.66 10.11 9.81
9/10/2021 5:15:00 PM 20.62 69.116 0.157 7.67 9.52 9.83
9/10/2021 5:30:00 PM 20.6 69.08 0.157 7.67 10.46 9.83
9/10/2021 5:45:00 PM 20.59 69.062 0.157 7.67 9.86 9.83
9/10/2021 6:00:00 PM 20.63 69.134 0.161 7.67 13.68 9.8
9/10/2021 6:15:00 PM 20.65 69.17 0.164 7.6 7.55 9.69
9/10/2021 6:30:00 PM 20.56 69.008 0.16 7.59 8.96 9.7
9/10/2021 6:45:00 PM 20.56 69.008 0.158 7.66 10.79 9.83
9/10/2021 7:00:00 PM 20.55 68.99 0.158 7.66 9.61 9.81
9/10/2021 7:15:00 PM 20.53 68.954 0.158 7.67 9.93 9.81
9/10/2021 7:30:00 PM 20.52 68.936 0.158 7.66 9.13 9.8
9/10/2021 7:45:00 PM 20.49 68.882 0.159 7.66 10.02 9.78
9/10/2021 8:00:00 PM 20.46 68.828 0.159 7.65 9.29 9.77
9/10/2021 8:15:00 PM 20.42 68.756 0.159 7.65 9.46 9.76
9/10/2021 8:30:00 PM 20.38 68.684 0.159 7.64 8.79 9.75
9/10/2021 8:45:00 PM 20.33 68.594 0.159 7.65 8.96 9.75
9/10/2021 9:00:00 PM 20.3 68.54 0.159 7.63 8.38 9.74
9/10/2021 9:15:00 PM 20.25 68.45 0.159 7.64 9.18 9.73
9/10/2021 9:30:00 PM 20.21 68.378 0.159 7.63 8.66 9.74
9/10/2021 9:45:00 PM 20.18 68.324 0.159 7.63 8.63 9.73
9/10/2021 10:00:00 PM 20.14 68.252 0.16 7.63 9.05 9.71
9/10/2021 10:15:00 PM 20.11 68.198 0.16 7.63 8.78 9.7
9/10/2021 10:30:00 PM 20.08 68.144 0.16 7.62 8.54 9.69
9/10/2021 10:45:00 PM 20.04 68.07201 0.16 7.62 8.18 9.68
9/10/2021 11:00:00 PM 20.02 68.036 0.161 7.61 8.23 9.66
9/10/2021 11:15:00 PM 19.98 67.964 0.161 7.61 8.71 9.65
9/10/2021 11:30:00 PM 19.94 67.892 0.161 7.6 8.83 9.62
9/10/2021 11:45:00 PM 19.92 67.856 0.161 7.6 8.64 9.61
9/11/2021 12:00:00 AM 19.9 67.82 0.161 7.6 8.68 9.61
9/11/2021 12:15:00 AM 19.88 67.784 0.161 7.59 8.27 9.6
9/11/2021 12:30:00 AM 19.87 67.766 0.161 7.59 7.68 9.59
9/11/2021 12:45:00 AM 19.86 67.748 0.161 7.59 8.28 9.58
9/11/2021 1:00:00 AM 19.85 67.73 0.161 7.59 8.3 9.58
9/11/2021 1:15:00 AM 19.83 67.694 0.161 7.58 8.25 9.57
9/11/2021 1:30:00 AM 19.82 67.676 0.162 7.59 8.53 9.55
9/11/2021 1:45:00 AM 19.81 67.658 0.162 7.58 8.38 9.53
9/11/2021 2:00:00 AM 19.79 67.622 0.163 7.58 7.8 9.52
9/11/2021 2:15:00 AM 19.77 67.586 0.163 7.57 7.72 9.51
9/11/2021 2:30:00 AM 19.75 67.55 0.163 7.57 8.34 9.49
9/11/2021 2:45:00 AM 19.72 67.496 0.163 7.57 7.91 9.49
9/11/2021 3:00:00 AM 19.69 67.442 0.162 7.57 8.73 9.48
9/11/2021 3:15:00 AM 19.67 67.406 0.162 7.56 7.91 9.47
9/11/2021 3:30:00 AM 19.64 67.352 0.163 7.56 7.51 9.46
9/11/2021 3:45:00 AM 19.61 67.298 0.162 7.56 8.06 9.45
9/11/2021 4:00:00 AM 19.58 67.244 0.163 7.56 8.2 9.44
9/11/2021 4:15:00 AM 19.55 67.19 0.163 7.55 8.08 9.43
9/11/2021 4:30:00 AM 19.52 67.136 0.163 7.55 7.95 9.42
9/11/2021 4:45:00 AM 19.5 67.1 0.164 7.55 7.74 9.4
9/11/2021 5:00:00 AM 19.47 67.046 0.164 7.54 7.71 9.39
9/11/2021 5:15:00 AM 19.45 67.01 0.164 7.55 7.72 9.39
9/11/2021 5:30:00 AM 19.43 66.974 0.163 7.54 7.92 9.37
9/11/2021 5:45:00 AM 19.39 66.902 0.164 7.54 7.96 9.36
9/11/2021 6:00:00 AM 19.37 66.866 0.163 7.53 7.95 9.34
9/11/2021 6:15:00 AM 19.35 66.83 0.164 7.53 7.81 9.33
9/11/2021 6:30:00 AM 19.34 66.812 0.164 7.53 7.74 9.31
9/11/2021 6:45:00 AM 19.33 66.794 0.164 7.52 7.57 9.3
9/11/2021 7:00:00 AM 19.32 66.776 0.164 7.51 7.72 9.3
9/11/2021 7:15:00 AM 19.32 66.776 0.164 7.52 8.02 9.31
9/11/2021 7:30:00 AM 19.31 66.758 0.165 7.52 7.96 9.29
9/11/2021 7:45:00 AM 19.3 66.74 0.165 7.52 7.5 9.29
9/11/2021 8:00:00 AM 19.28 66.704 0.165 7.52 7.55 9.28
9/11/2021 8:15:00 AM 19.27 66.686 0.164 7.53 8.11 9.3
9/11/2021 8:30:00 AM 19.25 66.65 0.164 7.52 7.94 9.3
9/11/2021 8:45:00 AM 19.25 66.65 0.164 7.52 7.72 9.31
9/11/2021 9:00:00 AM 19.26 66.668 0.163 7.53 7.2 9.33
9/11/2021 9:15:00 AM 19.26 66.668 0.164 7.53 7.17 9.35
9/11/2021 9:30:00 AM 19.28 66.704 0.164 7.54 8.56 9.37
9/11/2021 9:45:00 AM 19.29 66.722 0.164 7.54 7.07 9.38
9/11/2021 10:00:00 AM 19.69 67.442 0.175 7.59 7.73 9.61
9/11/2021 10:15:00 AM 19.68 67.424 0.172 7.47 6.27 9.66
9/11/2021 10:30:00 AM 19.43 66.974 0.166 7.52 6.67 9.47
9/11/2021 10:45:00 AM 19.41 66.938 0.165 7.55 7.15 9.5
9/11/2021 11:00:00 AM 19.46 67.028 0.164 7.57 7.18 9.53
9/11/2021 11:15:00 AM 19.49 67.082 0.164 7.58 7.11 9.57
9/11/2021 11:30:00 AM 19.55 67.19 0.164 7.57 6.66 9.56
9/11/2021 11:45:00 AM 19.6 67.28 0.164 7.59 6.96 9.6
9/11/2021 12:00:00 PM 19.65 67.37 0.164 7.57 7 9.62
9/11/2021 12:15:00 PM 19.71 67.478 0.164 7.6 6.97 9.66
9/11/2021 12:30:00 PM 19.78 67.604 0.164 7.62 6.77 9.69
9/11/2021 12:45:00 PM 19.84 67.712 0.165 7.63 6.89 9.76
9/11/2021 1:00:00 PM 19.91 67.838 0.165 7.65 6.82 9.78
9/11/2021 1:15:00 PM 19.98 67.964 0.165 7.66 6.9 9.85
9/11/2021 1:30:00 PM 20.04 68.07201 0.165 7.68 6.35 9.87
9/11/2021 1:45:00 PM 20.1 68.18 0.165 7.68 6.76 9.92
9/11/2021 2:00:00 PM 20.15 68.27 0.164 7.69 6.37 9.97
9/11/2021 2:15:00 PM 20.19 68.342 0.164 7.72 7.04 10.01
9/11/2021 2:30:00 PM 20.23 68.414 0.164 7.73 6.65 10.05
9/11/2021 2:45:00 PM 20.29 68.522 0.164 7.75 6.65 10.11
9/11/2021 3:00:00 PM 20.34 68.612 0.164 7.74 6.55 10.11
9/11/2021 3:15:00 PM 20.4 68.72 0.165 7.76 6.46 10.13
9/11/2021 3:30:00 PM 20.45 68.81 0.165 7.75 6.74 10.15
9/11/2021 3:45:00 PM 20.52 68.936 0.165 7.79 6.79 10.19
9/11/2021 4:00:00 PM 20.56 69.008 0.165 7.8 6.87 10.22
9/11/2021 4:15:00 PM 20.6 69.08 0.166 7.8 6.49 10.24
9/11/2021 4:30:00 PM 20.64 69.152 0.166 7.82 6.58 10.25
9/11/2021 4:45:00 PM 20.66 69.188 0.166 7.82 6.7 10.28
9/11/2021 5:00:00 PM 20.68 69.224 0.166 7.83 6.71 10.28
9/11/2021 5:15:00 PM 20.68 69.224 0.166 7.84 6.42 10.25
9/11/2021 5:30:00 PM 20.65 69.17 0.166 7.84 6.29 10.27
9/11/2021 5:45:00 PM 20.61 69.098 0.166 7.84 6.21 10.26
9/11/2021 6:00:00 PM 20.56 69.008 0.166 7.84 6.56 10.25
9/11/2021 6:15:00 PM 20.5 68.9 0.166 7.83 6.61 10.22
9/11/2021 6:30:00 PM 20.44 68.792 0.166 7.82 6.93 10.22
9/11/2021 6:45:00 PM 20.38 68.684 0.166 7.81 7.24 10.18
9/11/2021 7:00:00 PM 20.33 68.594 0.167 7.8 6.28 10.16
9/11/2021 7:15:00 PM 20.27 68.486 0.167 7.79 6.56 10.14
9/11/2021 7:30:00 PM 20.22 68.396 0.167 7.78 6.53 10.13
9/11/2021 7:45:00 PM 20.19 68.342 0.167 7.77 6.57 10.12
9/11/2021 8:00:00 PM 20.16 68.288 0.167 7.77 6.63 10.09
9/11/2021 8:15:00 PM 20.12 68.216 0.167 7.76 6.4 10.06
9/11/2021 8:30:00 PM 20.08 68.144 0.167 7.75 6.39 10.04
9/11/2021 8:45:00 PM 20.04 68.07201 0.167 7.74 7 10.02
9/11/2021 9:00:00 PM 19.99 67.982 0.167 7.73 6.48 9.99
9/11/2021 9:15:00 PM 19.95 67.91 0.167 7.73 6.73 9.99
9/11/2021 9:30:00 PM 19.91 67.838 0.167 7.72 6.22 9.98
9/11/2021 9:45:00 PM 19.87 67.766 0.167 7.72 6.6 9.98
9/11/2021 10:00:00 PM 19.84 67.712 0.167 7.71 6.1 9.97
9/11/2021 10:15:00 PM 19.81 67.658 0.168 7.7 6.55 9.94
9/11/2021 10:30:00 PM 19.78 67.604 0.168 7.69 6.07 9.91
9/11/2021 10:45:00 PM 19.75 67.55 0.168 7.69 6.15 9.89
9/11/2021 11:00:00 PM 19.71 67.478 0.168 7.67 6.75 9.87
9/11/2021 11:15:00 PM 19.68 67.424 0.169 7.67 6.57 9.85
9/11/2021 11:30:00 PM 19.66 67.388 0.169 7.66 6.59 9.84
9/11/2021 11:45:00 PM 19.63 67.334 0.169 7.66 6.35 9.82
9/12/2021 12:00:00 AM 19.61 67.298 0.169 7.65 6.57 9.79
9/12/2021 12:15:00 AM 19.59 67.262 0.169 7.64 6.34 9.78
9/12/2021 12:30:00 AM 19.58 67.244 0.169 7.63 6.36 9.77
9/12/2021 12:45:00 AM 19.57 67.226 0.169 7.63 6.04 9.75
9/12/2021 1:00:00 AM 19.55 67.19 0.168 7.62 6.1 9.74
9/12/2021 1:15:00 AM 19.54 67.172 0.168 7.62 6.52 9.73
9/12/2021 1:30:00 AM 19.54 67.172 0.168 7.62 6.41 9.73
9/12/2021 1:45:00 AM 19.54 67.172 0.168 7.61 6.14 9.71
9/12/2021 2:00:00 AM 19.54 67.172 0.169 7.61 6.04 9.7
9/12/2021 2:15:00 AM 19.54 67.172 0.169 7.61 6.21 9.67
9/12/2021 2:30:00 AM 19.55 67.19 0.169 7.6 6.59 9.67
9/12/2021 2:45:00 AM 19.55 67.19 0.169 7.6 6.45 9.67
9/12/2021 3:00:00 AM 19.54 67.172 0.169 7.6 6.89 9.66
9/12/2021 3:15:00 AM 19.54 67.172 0.169 7.6 6.54 9.63
9/12/2021 3:30:00 AM 19.53 67.154 0.169 7.59 6.17 9.63
9/12/2021 3:45:00 AM 19.53 67.154 0.169 7.59 6.46 9.63
9/12/2021 4:00:00 AM 19.51 67.118 0.17 7.59 6.05 9.6
9/12/2021 4:15:00 AM 19.5 67.1 0.169 7.58 6.54 9.58
9/12/2021 4:30:00 AM 19.49 67.082 0.169 7.58 6.41 9.58
9/12/2021 4:45:00 AM 19.46 67.028 0.169 7.58 6.37 9.56
9/12/2021 5:00:00 AM 19.44 66.992 0.169 7.58 6.25 9.55
9/12/2021 5:15:00 AM 19.43 66.974 0.169 7.57 6.25 9.54
9/12/2021 5:30:00 AM 19.41 66.938 0.169 7.57 5.85 9.52
9/12/2021 5:45:00 AM 19.41 66.938 0.169 7.56 6.2 9.49
9/12/2021 6:00:00 AM 19.39 66.902 0.169 7.56 6.42 9.47
9/12/2021 6:15:00 AM 19.39 66.902 0.169 7.56 6.19 9.44
9/12/2021 6:30:00 AM 19.37 66.866 0.17 7.55 6.18 9.43
9/12/2021 6:45:00 AM 19.36 66.848 0.17 7.55 6.37 9.41
9/12/2021 7:00:00 AM 19.35 66.83 0.17 7.54 6.18 9.4
9/12/2021 7:15:00 AM 19.34 66.812 0.17 7.54 6.51 9.37
9/12/2021 7:30:00 AM 19.34 66.812 0.17 7.54 5.96 9.36
9/12/2021 7:45:00 AM 19.33 66.794 0.17 7.53 6.61 9.36
9/12/2021 8:00:00 AM 19.33 66.794 0.17 7.54 5.99 9.37
9/12/2021 8:15:00 AM 19.33 66.794 0.17 7.54 6.49 9.37
9/12/2021 8:30:00 AM 19.33 66.794 0.17 7.54 6.55 9.39
9/12/2021 8:45:00 AM 19.66 67.388 0.177 7.61 9.08 9.59
9/12/2021 9:00:00 AM 19.62 67.316 0.175 7.54 5.55 9.57
9/12/2021 9:15:00 AM 19.43 66.974 0.171 7.54 6.36 9.43
9/12/2021 9:30:00 AM 19.41 66.938 0.17 7.56 6 9.48
9/12/2021 9:45:00 AM 19.44 66.992 0.17 7.56 6.55 9.5
9/12/2021 10:00:00 AM 19.47 67.046 0.17 7.56 6.5 9.52
9/12/2021 10:15:00 AM 19.49 67.082 0.171 7.58 6.32 9.55
9/12/2021 10:30:00 AM 19.49 67.082 0.17 7.58 6.25 9.56
9/12/2021 10:45:00 AM 19.5 67.1 0.17 7.59 6.31 9.59
9/12/2021 11:00:00 AM 19.54 67.172 0.17 7.6 6.05 9.63
9/12/2021 11:15:00 AM 19.59 67.262 0.171 7.6 6.36 9.63
9/12/2021 11:30:00 AM 19.64 67.352 0.171 7.61 5.97 9.67
9/12/2021 11:45:00 AM 19.66 67.388 0.171 7.63 6.08 9.7
9/12/2021 12:00:00 PM 19.69 67.442 0.171 7.62 5.83 9.72
9/12/2021 12:15:00 PM 19.72 67.496 0.171 7.62 6.1 9.76
9/12/2021 12:30:00 PM 19.76 67.568 0.17 7.65 5.88 9.82
9/12/2021 12:45:00 PM 19.79 67.622 0.17 7.66 6.22 9.85
9/12/2021 1:00:00 PM 19.82 67.676 0.171 7.66 6.11 9.89
9/12/2021 1:15:00 PM 19.87 67.766 0.171 7.68 6.06 9.92
9/12/2021 1:30:00 PM 19.89 67.802 0.171 7.69 6.45 9.97
9/12/2021 1:45:00 PM 19.92 67.856 0.171 7.71 5.93 10
9/12/2021 2:00:00 PM 19.96 67.92799 0.171 7.72 6.07 10.05
9/12/2021 2:15:00 PM 20.01 68.018 0.171 7.73 5.76 10.07
9/12/2021 2:30:00 PM 20.03 68.054 0.171 7.74 6.41 10.11
9/12/2021 2:45:00 PM 20.06 68.108 0.171 7.76 5.86 10.15
9/12/2021 3:00:00 PM 20.08 68.144 0.171 7.76 5.96 10.18
9/12/2021 3:15:00 PM 20.12 68.216 0.172 7.76 5.88 10.21
9/12/2021 3:30:00 PM 20.18 68.324 0.172 7.8 5.9 10.26
9/12/2021 3:45:00 PM 20.23 68.414 0.172 7.81 6.02 10.3
9/12/2021 4:00:00 PM 20.26 68.468 0.172 7.81 6.17 10.3
9/12/2021 4:15:00 PM 20.29 68.522 0.172 7.82 5.91 10.33
9/12/2021 4:30:00 PM 20.33 68.594 0.172 7.85 5.94 10.37
9/12/2021 4:45:00 PM 20.36 68.648 0.172 7.86 5.61 10.41
9/12/2021 5:00:00 PM 20.38 68.684 0.172 7.87 5.96 10.41
9/12/2021 5:15:00 PM 20.43 68.774 0.175 7.87 6.24 10.3
9/12/2021 5:30:00 PM 20.41 68.738 0.179 7.69 5.39 9.97
9/12/2021 5:45:00 PM 20.38 68.684 0.174 7.74 5.24 10.17
9/12/2021 6:00:00 PM 20.42 68.756 0.173 7.85 5.87 10.37
9/12/2021 6:15:00 PM 20.42 68.756 0.173 7.86 5.73 10.36
9/12/2021 6:30:00 PM 20.42 68.756 0.173 7.86 6 10.35
9/12/2021 6:45:00 PM 20.4 68.72 0.173 7.86 5.77 10.33
9/12/2021 7:00:00 PM 20.38 68.684 0.173 7.84 5.73 10.3
9/12/2021 7:15:00 PM 20.37 68.666 0.173 7.84 5.73 10.27
9/12/2021 7:30:00 PM 20.35 68.63 0.173 7.83 6.13 10.25
9/12/2021 7:45:00 PM 20.34 68.612 0.174 7.82 5.78 10.22
9/12/2021 8:00:00 PM 20.33 68.594 0.174 7.81 5.88 10.2
9/12/2021 8:15:00 PM 20.32 68.576 0.174 7.8 6.04 10.17
9/12/2021 8:30:00 PM 20.3 68.54 0.173 7.79 5.86 10.14
9/12/2021 8:45:00 PM 20.28 68.504 0.173 7.78 6.05 10.11
9/12/2021 9:00:00 PM 20.26 68.468 0.174 7.77 5.89 10.08
9/12/2021 9:15:00 PM 20.24 68.432 0.174 7.76 5.73 10.06
9/12/2021 9:30:00 PM 20.22 68.396 0.174 7.75 5.72 10.03
9/12/2021 9:45:00 PM 20.21 68.378 0.174 7.74 5.73 10.02
9/12/2021 10:00:00 PM 20.2 68.36 0.174 7.73 5.52 9.99
9/12/2021 10:15:00 PM 20.19 68.342 0.174 7.72 5.65 9.96
9/12/2021 10:30:00 PM 20.17 68.306 0.174 7.71 5.51 9.94
9/12/2021 10:45:00 PM 20.16 68.288 0.174 7.7 5.88 9.91
9/12/2021 11:00:00 PM 20.15 68.27 0.174 7.69 5.65 9.88
9/12/2021 11:15:00 PM 20.13 68.234 0.175 7.68 5.64 9.86
9/12/2021 11:30:00 PM 20.11 68.198 0.175 7.67 5.81 9.84
9/12/2021 11:45:00 PM 20.09 68.162 0.175 7.66 5.71 9.81
9/13/2021 12:00:00 AM 20.08 68.144 0.175 7.66 5.75 9.79
9/13/2021 12:15:00 AM 20.07 68.126 0.175 7.65 5.73 9.77
9/13/2021 12:30:00 AM 20.06 68.108 0.175 7.64 6.13 9.75
9/13/2021 12:45:00 AM 20.24 68.432 0.183 7.57 5.33 9.71
9/13/2021 1:00:00 AM 20.14 68.252 0.178 7.56 4.48 9.69
9/13/2021 1:15:00 AM 20.04 68.07201 0.175 7.62 5.37 9.71
9/13/2021 1:30:00 AM 20.02 68.036 0.176 7.62 4.96 9.7
9/13/2021 1:45:00 AM 20.01 68.018 0.176 7.62 5.07 9.68
9/13/2021 2:00:00 AM 20.01 68.018 0.176 7.62 5.06 9.67
9/13/2021 2:15:00 AM 20 68 0.176 7.61 4.85 9.66
9/13/2021 2:30:00 AM 19.99 67.982 0.176 7.61 5 9.65
9/13/2021 2:45:00 AM 19.99 67.982 0.176 7.61 4.98 9.64
9/13/2021 3:00:00 AM 19.99 67.982 0.176 7.6 4.92 9.61
9/13/2021 3:15:00 AM 19.98 67.964 0.176 7.6 5.06 9.62
9/13/2021 3:30:00 AM 19.98 67.964 0.175 7.6 4.94 9.6
9/13/2021 3:45:00 AM 19.96 67.92799 0.175 7.6 4.88 9.59
9/13/2021 4:00:00 AM 19.95 67.91 0.176 7.59 4.86 9.58
9/13/2021 4:15:00 AM 19.95 67.91 0.176 7.59 4.87 9.56
9/13/2021 4:30:00 AM 19.94 67.892 0.176 7.59 4.81 9.55
9/13/2021 4:45:00 AM 19.94 67.892 0.176 7.59 4.93 9.54
9/13/2021 5:00:00 AM 19.93 67.874 0.176 7.58 5.08 9.54
9/13/2021 5:15:00 AM 19.93 67.874 0.177 7.58 5.34 9.52
9/13/2021 5:30:00 AM 19.92 67.856 0.177 7.58 5.27 9.5
9/13/2021 5:45:00 AM 19.91 67.838 0.177 7.57 5.17 9.5
9/13/2021 6:00:00 AM 19.91 67.838 0.177 7.57 5.38 9.47
9/13/2021 6:15:00 AM 19.9 67.82 0.177 7.56 5.06 9.45
9/13/2021 6:30:00 AM 19.9 67.82 0.177 7.57 5.26 9.44
9/13/2021 6:45:00 AM 19.89 67.802 0.177 7.56 4.9 9.42
9/13/2021 7:00:00 AM 19.89 67.802 0.177 7.55 5.22 9.42
9/13/2021 7:15:00 AM 19.89 67.802 0.177 7.56 5.41 9.41
9/13/2021 7:30:00 AM 19.89 67.802 0.177 7.56 5.07 9.41
9/13/2021 7:45:00 AM 19.9 67.82 0.177 7.56 5.03 9.42
9/13/2021 8:00:00 AM 19.9 67.82 0.177 7.57 5.08 9.43
9/13/2021 8:15:00 AM 19.91 67.838 0.176 7.57 4.84 9.44
9/13/2021 8:30:00 AM 19.92 67.856 0.176 7.57 5.18 9.44
9/13/2021 8:45:00 AM 19.95 67.91 0.177 7.57 4.94 9.45
9/13/2021 9:00:00 AM 19.98 67.964 0.177 7.58 5.24 9.48
9/13/2021 9:15:00 AM 20.01 68.018 0.177 7.58 4.94 9.48
9/13/2021 9:30:00 AM 20.05 68.09 0.177 7.57 5.39 9.51
9/13/2021 9:45:00 AM 20.08 68.144 0.177 7.6 4.84 9.54
9/13/2021 10:00:00 AM 20.12 68.216 0.177 7.61 4.74 9.57
9/13/2021 10:15:00 AM 20.16 68.288 0.177 7.61 4.98 9.6
9/13/2021 10:30:00 AM 20.22 68.396 0.177 7.62 5.23 9.63
9/13/2021 10:45:00 AM 20.3 68.54 0.177 7.63 4.54 9.69
9/13/2021 11:00:00 AM 20.38 68.684 0.176 7.64 4.79 9.7
9/13/2021 11:15:00 AM 20.41 68.738 0.176 7.64 5.3 9.76
9/13/2021 11:30:00 AM 20.41 68.738 0.177 7.66 5.12 9.76
9/13/2021 11:45:00 AM 20.4 68.72 0.176 7.67 5.05 9.79
9/13/2021 12:00:00 PM 20.43 68.774 0.176 7.68 5.11 9.84
9/13/2021 12:15:00 PM 20.52 68.936 0.176 7.69 4.98 9.86
9/13/2021 12:30:00 PM 20.61 69.098 0.176 7.71 5.01 9.9
9/13/2021 12:45:00 PM 20.69 69.242 0.176 7.73 4.89 9.97
9/13/2021 1:00:00 PM 20.74 69.332 0.177 7.74 10.73 9.98
9/13/2021 1:15:00 PM 20.79 69.422 0.176 7.74 5.42 10.05
9/13/2021 1:30:00 PM 20.81 69.458 0.177 7.75 4.82 10.06
9/13/2021 1:45:00 PM 20.87 69.566 0.176 7.78 4.7 10.13
9/13/2021 2:00:00 PM 20.95 69.71 0.176 7.82 4.91 10.21
9/13/2021 2:15:00 PM 21.06 69.908 0.176 7.81 4.73 10.24
9/13/2021 2:30:00 PM 21.17 70.106 0.176 7.85 5.2 10.28
9/13/2021 2:45:00 PM 21.25 70.25 0.177 7.86 4.99 10.33
9/13/2021 3:00:00 PM 21.33 70.394 0.177 7.87 4.69 10.37
9/13/2021 3:15:00 PM 21.39 70.502 0.177 7.92 4.9 10.42
9/13/2021 3:30:00 PM 21.44 70.592 0.177 7.93 4.78 10.46
9/13/2021 3:45:00 PM 21.48 70.664 0.177 7.94 4.74 10.5
9/13/2021 4:00:00 PM 21.52 70.736 0.177 7.94 4.89 10.49
9/13/2021 4:15:00 PM 21.59 70.862 0.177 7.95 4.82 10.49
9/13/2021 4:30:00 PM 21.65 70.97 0.177 7.96 4.64 10.51
9/13/2021 4:45:00 PM 21.69 71.042 0.177 7.96 4.67 10.49
9/13/2021 5:00:00 PM 21.72 71.096 0.177 7.97 4.99 10.51
9/13/2021 5:15:00 PM 21.74 71.132 0.177 7.98 4.86 10.53
9/13/2021 5:30:00 PM 21.75 71.15 0.177 7.97 4.78 10.49
9/13/2021 5:45:00 PM 21.77 71.186 0.177 7.97 4.79 10.49
9/13/2021 6:00:00 PM 21.78 71.204 0.178 7.99 4.97 10.49
9/13/2021 6:15:00 PM 21.77 71.186 0.177 7.98 5.32 10.47
9/13/2021 6:30:00 PM 21.75 71.15 0.178 7.97 4.97 10.43
9/13/2021 6:45:00 PM 21.63 70.934 0.184 7.87 4.85 10.14
9/13/2021 7:00:00 PM 21.57 70.826 0.182 7.76 4.47 10.02
9/13/2021 7:15:00 PM 21.68 71.024 0.178 7.88 4.61 10.24
9/13/2021 7:30:00 PM 21.67 71.006 0.178 7.89 4.81 10.26
9/13/2021 7:45:00 PM 21.63 70.934 0.178 7.88 5.12 10.22
9/13/2021 8:00:00 PM 21.59 70.862 0.178 7.87 4.85 10.18
9/13/2021 8:15:00 PM 21.55 70.79 0.178 7.85 4.89 10.13
9/13/2021 8:30:00 PM 21.52 70.736 0.178 7.84 5.09 10.11
9/13/2021 8:45:00 PM 21.49 70.682 0.178 7.83 4.46 10.07
9/13/2021 9:00:00 PM 21.46 70.628 0.178 7.82 4.9 10.02
9/13/2021 9:15:00 PM 21.43 70.574 0.178 7.81 4.78 9.99
9/13/2021 9:30:00 PM 21.39 70.502 0.177 7.79 4.69 9.95
9/13/2021 9:45:00 PM 21.35 70.43 0.178 7.78 4.92 9.92
9/13/2021 10:00:00 PM 21.32 70.376 0.178 7.77 4.69 9.89
9/13/2021 10:15:00 PM 21.28 70.304 0.177 7.76 4.67 9.87
9/13/2021 10:30:00 PM 21.25 70.25 0.178 7.75 4.99 9.83
9/13/2021 10:45:00 PM 21.22 70.196 0.178 7.74 4.76 9.82
9/13/2021 11:00:00 PM 21.2 70.16 0.178 7.73 4.82 9.79
9/13/2021 11:15:00 PM 21.18 70.124 0.178 7.72 4.85 9.76
9/13/2021 11:30:00 PM 21.15 70.07 0.177 7.71 4.73 9.73
9/13/2021 11:45:00 PM 21.12 70.016 0.177 7.7 4.59 9.71
9/14/2021 12:00:00 AM 21.1 69.98 0.177 7.69 4.79 9.68
9/14/2021 12:15:00 AM 21.08 69.944 0.177 7.69 4.67 9.65
9/14/2021 12:30:00 AM 21.06 69.908 0.177 7.67 4.81 9.63
9/14/2021 12:45:00 AM 21.04 69.872 0.177 7.66 4.43 9.6
9/14/2021 1:00:00 AM 21.03 69.854 0.177 7.66 4.81 9.58
9/14/2021 1:15:00 AM 21.01 69.818 0.178 7.65 4.92 9.56
9/14/2021 1:30:00 AM 21 69.8 0.178 7.64 4.86 9.55
9/14/2021 1:45:00 AM 21 69.8 0.178 7.64 4.93 9.53
9/14/2021 2:00:00 AM 20.99 69.782 0.178 7.64 4.81 9.51
9/14/2021 2:15:00 AM 20.98 69.764 0.178 7.63 4.8 9.5
9/14/2021 2:30:00 AM 20.97 69.746 0.177 7.63 5.22 9.48
9/14/2021 2:45:00 AM 20.96 69.728 0.177 7.62 4.71 9.46
9/14/2021 3:00:00 AM 20.95 69.71 0.177 7.62 4.92 9.44
9/14/2021 3:15:00 AM 20.94 69.692 0.178 7.61 4.78 9.42
9/14/2021 3:30:00 AM 20.94 69.692 0.178 7.61 4.98 9.41
9/14/2021 3:45:00 AM 20.93 69.674 0.178 7.6 5.15 9.39
9/14/2021 4:00:00 AM 20.92 69.656 0.178 7.6 4.86 9.37
9/14/2021 4:15:00 AM 20.92 69.656 0.178 7.6 5.12 9.37
9/14/2021 4:30:00 AM 20.91 69.638 0.178 7.6 5.14 9.37
9/14/2021 4:45:00 AM 20.9 69.62 0.178 7.59 4.95 9.36
9/14/2021 5:00:00 AM 20.89 69.602 0.179 7.59 4.96 9.34
9/14/2021 5:15:00 AM 20.9 69.62 0.179 7.59 4.87 9.34
9/14/2021 5:30:00 AM 20.9 69.62 0.18 7.59 5.17 9.32
9/14/2021 5:45:00 AM 20.9 69.62 0.181 7.59 5.27 9.3
9/14/2021 6:00:00 AM 20.9 69.62 0.181 7.59 5.17 9.29
9/14/2021 6:15:00 AM 20.9 69.62 0.182 7.59 5.13 9.27
9/14/2021 6:30:00 AM 20.89 69.602 0.183 7.59 5.24 9.26
9/14/2021 6:45:00 AM 20.9 69.62 0.183 7.59 5.15 9.25
9/14/2021 7:00:00 AM 20.89 69.602 0.183 7.59 5.07 9.23
9/14/2021 7:15:00 AM 20.89 69.602 0.183 7.59 5.08 9.23
9/14/2021 7:30:00 AM 20.89 69.602 0.183 7.6 4.91 9.22
9/14/2021 7:45:00 AM 20.89 69.602 0.183 7.59 5.16 9.22
9/14/2021 8:00:00 AM 20.89 69.602 0.182 7.59 5.33 9.23
9/14/2021 8:15:00 AM 20.89 69.602 0.182 7.59 5.77 9.23
9/14/2021 8:30:00 AM 20.89 69.602 0.181 7.59 5.07 9.24
9/14/2021 8:45:00 AM 21.02 69.836 0.189 7.6 5.55 9.39
9/14/2021 9:00:00 AM 21.01 69.818 0.187 7.53 4.31 9.42
9/14/2021 9:15:00 AM 20.93 69.674 0.181 7.59 5.21 9.29
9/14/2021 9:30:00 AM 20.95 69.71 0.18 7.61 4.64 9.33
9/14/2021 9:45:00 AM 21 69.8 0.18 7.61 4.69 9.36
9/14/2021 10:00:00 AM 21.03 69.854 0.179 7.62 4.78 9.39
9/14/2021 10:15:00 AM 21.07 69.926 0.179 7.62 4.89 9.43
9/14/2021 10:30:00 AM 21.11 69.998 0.179 7.64 4.65 9.46
9/14/2021 10:45:00 AM 21.15 70.07 0.179 7.64 4.99 9.49
9/14/2021 11:00:00 AM 21.19 70.142 0.179 7.65 5 9.54
9/14/2021 11:15:00 AM 21.25 70.25 0.178 7.66 5.03 9.57
9/14/2021 11:30:00 AM 21.31 70.358 0.178 7.68 4.51 9.62
9/14/2021 11:45:00 AM 21.38 70.484 0.177 7.69 4.42 9.67
9/14/2021 12:00:00 PM 21.43 70.574 0.178 7.71 4.35 9.7
9/14/2021 12:15:00 PM 21.48 70.664 0.178 7.73 4.47 9.78
9/14/2021 12:30:00 PM 21.54 70.772 0.177 7.74 4.74 9.81
9/14/2021 12:45:00 PM 21.58 70.844 0.177 7.76 4.82 9.87
9/14/2021 1:00:00 PM 21.61 70.898 0.177 7.77 4.38 9.88
9/14/2021 1:15:00 PM 21.64 70.952 0.177 7.78 4.74 9.93
9/14/2021 1:30:00 PM 21.69 71.042 0.177 7.8 4.73 9.98
9/14/2021 1:45:00 PM 21.77 71.186 0.177 7.83 4.75 10.03
9/14/2021 2:00:00 PM 21.84 71.312 0.176 7.84 4.72 10.06
9/14/2021 2:15:00 PM 21.9 71.42 0.176 7.87 4.58 10.13
9/14/2021 2:30:00 PM 21.94 71.492 0.175 7.88 4.54 10.15
9/14/2021 2:45:00 PM 21.96 71.528 0.174 7.88 4.39 10.18
9/14/2021 3:00:00 PM 22 71.6 0.174 7.91 4.42 10.23
9/14/2021 3:15:00 PM 22.04 71.672 0.173 7.92 5.05 10.28
9/14/2021 3:30:00 PM 22.07 71.726 0.173 7.94 4.69 10.3
9/14/2021 3:45:00 PM 22.08 71.744 0.172 7.95 4.56 10.3
9/14/2021 4:00:00 PM 22.08 71.744 0.171 7.97 5.35 10.33
9/14/2021 4:15:00 PM 22.08 71.744 0.17 7.96 5.17 10.34
9/14/2021 4:30:00 PM 22.09 71.762 0.17 7.98 4.96 10.35
9/14/2021 4:45:00 PM 22.08 71.744 0.17 7.98 4.94 10.35
9/14/2021 5:00:00 PM 22.08 71.744 0.169 7.98 5.04 10.34
9/14/2021 5:15:00 PM 22.06 71.708 0.168 7.97 5.08 10.31
9/14/2021 5:30:00 PM 22.05 71.69 0.168 7.98 5.36 10.3
9/14/2021 5:45:00 PM 22.04 71.672 0.168 7.96 5.18 10.28
9/14/2021 6:00:00 PM 22.02 71.636 0.167 7.96 5 10.25
9/14/2021 6:15:00 PM 22 71.6 0.167 7.94 5.57 10.21
9/14/2021 6:30:00 PM 21.97 71.546 0.167 7.93 5.72 10.17
9/14/2021 6:45:00 PM 21.94 71.492 0.167 7.9 6.24 10.11
9/14/2021 7:00:00 PM 21.91 71.438 0.167 7.87 5.8 10.06
9/14/2021 7:15:00 PM 21.89 71.402 0.168 7.85 5.88 10
9/14/2021 7:30:00 PM 21.88 71.384 0.168 7.84 6.12 9.96
9/14/2021 7:45:00 PM 21.86 71.348 0.168 7.82 6.72 9.91
9/14/2021 8:00:00 PM 21.85 71.33 0.168 7.81 6.65 9.86
9/14/2021 8:15:00 PM 21.84 71.312 0.168 7.78 7.1 9.81
9/14/2021 8:30:00 PM 21.83 71.294 0.175 7.76 8.01 9.7
9/14/2021 8:45:00 PM 21.86 71.348 0.178 7.66 5.5 9.55
9/14/2021 9:00:00 PM 21.79 71.222 0.17 7.7 6.6 9.63
9/14/2021 9:15:00 PM 21.75 71.15 0.169 7.71 7.56 9.63
9/14/2021 9:30:00 PM 21.71 71.078 0.169 7.69 7.61 9.59
9/14/2021 9:45:00 PM 21.68 71.024 0.17 7.68 7.8 9.56
9/14/2021 10:00:00 PM 21.65 70.97 0.17 7.67 7.65 9.52
9/14/2021 10:15:00 PM 21.62 70.916 0.17 7.66 8.15 9.48
9/14/2021 10:30:00 PM 21.59 70.862 0.17 7.65 7.25 9.46
9/14/2021 10:45:00 PM 21.55 70.79 0.171 7.64 7.38 9.43
9/14/2021 11:00:00 PM 21.53 70.754 0.171 7.63 7.47 9.4
9/14/2021 11:15:00 PM 21.51 70.718 0.171 7.62 7.82 9.38
9/14/2021 11:30:00 PM 21.49 70.682 0.171 7.61 7.76 9.36
9/14/2021 11:45:00 PM 21.47 70.646 0.172 7.62 7.93 9.33
9/15/2021 12:00:00 AM 21.45 70.61 0.173 7.59 8.31 9.31
9/15/2021 12:15:00 AM 21.44 70.592 0.173 7.58 7.67 9.28
9/15/2021 12:30:00 AM 21.43 70.574 0.173 7.59 7.37 9.27
9/15/2021 12:45:00 AM 21.43 70.574 0.174 7.58 7.45 9.26
9/15/2021 1:00:00 AM 21.42 70.556 0.174 7.57 7.24 9.25
9/15/2021 1:15:00 AM 21.41 70.538 0.173 7.56 7.8 9.25
9/15/2021 1:30:00 AM 21.4 70.52 0.174 7.57 7.12 9.24
9/15/2021 1:45:00 AM 21.4 70.52 0.174 7.56 7.52 9.23
9/15/2021 2:00:00 AM 21.4 70.52 0.174 7.56 7.15 9.24
9/15/2021 2:15:00 AM 21.4 70.52 0.175 7.56 7.1 9.22
9/15/2021 2:30:00 AM 21.4 70.52 0.175 7.56 7.24 9.23
9/15/2021 2:45:00 AM 21.4 70.52 0.176 7.56 7.66 9.21
9/15/2021 3:00:00 AM 21.4 70.52 0.176 7.56 7.27 9.21
9/15/2021 3:15:00 AM 21.4 70.52 0.176 7.56 7.36 9.21
9/15/2021 3:30:00 AM 21.39 70.502 0.176 7.55 7.27 9.21
9/15/2021 3:45:00 AM 21.37 70.466 0.176 7.55 7.39 9.2
9/15/2021 4:00:00 AM 21.36 70.448 0.176 7.55 7.06 9.19
9/15/2021 4:15:00 AM 21.35 70.43 0.176 7.55 7.11 9.19
9/15/2021 4:30:00 AM 21.34 70.412 0.176 7.55 6.85 9.18
9/15/2021 4:45:00 AM 21.32 70.376 0.176 7.56 6.43 9.17
9/15/2021 5:00:00 AM 21.31 70.358 0.176 7.55 7.23 9.16
9/15/2021 5:15:00 AM 21.3 70.34 0.176 7.56 6.66 9.15
9/15/2021 5:30:00 AM 21.3 70.34 0.176 7.54 6.6 9.14
9/15/2021 5:45:00 AM 21.29 70.32201 0.176 7.55 6.67 9.13
9/15/2021 6:00:00 AM 21.28 70.304 0.175 7.54 6.68 9.12
9/15/2021 6:15:00 AM 21.27 70.286 0.175 7.54 6.37 9.11
9/15/2021 6:30:00 AM 21.26 70.268 0.175 7.54 6.54 9.09
9/15/2021 6:45:00 AM 21.26 70.268 0.175 7.54 6.66 9.09
9/15/2021 7:00:00 AM 21.25 70.25 0.175 7.54 6.61 9.08
9/15/2021 7:15:00 AM 21.25 70.25 0.175 7.54 6.61 9.08
9/15/2021 7:30:00 AM 21.25 70.25 0.175 7.53 6.33 9.07
9/15/2021 7:45:00 AM 21.25 70.25 0.175 7.54 6.5 9.06
9/15/2021 8:00:00 AM 21.27 70.286 0.175 7.54 6.35 9.07
9/15/2021 8:15:00 AM 21.27 70.286 0.175 7.54 6.14 9.08
9/15/2021 8:30:00 AM 21.28 70.304 0.175 7.54 6 9.05
9/15/2021 8:45:00 AM 21.54 70.772 0.184 7.55 5.06 9.21
9/15/2021 9:00:00 AM 21.34 70.412 0.175 7.55 6.27 9.08
9/15/2021 9:15:00 AM 21.58 70.844 0.186 7.6 8.01 9.25
9/15/2021 9:30:00 AM 21.57 70.826 0.184 7.52 4.71 9.22
9/15/2021 9:45:00 AM 21.43 70.574 0.176 7.55 5.97 9.1
9/15/2021 10:00:00 AM 21.51 70.718 0.175 7.57 7.22 9.2
9/15/2021 10:15:00 AM 21.56 70.808 0.176 7.58 6.52 9.2
9/15/2021 10:30:00 AM 21.61 70.898 0.175 7.59 6.94 9.24
9/15/2021 10:45:00 AM 21.67 71.006 0.176 7.59 6.92 9.28
9/15/2021 11:00:00 AM 21.73 71.114 0.176 7.61 7.38 9.32
9/15/2021 11:15:00 AM 21.8 71.24 0.175 7.62 7.12 9.36
9/15/2021 11:30:00 AM 21.86 71.348 0.176 7.63 6.74 9.41
9/15/2021 11:45:00 AM 21.94 71.492 0.175 7.65 7.17 9.46
9/15/2021 12:00:00 PM 22.01 71.618 0.175 7.65 7.42 9.49
9/15/2021 12:15:00 PM 22.09 71.762 0.176 7.68 7.21 9.52
9/15/2021 12:30:00 PM 22.17 71.906 0.177 7.69 7.55 9.59
9/15/2021 12:45:00 PM 22.27 72.086 0.177 7.71 7.29 9.66
9/15/2021 1:00:00 PM 22.35 72.23 0.176 7.73 6.66 9.7
9/15/2021 1:15:00 PM 22.44 72.392 0.176 7.74 6.59 9.76
9/15/2021 1:30:00 PM 22.51 72.518 0.176 7.76 7.12 9.79
9/15/2021 1:45:00 PM 22.58 72.644 0.177 7.79 6.91 9.88
9/15/2021 2:00:00 PM 22.63 72.734 0.177 7.81 6.82 9.92
9/15/2021 2:15:00 PM 22.66 72.788 0.177 7.82 6.69 9.93
9/15/2021 2:30:00 PM 22.68 72.824 0.177 7.83 6.79 9.96
9/15/2021 2:45:00 PM 22.67 72.806 0.177 7.85 7.11 9.97
9/15/2021 3:00:00 PM 22.59 72.662 0.176 7.85 6.49 9.89
9/15/2021 3:15:00 PM 22.57 72.626 0.175 7.86 7.04 9.83
9/15/2021 3:30:00 PM 22.54 72.57201 0.176 7.86 6.79 9.81
9/15/2021 3:45:00 PM 22.55 72.59 0.174 7.93 9.89 9.77
9/15/2021 4:00:00 PM 22.55 72.59 0.173 7.91 10.33 9.73
9/15/2021 4:15:00 PM 22.54 72.57201 0.176 7.87 7.97 9.73
9/15/2021 4:30:00 PM 22.53 72.554 0.178 7.85 7.49 9.71
9/15/2021 4:45:00 PM 22.52 72.536 0.178 7.84 6.69 9.71
9/15/2021 5:00:00 PM 22.51 72.518 0.178 7.84 6.73 9.71
9/15/2021 5:15:00 PM 22.5 72.5 0.178 7.84 7.13 9.69
9/15/2021 5:30:00 PM 22.48 72.464 0.178 7.83 7.05 9.68
9/15/2021 5:45:00 PM 22.47 72.446 0.178 7.82 6.95 9.66
9/15/2021 6:00:00 PM 22.45 72.41 0.179 7.8 6.6 9.64
9/15/2021 6:15:00 PM 22.42 72.356 0.18 7.8 6.91 9.63
9/15/2021 6:30:00 PM 22.4 72.32 0.181 7.79 6.89 9.61
9/15/2021 6:45:00 PM 22.37 72.266 0.181 7.78 6.45 9.59
9/15/2021 7:00:00 PM 22.33 72.194 0.182 7.77 6.34 9.56
9/15/2021 7:15:00 PM 22.29 72.122 0.183 7.76 6.39 9.52
9/15/2021 7:30:00 PM 22.25 72.05 0.184 7.75 6.17 9.48
9/15/2021 7:45:00 PM 22.2 71.96 0.184 7.74 6.83 9.44
9/15/2021 8:00:00 PM 22.15 71.87 0.185 7.73 6.54 9.39
9/15/2021 8:15:00 PM 22.1 71.78 0.185 7.71 6.29 9.35
9/15/2021 8:30:00 PM 22.05 71.69 0.185 7.7 6.59 9.31
9/15/2021 8:45:00 PM 22 71.6 0.186 7.69 6.26 9.27
9/15/2021 9:00:00 PM 21.95 71.51 0.187 7.68 6.35 9.23
9/15/2021 9:15:00 PM 21.92 71.456 0.187 7.66 6.83 9.2
9/15/2021 9:30:00 PM 21.88 71.384 0.188 7.66 6.68 9.17
9/15/2021 9:45:00 PM 21.86 71.348 0.19 7.66 6.57 9.17
9/15/2021 10:00:00 PM 21.83 71.294 0.196 7.66 6.51 9.15
9/15/2021 10:15:00 PM 21.8 71.24 0.203 7.7 6.81 9.14
9/15/2021 10:30:00 PM 21.78 71.204 0.202 7.68 6.7 9.15
9/15/2021 10:45:00 PM 21.76 71.168 0.197 7.67 6.11 9.14
9/15/2021 11:00:00 PM 21.74 71.132 0.193 7.65 6.39 9.13
9/15/2021 11:15:00 PM 21.72 71.096 0.197 7.66 6.54 9.11
9/15/2021 11:30:00 PM 21.71 71.078 0.202 7.66 6.71 9.1
9/15/2021 11:45:00 PM 21.69 71.042 0.2 7.66 6.06 9.08
9/16/2021 12:00:00 AM 21.68 71.024 0.199 7.65 6.35 9.07
9/16/2021 12:15:00 AM 21.67 71.006 0.198 7.65 6.42 9.05
9/16/2021 12:30:00 AM 21.66 70.988 0.198 7.63 6.26 9.05
9/16/2021 12:45:00 AM 21.66 70.988 0.195 7.63 6.52 9.06
9/16/2021 1:00:00 AM 21.66 70.988 0.194 7.62 6.56 9.05
9/16/2021 1:15:00 AM 21.66 70.988 0.193 7.62 6.3 9.03
9/16/2021 1:30:00 AM 21.65 70.97 0.194 7.63 6.6 9.03
9/16/2021 1:45:00 AM 21.79 71.222 0.196 7.63 6.31 9.18
9/16/2021 2:00:00 AM 21.79 71.222 0.196 7.58 4.83 9.16
9/16/2021 2:15:00 AM 21.66 70.988 0.194 7.61 6.64 9.03
9/16/2021 2:30:00 AM 21.67 71.006 0.194 7.61 5.92 9
9/16/2021 2:45:00 AM 21.67 71.006 0.193 7.61 6.34 9
9/16/2021 3:00:00 AM 21.65 70.97 0.194 7.61 6.1 8.99
9/16/2021 3:15:00 AM 21.64 70.952 0.193 7.61 6.76 8.96
9/16/2021 3:30:00 AM 21.63 70.934 0.192 7.61 6.48 8.96
9/16/2021 3:45:00 AM 21.62 70.916 0.191 7.59 6.58 8.96
9/16/2021 4:00:00 AM 21.61 70.898 0.19 7.59 6.53 8.95
9/16/2021 4:15:00 AM 21.6 70.88 0.19 7.59 6.58 8.94
9/16/2021 4:30:00 AM 21.58 70.844 0.189 7.59 7.74 8.93
9/16/2021 4:45:00 AM 21.57 70.826 0.189 7.59 6.78 8.92
9/16/2021 5:00:00 AM 21.55 70.79 0.188 7.58 7.57 8.91
9/16/2021 5:15:00 AM 21.53 70.754 0.188 7.57 7.44 8.89
9/16/2021 5:30:00 AM 21.51 70.718 0.188 7.57 7.65 8.86
9/16/2021 5:45:00 AM 21.49 70.682 0.188 7.57 8.45 8.84
9/16/2021 6:00:00 AM 21.47 70.646 0.188 7.57 8.22 8.82
9/16/2021 6:15:00 AM 21.44 70.592 0.188 7.56 8.76 8.8
9/16/2021 6:30:00 AM 21.41 70.538 0.188 7.55 9.16 8.76
9/16/2021 6:45:00 AM 21.38 70.484 0.187 7.55 9.57 8.74
9/16/2021 7:00:00 AM 21.32 70.376 0.184 7.54 10.21 8.7
9/16/2021 7:15:00 AM 21.22 70.196 0.177 7.52 14.88 8.64
9/16/2021 7:30:00 AM 21.08 69.944 0.169 7.49 24.23 8.59
9/16/2021 7:45:00 AM 20.94 69.692 0.161 7.47 39.91 8.53
9/16/2021 8:00:00 AM 20.83 69.494 0.156 7.44 68.01 8.49
9/16/2021 8:15:00 AM 20.7 69.26 0.15 7.43 97.23 8.45
9/16/2021 8:30:00 AM 20.61 69.098 0.146 7.4 120.28 8.41
9/16/2021 8:45:00 AM 20.5 68.9 0.142 7.37 171.76 8.39
9/16/2021 9:00:00 AM 20.41 68.738 0.139 7.36 225.13 8.38
9/16/2021 9:15:00 AM 20.32 68.576 0.136 7.35 253.78 8.38
9/16/2021 9:30:00 AM 20.26 68.468 0.134 7.34 343.51 8.38
9/16/2021 9:45:00 AM 20.19 68.342 0.132 7.34 356.24 8.38
9/16/2021 10:00:00 AM 20.14 68.252 0.13 7.34 368.04 8.38
9/16/2021 10:15:00 AM 20.09 68.162 0.129 7.32 428.17 8.39
9/16/2021 10:30:00 AM 20.07 68.126 0.129 7.32 420.12 8.4
9/16/2021 10:45:00 AM 20.23 68.414 0.137 7.35 368.71 8.59
9/16/2021 11:00:00 AM 20.97 69.746 0.175 7.43 139.44 8.96
9/16/2021 11:15:00 AM 20.37 68.666 0.141 7.37 336.82 8.59
9/16/2021 11:30:00 AM 20.06 68.108 0.13 7.33 374.17 8.48
9/16/2021 11:45:00 AM 20.05 68.09 0.129 7.31 354.15 8.49
9/16/2021 12:00:00 PM 20.06 68.108 0.129 7.31 323.92 8.51
9/16/2021 12:15:00 PM 20.08 68.144 0.129 7.31 352.53 8.52
9/16/2021 12:30:00 PM 20.1 68.18 0.129 7.31 296.81 8.54
9/16/2021 12:45:00 PM 20.12 68.216 0.128 7.3 279.71 8.56
9/16/2021 1:00:00 PM 20.13 68.234 0.127 7.31 257.71 8.58
9/16/2021 1:15:00 PM 20.14 68.252 0.126 7.3 236.13 8.59
9/16/2021 1:30:00 PM 20.14 68.252 0.125 7.3 259.24 8.61
9/16/2021 1:45:00 PM 20.16 68.288 0.125 7.3 216.15 8.63
9/16/2021 2:00:00 PM 20.18 68.324 0.126 7.31 203.58 8.65
9/16/2021 2:15:00 PM 20.19 68.342 0.127 7.3 183.74 8.65
9/16/2021 2:30:00 PM 20.21 68.378 0.128 7.32 160.71 8.66
9/16/2021 2:45:00 PM 20.24 68.432 0.129 7.31 136.08 8.67
9/16/2021 3:00:00 PM 20.25 68.45 0.13 7.32 143.41 8.68
9/16/2021 3:15:00 PM 20.29 68.522 0.131 7.32 131.59 8.69
9/16/2021 3:30:00 PM 20.33 68.594 0.131 7.33 129.31 8.71
9/16/2021 3:45:00 PM 20.35 68.63 0.133 7.34 135.48 8.72
9/16/2021 4:00:00 PM 20.38 68.684 0.132 7.34 114.21 8.73
9/16/2021 4:15:00 PM 20.4 68.72 0.131 7.34 115.3 8.75
9/16/2021 4:30:00 PM 20.4 68.72 0.129 7.34 102.79 8.75
9/16/2021 4:45:00 PM 20.4 68.72 0.127 7.34 95.12 8.76
9/16/2021 5:00:00 PM 20.39 68.702 0.125 7.34 85.65 8.77
9/16/2021 5:15:00 PM 20.37 68.666 0.123 7.35 79.68 8.78
9/16/2021 5:30:00 PM 20.35 68.63 0.121 7.34 85.82 8.79
9/16/2021 5:45:00 PM 20.32 68.576 0.119 7.34 73.25 8.8
9/16/2021 6:00:00 PM 20.29 68.522 0.118 7.34 74.13 8.81
9/16/2021 6:15:00 PM 20.26 68.468 0.117 7.35 72.04 8.83
9/16/2021 6:30:00 PM 20.23 68.414 0.116 7.34 63.75 8.84
9/16/2021 6:45:00 PM 20.19 68.342 0.116 7.35 64.02 8.84
9/16/2021 7:00:00 PM 20.15 68.27 0.116 7.35 58.08 8.86
9/16/2021 7:15:00 PM 20.11 68.198 0.114 7.35 58.08 8.88
9/16/2021 7:30:00 PM 20.09 68.162 0.113 7.35 56.9 8.89
9/16/2021 7:45:00 PM 20.08 68.144 0.113 7.34 54.56 8.89
9/16/2021 8:00:00 PM 20.05 68.09 0.113 7.34 48.75 8.89
9/16/2021 8:15:00 PM 20.3 68.54 0.134 7.39 42.38 8.97
9/16/2021 8:30:00 PM 20.3 68.54 0.131 7.34 34.59 9.04
9/16/2021 8:45:00 PM 20.02 68.036 0.113 7.34 46.13 8.92
9/16/2021 9:00:00 PM 19.98 67.964 0.112 7.33 49.23 8.92
9/16/2021 9:15:00 PM 19.97 67.946 0.112 7.33 44.17 8.9
9/16/2021 9:30:00 PM 19.95 67.91 0.112 7.33 47.57 8.91
9/16/2021 9:45:00 PM 19.95 67.91 0.112 7.31 45.34 8.89
9/16/2021 10:00:00 PM 19.93 67.874 0.112 7.31 50.12 8.89
9/16/2021 10:15:00 PM 19.92 67.856 0.112 7.31 50.88 8.88
9/16/2021 10:30:00 PM 19.9 67.82 0.112 7.3 43.65 8.9
9/16/2021 10:45:00 PM 19.89 67.802 0.112 7.3 43.18 8.89
9/16/2021 11:00:00 PM 19.88 67.784 0.112 7.3 41.23 8.9
9/16/2021 11:15:00 PM 19.87 67.766 0.113 7.29 48.89 8.9
9/16/2021 11:30:00 PM 19.86 67.748 0.112 7.29 51.71 8.9
9/16/2021 11:45:00 PM 19.85 67.73 0.113 7.29 45.38 8.9
9/17/2021 12:00:00 AM 19.85 67.73 0.114 7.29 44.13 8.9
9/17/2021 12:15:00 AM 19.84 67.712 0.114 7.3 42.97 8.91
9/17/2021 12:30:00 AM 19.83 67.694 0.114 7.29 41.77 8.91
9/17/2021 12:45:00 AM 19.83 67.694 0.114 7.29 42.86 8.91
9/17/2021 1:00:00 AM 19.83 67.694 0.114 7.3 36.84 8.92
9/17/2021 1:15:00 AM 19.83 67.694 0.114 7.29 41.76 8.92
9/17/2021 1:30:00 AM 19.84 67.712 0.114 7.29 41.09 8.93
9/17/2021 1:45:00 AM 19.84 67.712 0.114 7.29 37.1 8.94
9/17/2021 2:00:00 AM 19.83 67.694 0.115 7.29 41.66 8.94
9/17/2021 2:15:00 AM 19.83 67.694 0.115 7.29 35.26 8.95
9/17/2021 2:30:00 AM 19.83 67.694 0.115 7.3 36.47 8.96
9/17/2021 2:45:00 AM 19.83 67.694 0.115 7.3 39.22 8.96
9/17/2021 3:00:00 AM 19.83 67.694 0.116 7.3 35.58 8.97
9/17/2021 3:15:00 AM 19.82 67.676 0.116 7.3 33.71 8.97
9/17/2021 3:30:00 AM 19.82 67.676 0.116 7.3 31 8.98
9/17/2021 3:45:00 AM 19.82 67.676 0.117 7.31 31.66 8.98
9/17/2021 4:00:00 AM 19.82 67.676 0.117 7.31 32.05 8.99
9/17/2021 4:15:00 AM 19.81 67.658 0.117 7.31 30.14 8.99
9/17/2021 4:30:00 AM 19.81 67.658 0.117 7.32 26.81 9
9/17/2021 4:45:00 AM 19.81 67.658 0.118 7.32 28.02 8.98
9/17/2021 5:00:00 AM 19.81 67.658 0.119 7.32 28.67 8.98
9/17/2021 5:15:00 AM 19.81 67.658 0.12 7.32 29.61 8.97
9/17/2021 5:30:00 AM 19.81 67.658 0.12 7.31 24.24 8.98
9/17/2021 5:45:00 AM 19.8 67.64 0.12 7.32 24.74 8.98
9/17/2021 6:00:00 AM 19.79 67.622 0.12 7.32 24.71 8.98
9/17/2021 6:15:00 AM 19.79 67.622 0.121 7.32 24.81 8.98
9/17/2021 6:30:00 AM 19.79 67.622 0.121 7.32 24.32 8.98
9/17/2021 6:45:00 AM 19.78 67.604 0.122 7.32 19.35 8.98
9/17/2021 7:00:00 AM 19.77 67.586 0.122 7.33 22.58 8.98
9/17/2021 7:15:00 AM 19.77 67.586 0.123 7.33 21.7 8.97
9/17/2021 7:30:00 AM 19.78 67.604 0.123 7.33 20.02 8.97
9/17/2021 7:45:00 AM 19.77 67.586 0.124 7.33 22.25 8.97
9/17/2021 8:00:00 AM 19.79 67.622 0.124 7.33 20.94 8.97
9/17/2021 8:15:00 AM 19.81 67.658 0.124 7.34 23.3 8.98
9/17/2021 8:30:00 AM 19.82 67.676 0.125 7.33 24.54 8.98
9/17/2021 8:45:00 AM 19.82 67.676 0.126 7.34 20.63 8.96
9/17/2021 9:00:00 AM 19.84 67.712 0.127 7.34 20.21 8.98
9/17/2021 9:15:00 AM 19.86 67.748 0.127 7.34 22.77 8.98
9/17/2021 9:30:00 AM 19.88 67.784 0.128 7.34 22.2 8.97
9/17/2021 9:45:00 AM 19.9 67.82 0.128 7.35 21.92 8.98
9/17/2021 10:00:00 AM 19.92 67.856 0.129 7.34 21.56 8.98
9/17/2021 10:15:00 AM 19.94 67.892 0.129 7.35 20.02 8.99
9/17/2021 10:30:00 AM 19.96 67.92799 0.13 7.36 17.61 8.99
9/17/2021 10:45:00 AM 19.98 67.964 0.13 7.36 19.26 8.99
9/17/2021 11:00:00 AM 20 68 0.13 7.36 22.2 9.01
9/17/2021 11:15:00 AM 20.02 68.036 0.131 7.36 16.43 9
9/17/2021 11:30:00 AM 20.05 68.09 0.131 7.36 16.35 9.02
9/17/2021 11:45:00 AM 20.08 68.144 0.132 7.37 16.44 9.02
9/17/2021 12:00:00 PM 20.1 68.18 0.14 7.38 17.24 9.02
9/17/2021 12:15:00 PM 20.13 68.234 0.146 7.41 17.95 9.04
9/17/2021 12:30:00 PM 20.15 68.27 0.144 7.41 15.81 9.04
9/17/2021 12:45:00 PM 20.16 68.288 0.162 7.45 17.54 9.05
9/17/2021 1:00:00 PM 20.18 68.324 0.186 7.54 15.92 9.06
9/17/2021 1:15:00 PM 20.22 68.396 0.168 7.52 17.35 9.07
9/17/2021 1:30:00 PM 20.25 68.45 0.153 7.47 15.79 9.08
9/17/2021 1:45:00 PM 20.29 68.522 0.158 7.49 16.97 9.11
9/17/2021 2:00:00 PM 20.32 68.576 0.155 7.48 15.59 9.12
9/17/2021 2:15:00 PM 20.35 68.63 0.144 7.45 16.18 9.13
9/17/2021 2:30:00 PM 20.36 68.648 0.14 7.44 15.55 9.13
9/17/2021 2:45:00 PM 20.38 68.684 0.139 7.43 16.5 9.13
9/17/2021 3:00:00 PM 20.41 68.738 0.142 7.44 16.21 9.15
9/17/2021 3:15:00 PM 20.44 68.792 0.144 7.44 15.23 9.16
9/17/2021 3:30:00 PM 20.48 68.864 0.145 7.46 14.52 9.18
9/17/2021 3:45:00 PM 20.51 68.918 0.146 7.47 16.52 9.2
9/17/2021 4:00:00 PM 20.55 68.99 0.146 7.46 16.73 9.21
9/17/2021 4:15:00 PM 20.59 69.062 0.146 7.48 16.23 9.23
9/17/2021 4:30:00 PM 20.61 69.098 0.147 7.48 14.81 9.25
9/17/2021 4:45:00 PM 20.62 69.116 0.148 7.48 17.34 9.27
9/17/2021 5:00:00 PM 20.61 69.098 0.148 7.49 14.77 9.26
9/17/2021 5:15:00 PM 20.61 69.098 0.149 7.49 13.94 9.26
9/17/2021 5:30:00 PM 20.61 69.098 0.149 7.49 16.35 9.26
9/17/2021 5:45:00 PM 20.61 69.098 0.149 7.49 15.09 9.27
9/17/2021 6:00:00 PM 20.62 69.116 0.15 7.5 14.9 9.28
9/17/2021 6:15:00 PM 20.61 69.098 0.15 7.5 16.12 9.28
9/17/2021 6:30:00 PM 20.6 69.08 0.151 7.5 15.09 9.29
9/17/2021 6:45:00 PM 20.6 69.08 0.151 7.5 18.27 9.29
9/17/2021 7:00:00 PM 20.59 69.062 0.152 7.5 17.49 9.29
9/17/2021 7:15:00 PM 20.57 69.026 0.151 7.49 19.14 9.29
9/17/2021 7:30:00 PM 20.56 69.008 0.148 7.49 16.98 9.28
9/17/2021 7:45:00 PM 20.56 69.008 0.147 7.49 16.72 9.26
9/17/2021 8:00:00 PM 20.54 68.972 0.147 7.48 17.04 9.26
9/17/2021 8:15:00 PM 20.52 68.936 0.147 7.47 15.34 9.26
9/17/2021 8:30:00 PM 20.52 68.936 0.147 7.47 14.11 9.25
9/17/2021 8:45:00 PM 20.5 68.9 0.147 7.48 16.23 9.25
9/17/2021 9:00:00 PM 20.5 68.9 0.148 7.47 16.77 9.24
9/17/2021 9:15:00 PM 20.49 68.882 0.152 7.48 14.9 9.23
9/17/2021 9:30:00 PM 20.48 68.864 0.154 7.48 15.84 9.22
9/17/2021 9:45:00 PM 20.46 68.828 0.155 7.49 15.14 9.21
9/17/2021 10:00:00 PM 20.45 68.81 0.156 7.49 17.08 9.2
9/17/2021 10:15:00 PM 20.44 68.792 0.156 7.49 13.77 9.21
9/17/2021 10:30:00 PM 20.44 68.792 0.156 7.49 13.86 9.19
9/17/2021 10:45:00 PM 20.43 68.774 0.156 7.5 14.82 9.18
9/17/2021 11:00:00 PM 20.42 68.756 0.157 7.49 14.28 9.17
9/17/2021 11:15:00 PM 20.41 68.738 0.157 7.48 12.82 9.17
9/17/2021 11:30:00 PM 20.4 68.72 0.158 7.49 14.4 9.15
9/17/2021 11:45:00 PM 20.4 68.72 0.159 7.5 15.01 9.15
9/18/2021 12:00:00 AM 20.39 68.702 0.159 7.48 14.8 9.14
9/18/2021 12:15:00 AM 20.38 68.684 0.158 7.49 14.51 9.14
9/18/2021 12:30:00 AM 20.37 68.666 0.156 7.47 14.8 9.15
9/18/2021 12:45:00 AM 20.37 68.666 0.155 7.47 14.58 9.14
9/18/2021 1:00:00 AM 20.37 68.666 0.155 7.47 12.66 9.12
9/18/2021 1:15:00 AM 20.38 68.684 0.155 7.47 16.75 9.15
9/18/2021 1:30:00 AM 20.63 69.134 0.159 7.42 11.42 9.17
9/18/2021 1:45:00 AM 20.45 68.81 0.157 7.43 12.16 9.19
9/18/2021 2:00:00 AM 20.38 68.684 0.155 7.46 13.82 9.14
9/18/2021 2:15:00 AM 20.38 68.684 0.155 7.47 14.47 9.13
9/18/2021 2:30:00 AM 20.38 68.684 0.155 7.46 13.98 9.13
9/18/2021 2:45:00 AM 20.4 68.72 0.155 7.47 14.56 9.12
9/18/2021 3:00:00 AM 20.41 68.738 0.157 7.47 13.67 9.14
9/18/2021 3:15:00 AM 20.42 68.756 0.16 7.48 14.56 9.12
9/18/2021 3:30:00 AM 20.43 68.774 0.161 7.48 13.01 9.12
9/18/2021 3:45:00 AM 20.44 68.792 0.16 7.48 13.39 9.13
9/18/2021 4:00:00 AM 20.45 68.81 0.162 7.49 14.77 9.12
9/18/2021 4:15:00 AM 20.46 68.828 0.165 7.5 13.88 9.1
9/18/2021 4:30:00 AM 20.46 68.828 0.167 7.51 14.46 9.1
9/18/2021 4:45:00 AM 20.47 68.846 0.167 7.5 13.2 9.09
9/18/2021 5:00:00 AM 20.47 68.846 0.167 7.5 13.44 9.08
9/18/2021 5:15:00 AM 20.48 68.864 0.167 7.5 14.3 9.07
9/18/2021 5:30:00 AM 20.48 68.864 0.168 7.51 13.39 9.06
9/18/2021 5:45:00 AM 20.47 68.846 0.168 7.5 15.02 9.05
9/18/2021 6:00:00 AM 20.47 68.846 0.168 7.5 12.33 9.02
9/18/2021 6:15:00 AM 20.47 68.846 0.168 7.49 11.81 9
9/18/2021 6:30:00 AM 20.47 68.846 0.168 7.49 11.68 8.98
9/18/2021 6:45:00 AM 20.47 68.846 0.168 7.49 11.27 8.97
9/18/2021 7:00:00 AM 20.47 68.846 0.166 7.48 12.15 8.95
9/18/2021 7:15:00 AM 20.47 68.846 0.162 7.47 11.76 8.94
9/18/2021 7:30:00 AM 20.47 68.846 0.16 7.46 11.29 8.94
9/18/2021 7:45:00 AM 20.47 68.846 0.159 7.45 11.44 8.93
9/18/2021 8:00:00 AM 20.48 68.864 0.158 7.45 10.44 8.92
9/18/2021 8:15:00 AM 20.49 68.882 0.159 7.45 11.72 8.92
9/18/2021 8:30:00 AM 20.51 68.918 0.158 7.44 11.52 8.94
9/18/2021 8:45:00 AM 20.53 68.954 0.159 7.45 11.64 8.94
9/18/2021 9:00:00 AM 20.54 68.972 0.159 7.45 11.55 8.96
9/18/2021 9:15:00 AM 20.56 69.008 0.159 7.45 11.63 8.96
9/18/2021 9:30:00 AM 20.68 69.224 0.17 7.41 9.8 9.29
9/18/2021 9:45:00 AM 20.61 69.098 0.165 7.37 9.67 9.16
9/18/2021 10:00:00 AM 20.59 69.062 0.159 7.44 12.13 8.99
9/18/2021 10:15:00 AM 20.61 69.098 0.159 7.45 11.93 9
9/18/2021 10:30:00 AM 20.64 69.152 0.16 7.45 11.9 9.02
9/18/2021 10:45:00 AM 20.69 69.242 0.16 7.46 11.84 9.04
9/18/2021 11:00:00 AM 20.76 69.368 0.16 7.46 11.39 9.07
9/18/2021 11:15:00 AM 20.84 69.512 0.16 7.48 11.87 9.1
9/18/2021 11:30:00 AM 20.92 69.656 0.161 7.48 11.68 9.15
9/18/2021 11:45:00 AM 20.99 69.782 0.161 7.5 11.11 9.18
9/18/2021 12:00:00 PM 21.08 69.944 0.161 7.51 11.31 9.24
9/18/2021 12:15:00 PM 21.15 70.07 0.161 7.52 11.92 9.27
9/18/2021 12:30:00 PM 21.24 70.232 0.162 7.53 12.16 9.31
9/18/2021 12:45:00 PM 21.31 70.358 0.162 7.52 12.22 9.33
9/18/2021 1:00:00 PM 21.41 70.538 0.162 7.54 9.79 9.39
9/18/2021 1:15:00 PM 21.49 70.682 0.162 7.56 10.84 9.45
9/18/2021 1:30:00 PM 21.57 70.826 0.163 7.57 10.72 9.52
9/18/2021 1:45:00 PM 21.63 70.934 0.162 7.59 11.07 9.54
9/18/2021 2:00:00 PM 21.7 71.06 0.163 7.6 10.46 9.58
9/18/2021 2:15:00 PM 21.78 71.204 0.163 7.61 10.72 9.6
9/18/2021 2:30:00 PM 21.87 71.366 0.163 7.63 11.46 9.66
9/18/2021 2:45:00 PM 21.95 71.51 0.163 7.63 10.23 9.69
9/18/2021 3:00:00 PM 22.02 71.636 0.164 7.65 10.19 9.74
9/18/2021 3:15:00 PM 22.07 71.726 0.164 7.67 10.76 9.78
9/18/2021 3:30:00 PM 22.09 71.762 0.164 7.68 10.42 9.79
9/18/2021 3:45:00 PM 22.09 71.762 0.164 7.68 10.5 9.8
9/18/2021 4:00:00 PM 22.14 71.852 0.165 7.69 10.49 9.82
9/18/2021 4:15:00 PM 22.23 72.014 0.165 7.7 11.03 9.86
9/18/2021 4:30:00 PM 22.29 72.122 0.165 7.71 11.48 9.89
9/18/2021 4:45:00 PM 22.33 72.194 0.165 7.72 10.84 9.93
9/18/2021 5:00:00 PM 22.33 72.194 0.165 7.73 11.07 9.92
9/18/2021 5:15:00 PM 22.33 72.194 0.165 7.73 9.92 9.91
9/18/2021 5:30:00 PM 22.33 72.194 0.165 7.73 10.52 9.89
9/18/2021 5:45:00 PM 22.33 72.194 0.166 7.72 10.35 9.88
9/18/2021 6:00:00 PM 22.34 72.212 0.166 7.73 10.82 9.87
9/18/2021 6:15:00 PM 22.33 72.194 0.166 7.73 10.63 9.86
9/18/2021 6:30:00 PM 22.32 72.176 0.166 7.72 10.15 9.84
9/18/2021 6:45:00 PM 22.31 72.158 0.166 7.72 9.21 9.81
9/18/2021 7:00:00 PM 22.29 72.122 0.167 7.71 11.44 9.78
9/18/2021 7:15:00 PM 22.25 72.05 0.167 7.7 10.31 9.76
9/18/2021 7:30:00 PM 22.21 71.978 0.167 7.69 10.62 9.72
9/18/2021 7:45:00 PM 22.17 71.906 0.167 7.68 10 9.68
9/18/2021 8:00:00 PM 22.12 71.816 0.167 7.67 10.4 9.64
9/18/2021 8:15:00 PM 22.07 71.726 0.167 7.66 10.42 9.61
9/18/2021 8:30:00 PM 22.03 71.654 0.167 7.65 10.03 9.58
9/18/2021 8:45:00 PM 21.99 71.582 0.167 7.64 9.15 9.55
9/18/2021 9:00:00 PM 21.95 71.51 0.168 7.63 9.76 9.52
9/18/2021 9:15:00 PM 21.91 71.438 0.168 7.63 9.8 9.5
9/18/2021 9:30:00 PM 21.87 71.366 0.167 7.62 10.13 9.48
9/18/2021 9:45:00 PM 21.82 71.276 0.168 7.61 9.8 9.45
9/18/2021 10:00:00 PM 21.78 71.204 0.168 7.6 11 9.42
9/18/2021 10:15:00 PM 21.74 71.132 0.168 7.59 9.87 9.39
9/18/2021 10:30:00 PM 21.7 71.06 0.168 7.59 9.83 9.36
9/18/2021 10:45:00 PM 21.66 70.988 0.168 7.58 10.21 9.33
9/18/2021 11:00:00 PM 21.62 70.916 0.168 7.57 10.4 9.3
9/18/2021 11:15:00 PM 21.57 70.826 0.169 7.57 9.84 9.28
9/18/2021 11:30:00 PM 21.53 70.754 0.169 7.56 8.88 9.25
9/18/2021 11:45:00 PM 21.5 70.7 0.169 7.56 10.13 9.24
9/19/2021 12:00:00 AM 21.47 70.646 0.169 7.55 10.66 9.23
9/19/2021 12:15:00 AM 21.45 70.61 0.169 7.55 11.12 9.22
9/19/2021 12:30:00 AM 21.44 70.592 0.169 7.54 9.08 9.21
9/19/2021 12:45:00 AM 21.43 70.574 0.169 7.54 10.11 9.21
9/19/2021 1:00:00 AM 21.42 70.556 0.169 7.54 10.19 9.19
9/19/2021 1:15:00 AM 21.42 70.556 0.169 7.54 10.1 9.18
9/19/2021 1:30:00 AM 21.42 70.556 0.169 7.54 9.4 9.17
9/19/2021 1:45:00 AM 21.45 70.61 0.175 7.57 11.53 9.31
9/19/2021 2:00:00 AM 21.5 70.7 0.175 7.5 8.55 9.28
9/19/2021 2:15:00 AM 21.45 70.61 0.171 7.51 9.49 9.19
9/19/2021 2:30:00 AM 21.41 70.538 0.169 7.53 11.35 9.15
9/19/2021 2:45:00 AM 21.4 70.52 0.169 7.53 10.38 9.15
9/19/2021 3:00:00 AM 21.39 70.502 0.168 7.53 11.28 9.14
9/19/2021 3:15:00 AM 21.38 70.484 0.168 7.53 9.98 9.14
9/19/2021 3:30:00 AM 21.37 70.466 0.168 7.53 10.05 9.13
9/19/2021 3:45:00 AM 21.34 70.412 0.168 7.53 10.52 9.1
9/19/2021 4:00:00 AM 21.33 70.394 0.168 7.53 9.97 9.08
9/19/2021 4:15:00 AM 21.31 70.358 0.168 7.53 9.98 9.06
9/19/2021 4:30:00 AM 21.29 70.32201 0.168 7.52 10.19 9.05
9/19/2021 4:45:00 AM 21.26 70.268 0.168 7.52 9.94 9.03
9/19/2021 5:00:00 AM 21.24 70.232 0.168 7.52 10.49 9.02
9/19/2021 5:15:00 AM 21.21 70.17799 0.168 7.52 10.06 9.01
9/19/2021 5:30:00 AM 21.18 70.124 0.168 7.52 10.17 9
9/19/2021 5:45:00 AM 21.15 70.07 0.168 7.52 10.7 8.99
9/19/2021 6:00:00 AM 21.13 70.034 0.169 7.51 9.24 8.95
9/19/2021 6:15:00 AM 21.1 69.98 0.169 7.51 9.89 8.92
9/19/2021 6:30:00 AM 21.06 69.908 0.169 7.51 9.39 8.92
9/19/2021 6:45:00 AM 21.03 69.854 0.169 7.5 9.13 8.9
9/19/2021 7:00:00 AM 20.99 69.782 0.169 7.49 9.76 8.89
9/19/2021 7:15:00 AM 20.96 69.728 0.169 7.5 9.52 8.89
9/19/2021 7:30:00 AM 20.93 69.674 0.168 7.5 9.44 8.89
9/19/2021 7:45:00 AM 20.91 69.638 0.169 7.49 9.11 8.88
9/19/2021 8:00:00 AM 20.88 69.584 0.169 7.48 9.09 8.86
9/19/2021 8:15:00 AM 20.85 69.53 0.169 7.48 9.31 8.87
9/19/2021 8:30:00 AM 20.84 69.512 0.169 7.48 8.78 8.88
9/19/2021 8:45:00 AM 20.82 69.476 0.169 7.48 9.44 8.89
9/19/2021 9:00:00 AM 20.81 69.458 0.169 7.49 9.2 8.89
9/19/2021 9:15:00 AM 20.81 69.458 0.169 7.49 9.69 8.91
9/19/2021 9:30:00 AM 20.83 69.494 0.169 7.5 8.57 8.92
9/19/2021 9:45:00 AM 20.84 69.512 0.169 7.5 9.09 8.95
9/19/2021 10:00:00 AM 20.86 69.548 0.169 7.5 9.27 8.98
9/19/2021 10:15:00 AM 20.88 69.584 0.169 7.51 9.12 9.02
9/19/2021 10:30:00 AM 20.91 69.638 0.169 7.51 8.74 9.03
9/19/2021 10:45:00 AM 20.94 69.692 0.169 7.52 7.88 9.06
9/19/2021 11:00:00 AM 20.97 69.746 0.169 7.53 8.12 9.1
9/19/2021 11:15:00 AM 21.03 69.854 0.169 7.52 9.03 9.11
9/19/2021 11:30:00 AM 21.08 69.944 0.169 7.54 8.03 9.16
9/19/2021 11:45:00 AM 21.13 70.034 0.169 7.55 8.58 9.25
9/19/2021 12:00:00 PM 21.19 70.142 0.169 7.56 8.81 9.27
9/19/2021 12:15:00 PM 21.24 70.232 0.169 7.57 8.39 9.31
9/19/2021 12:30:00 PM 21.3 70.34 0.169 7.58 8.59 9.34
9/19/2021 12:45:00 PM 21.36 70.448 0.17 7.6 8.06 9.4
9/19/2021 1:00:00 PM 21.43 70.574 0.17 7.61 8.11 9.44
9/19/2021 1:15:00 PM 21.52 70.736 0.17 7.63 8.56 9.55
9/19/2021 1:30:00 PM 21.59 70.862 0.169 7.65 8.26 9.58
9/19/2021 1:45:00 PM 21.65 70.97 0.169 7.66 8.19 9.66
9/19/2021 2:00:00 PM 21.71 71.078 0.169 7.68 8.74 9.73
9/19/2021 2:15:00 PM 21.77 71.186 0.169 7.71 8.67 9.79
9/19/2021 2:30:00 PM 21.82 71.276 0.17 7.71 8.57 9.8
9/19/2021 2:45:00 PM 21.88 71.384 0.17 7.73 7.52 9.84
9/19/2021 3:00:00 PM 21.93 71.474 0.17 7.73 7.78 9.87
9/19/2021 3:15:00 PM 22.01 71.618 0.171 7.77 8.09 9.97
9/19/2021 3:30:00 PM 22.05 71.69 0.171 7.78 7.78 9.99
9/19/2021 3:45:00 PM 22.11 71.798 0.171 7.81 8.24 10.02
9/19/2021 4:00:00 PM 22.16 71.888 0.171 7.81 8 10.03
9/19/2021 4:15:00 PM 22.19 71.942 0.171 7.82 8.31 10.09
9/19/2021 4:30:00 PM 22.22 71.996 0.171 7.85 8.08 10.13
9/19/2021 4:45:00 PM 22.23 72.014 0.171 7.86 7.99 10.15
9/19/2021 5:00:00 PM 22.24 72.032 0.172 7.87 7.75 10.17
9/19/2021 5:15:00 PM 22.24 72.032 0.171 7.88 7.51 10.18
9/19/2021 5:30:00 PM 22.24 72.032 0.171 7.88 8.14 10.19
9/19/2021 5:45:00 PM 22.22 71.996 0.172 7.88 7.58 10.17
9/19/2021 6:00:00 PM 22.2 71.96 0.172 7.88 8.19 10.17
9/19/2021 6:15:00 PM 22.18 71.924 0.172 7.88 8.37 10.14
9/19/2021 6:30:00 PM 22.16 71.888 0.173 7.87 8.09 10.12
9/19/2021 6:45:00 PM 22.13 71.834 0.173 7.87 7.74 10.1
9/19/2021 7:00:00 PM 22.08 71.744 0.174 7.86 8.53 10.08
9/19/2021 7:15:00 PM 22.04 71.672 0.174 7.86 8.39 10.07
9/19/2021 7:30:00 PM 22.02 71.636 0.179 7.83 11.5 9.97
9/19/2021 7:45:00 PM 21.99 71.582 0.181 7.63 9.93 9.66
9/19/2021 8:00:00 PM 21.91 71.438 0.177 7.65 8.18 9.76
9/19/2021 8:15:00 PM 21.86 71.348 0.174 7.79 9.06 9.95
9/19/2021 8:30:00 PM 21.81 71.258 0.174 7.79 8.97 9.93
9/19/2021 8:45:00 PM 21.76 71.168 0.174 7.79 8.41 9.89
9/19/2021 9:00:00 PM 21.72 71.096 0.174 7.78 8.1 9.86
9/19/2021 9:15:00 PM 21.67 71.006 0.174 7.76 8.23 9.83
9/19/2021 9:30:00 PM 21.63 70.934 0.175 7.76 8.45 9.79
9/19/2021 9:45:00 PM 21.57 70.826 0.176 7.75 8.56 9.77
9/19/2021 10:00:00 PM 21.52 70.736 0.176 7.74 7.9 9.74
9/19/2021 10:15:00 PM 21.46 70.628 0.175 7.73 8.36 9.7
9/19/2021 10:30:00 PM 21.41 70.538 0.176 7.72 8.97 9.67
9/19/2021 10:45:00 PM 21.35 70.43 0.176 7.7 8.92 9.64
9/19/2021 11:00:00 PM 21.3 70.34 0.176 7.69 8.54 9.61
9/19/2021 11:15:00 PM 21.24 70.232 0.176 7.68 8.07 9.57
9/19/2021 11:30:00 PM 21.19 70.142 0.177 7.67 8.22 9.54
9/19/2021 11:45:00 PM 21.13 70.034 0.177 7.66 8.4 9.52
9/20/2021 12:00:00 AM 21.08 69.944 0.177 7.64 8.22 9.47
9/20/2021 12:15:00 AM 21.03 69.854 0.178 7.64 8.06 9.44
9/20/2021 12:30:00 AM 20.99 69.782 0.178 7.63 8.18 9.41
9/20/2021 12:45:00 AM 20.95 69.71 0.178 7.62 8.19 9.39
9/20/2021 1:00:00 AM 20.91 69.638 0.178 7.61 8.45 9.37
9/20/2021 1:15:00 AM 21.11 69.998 0.184 7.65 9.67 9.51
9/20/2021 1:30:00 AM 21.11 69.998 0.182 7.59 7.58 9.39
9/20/2021 1:45:00 AM 20.94 69.692 0.18 7.58 7.83 9.36
9/20/2021 2:00:00 AM 20.79 69.422 0.178 7.59 8.92 9.32
9/20/2021 2:15:00 AM 20.76 69.368 0.178 7.58 8.29 9.31
9/20/2021 2:30:00 AM 20.74 69.332 0.179 7.58 8.23 9.3
9/20/2021 2:45:00 AM 20.72 69.296 0.179 7.58 8.54 9.29
9/20/2021 3:00:00 AM 20.7 69.26 0.179 7.58 8.98 9.27
9/20/2021 3:15:00 AM 20.67 69.206 0.179 7.57 8.98 9.26
9/20/2021 3:30:00 AM 20.66 69.188 0.179 7.57 8.81 9.26
9/20/2021 3:45:00 AM 20.64 69.152 0.179 7.57 9.09 9.24
9/20/2021 4:00:00 AM 20.62 69.116 0.179 7.57 8.79 9.24
9/20/2021 4:15:00 AM 20.6 69.08 0.179 7.57 8.93 9.23
9/20/2021 4:30:00 AM 20.58 69.044 0.179 7.57 8.75 9.22
9/20/2021 4:45:00 AM 20.56 69.008 0.179 7.56 8.33 9.21
9/20/2021 5:00:00 AM 20.55 68.99 0.179 7.56 8.58 9.2
9/20/2021 5:15:00 AM 20.54 68.972 0.179 7.56 9.18 9.19
9/20/2021 5:30:00 AM 20.51 68.918 0.18 7.55 8.24 9.17
9/20/2021 5:45:00 AM 20.48 68.864 0.18 7.55 8.78 9.15
9/20/2021 6:00:00 AM 20.45 68.81 0.18 7.55 8.93 9.14
9/20/2021 6:15:00 AM 20.43 68.774 0.18 7.55 8.35 9.12
9/20/2021 6:30:00 AM 20.42 68.756 0.179 7.54 7.93 9.12
9/20/2021 6:45:00 AM 20.39 68.702 0.179 7.54 7.97 9.11
9/20/2021 7:00:00 AM 20.36 68.648 0.179 7.54 8.55 9.1
9/20/2021 7:15:00 AM 20.33 68.594 0.18 7.54 8.45 9.1
9/20/2021 7:30:00 AM 20.31 68.558 0.18 7.54 7.79 9.11
9/20/2021 7:45:00 AM 20.28 68.504 0.18 7.54 7.68 9.11
9/20/2021 8:00:00 AM 20.27 68.486 0.18 7.55 7.95 9.13
9/20/2021 8:15:00 AM 20.28 68.504 0.18 7.55 8.12 9.14
9/20/2021 8:30:00 AM 20.28 68.504 0.18 7.55 8.29 9.16
9/20/2021 8:45:00 AM 20.29 68.522 0.18 7.55 8.36 9.18
9/20/2021 9:00:00 AM 20.29 68.522 0.18 7.55 8.15 9.19
9/20/2021 9:15:00 AM 20.32 68.576 0.18 7.56 7.78 9.22
9/20/2021 9:30:00 AM 20.35 68.63 0.181 7.57 7.68 9.26
9/20/2021 9:45:00 AM 20.39 68.702 0.181 7.58 7.65 9.3
9/20/2021 10:00:00 AM 20.42 68.756 0.182 7.59 7.93 9.34
9/20/2021 10:15:00 AM 20.46 68.828 0.182 7.6 7.6 9.37
9/20/2021 10:30:00 AM 20.52 68.936 0.182 7.61 7.35 9.41
9/20/2021 10:45:00 AM 20.55 68.99 0.182 7.62 7.51 9.47
9/20/2021 11:00:00 AM 20.61 69.098 0.182 7.64 7.8 9.51
9/20/2021 11:15:00 AM 20.68 69.224 0.182 7.64 7.27 9.53
9/20/2021 11:30:00 AM 20.76 69.368 0.181 7.65 7.28 9.56
9/20/2021 11:45:00 AM 20.82 69.476 0.182 7.67 7.51 9.64
9/20/2021 12:00:00 PM 20.88 69.584 0.182 7.67 7.7 9.67
9/20/2021 12:15:00 PM 20.94 69.692 0.182 7.69 7.15 9.73
9/20/2021 12:30:00 PM 21.02 69.836 0.182 7.72 7.27 9.79
9/20/2021 12:45:00 PM 21.08 69.944 0.182 7.72 6.96 9.82
9/20/2021 1:00:00 PM 21.17 70.106 0.182 7.75 7.23 9.88
9/20/2021 1:15:00 PM 21.25 70.25 0.182 7.77 7.51 9.97
9/20/2021 1:30:00 PM 21.33 70.394 0.182 7.79 7.42 10.03
9/20/2021 1:45:00 PM 21.39 70.502 0.183 7.81 7.13 10.04
9/20/2021 2:00:00 PM 21.48 70.664 0.183 7.84 6.8 10.14
9/20/2021 2:15:00 PM 21.55 70.79 0.183 7.87 6.63 10.19
9/20/2021 2:30:00 PM 21.6 70.88 0.183 7.89 6.68 10.28
9/20/2021 2:45:00 PM 21.66 70.988 0.183 7.91 6.72 10.33
9/20/2021 3:00:00 PM 21.72 71.096 0.183 7.93 6.78 10.35
9/20/2021 3:15:00 PM 21.78 71.204 0.184 7.95 6.73 10.4
9/20/2021 3:30:00 PM 21.83 71.294 0.184 7.98 6.76 10.44
9/20/2021 3:45:00 PM 21.86 71.348 0.184 8 7.15 10.49
9/20/2021 4:00:00 PM 21.91 71.438 0.184 8.01 6.62 10.51
9/20/2021 4:15:00 PM 21.93 71.474 0.185 8.04 6.79 10.53
9/20/2021 4:30:00 PM 21.94 71.492 0.185 8.04 6.89 10.54
9/20/2021 4:45:00 PM 21.95 71.51 0.185 8.05 6.94 10.56
9/20/2021 5:00:00 PM 21.96 71.528 0.185 8.06 6.62 10.57
9/20/2021 5:15:00 PM 21.96 71.528 0.186 8.06 6.77 10.57
9/20/2021 5:30:00 PM 21.95 71.51 0.185 8.07 6.89 10.56
9/20/2021 5:45:00 PM 21.94 71.492 0.185 8.07 7.01 10.57
9/20/2021 6:00:00 PM 21.92 71.456 0.185 8.07 7.12 10.54
9/20/2021 6:15:00 PM 21.91 71.438 0.186 8.06 6.96 10.53
9/20/2021 6:30:00 PM 21.89 71.402 0.186 8.05 6.77 10.48
9/20/2021 6:45:00 PM 21.86 71.348 0.186 8.04 6.68 10.45
9/20/2021 7:00:00 PM 21.83 71.294 0.187 8.02 6.93 10.41
9/20/2021 7:15:00 PM 21.8 71.24 0.187 8.02 7.33 10.36
9/20/2021 7:30:00 PM 21.76 71.168 0.188 7.99 7.11 10.32
9/20/2021 7:45:00 PM 21.72 71.096 0.188 7.98 7.39 10.28
9/20/2021 8:00:00 PM 21.68 71.024 0.188 7.96 7.33 10.24
9/20/2021 8:15:00 PM 21.64 70.952 0.188 7.94 7.65 10.2
9/20/2021 8:30:00 PM 21.6 70.88 0.189 7.93 7.26 10.16
9/20/2021 8:45:00 PM 21.55 70.79 0.189 7.91 7.18 10.13
9/20/2021 9:00:00 PM 21.5 70.7 0.189 7.89 7.18 10.09
9/20/2021 9:15:00 PM 21.45 70.61 0.19 7.87 7.46 10.05
9/20/2021 9:30:00 PM 21.4 70.52 0.19 7.86 7.43 10.02
9/20/2021 9:45:00 PM 21.34 70.412 0.19 7.84 7.52 9.98
9/20/2021 10:00:00 PM 21.29 70.32201 0.191 7.83 7.52 9.95
9/20/2021 10:15:00 PM 21.24 70.232 0.191 7.82 7.21 9.91
9/20/2021 10:30:00 PM 21.2 70.16 0.191 7.8 7.29 9.87
9/20/2021 10:45:00 PM 21.15 70.07 0.191 7.79 7.12 9.83
9/20/2021 11:00:00 PM 21.1 69.98 0.191 7.78 7.87 9.79
9/20/2021 11:15:00 PM 21.06 69.908 0.192 7.76 7.34 9.74
9/20/2021 11:30:00 PM 21.02 69.836 0.192 7.75 7.33 9.71
9/20/2021 11:45:00 PM 20.98 69.764 0.192 7.73 7.36 9.67
9/21/2021 12:00:00 AM 20.94 69.692 0.192 7.72 7.58 9.64
9/21/2021 12:15:00 AM 20.9 69.62 0.192 7.71 7.12 9.59
9/21/2021 12:30:00 AM 20.86 69.548 0.192 7.69 7.39 9.55
9/21/2021 12:45:00 AM 20.82 69.476 0.192 7.67 7.64 9.52
9/21/2021 1:00:00 AM 20.78 69.404 0.193 7.67 7.63 9.49
9/21/2021 1:15:00 AM 20.75 69.35 0.193 7.65 7.69 9.46
9/21/2021 1:30:00 AM 20.73 69.314 0.193 7.65 7.66 9.43
9/21/2021 1:45:00 AM 20.7 69.26 0.193 7.64 7.87 9.41
9/21/2021 2:00:00 AM 20.68 69.224 0.194 7.63 7.65 9.39
9/21/2021 2:15:00 AM 20.66 69.188 0.193 7.62 7.63 9.36
9/21/2021 2:30:00 AM 20.64 69.152 0.193 7.61 7.98 9.35
9/21/2021 2:45:00 AM 20.62 69.116 0.194 7.61 7.36 9.33
9/21/2021 3:00:00 AM 20.61 69.098 0.194 7.6 6.79 9.29
9/21/2021 3:15:00 AM 21.1 69.98 0.198 7.61 10.29 9.46
9/21/2021 3:30:00 AM 20.94 69.692 0.196 7.55 6.73 9.49
9/21/2021 3:45:00 AM 20.6 69.08 0.193 7.59 7.89 9.29
9/21/2021 4:00:00 AM 20.59 69.062 0.193 7.59 7.62 9.27
9/21/2021 4:15:00 AM 20.58 69.044 0.193 7.59 7.53 9.26
9/21/2021 4:30:00 AM 20.57 69.026 0.193 7.58 7.59 9.25
9/21/2021 4:45:00 AM 20.56 69.008 0.194 7.58 7.7 9.23
9/21/2021 5:00:00 AM 20.56 69.008 0.194 7.58 7.3 9.22
9/21/2021 5:15:00 AM 20.55 68.99 0.194 7.58 7.61 9.21
9/21/2021 5:30:00 AM 20.53 68.954 0.194 7.57 7.15 9.2
9/21/2021 5:45:00 AM 20.51 68.918 0.194 7.57 7.33 9.19
9/21/2021 6:00:00 AM 20.51 68.918 0.194 7.57 7.4 9.17
9/21/2021 6:15:00 AM 20.49 68.882 0.194 7.56 7.69 9.16
9/21/2021 6:30:00 AM 20.47 68.846 0.194 7.57 7.55 9.16
9/21/2021 6:45:00 AM 20.47 68.846 0.193 7.56 7.55 9.16
9/21/2021 7:00:00 AM 20.46 68.828 0.193 7.56 7.67 9.16
9/21/2021 7:15:00 AM 20.45 68.81 0.193 7.56 7.46 9.16
9/21/2021 7:30:00 AM 20.45 68.81 0.193 7.57 7.48 9.16
9/21/2021 7:45:00 AM 20.45 68.81 0.194 7.57 7.55 9.16
9/21/2021 8:00:00 AM 20.45 68.81 0.194 7.56 7.11 9.18
9/21/2021 8:15:00 AM 20.47 68.846 0.194 7.57 7.46 9.21
9/21/2021 8:30:00 AM 20.5 68.9 0.194 7.58 7.53 9.24
9/21/2021 8:45:00 AM 20.52 68.936 0.193 7.58 7.61 9.27
9/21/2021 9:00:00 AM 20.54 68.972 0.193 7.59 7.23 9.3
9/21/2021 9:15:00 AM 20.57 69.026 0.193 7.6 7.11 9.35
9/21/2021 9:30:00 AM 20.6 69.08 0.193 7.62 6.95 9.4
9/21/2021 9:45:00 AM 20.84 69.512 0.201 7.7 8.96 9.58
9/21/2021 10:00:00 AM 20.72 69.296 0.196 7.65 6.28 9.5
9/21/2021 10:15:00 AM 20.66 69.188 0.193 7.65 6.78 9.49
9/21/2021 10:30:00 AM 20.74 69.332 0.196 7.67 12.42 9.58
9/21/2021 10:45:00 AM 20.79 69.422 0.198 7.64 7.45 9.57
9/21/2021 11:00:00 AM 20.74 69.332 0.194 7.67 6.55 9.6
9/21/2021 11:15:00 AM 20.76 69.368 0.193 7.69 6.67 9.66
9/21/2021 11:30:00 AM 20.77 69.386 0.194 7.69 6.91 9.67
9/21/2021 11:45:00 AM 20.78 69.404 0.194 7.71 6.7 9.68
9/21/2021 12:00:00 PM 20.8 69.44 0.193 7.71 6.63 9.69
9/21/2021 12:15:00 PM 20.83 69.494 0.194 7.72 6.8 9.73
9/21/2021 12:30:00 PM 20.86 69.548 0.194 7.74 7.03 9.79
9/21/2021 12:45:00 PM 20.9 69.62 0.194 7.76 6.65 9.84
9/21/2021 1:00:00 PM 20.91 69.638 0.195 7.77 6.41 9.87
9/21/2021 1:15:00 PM 20.94 69.692 0.195 7.78 6.91 9.9
9/21/2021 1:30:00 PM 20.97 69.746 0.195 7.8 7 9.93
9/21/2021 1:45:00 PM 21.01 69.818 0.195 7.82 6.37 9.99
9/21/2021 2:00:00 PM 21.03 69.854 0.195 7.83 6.16 10.04
9/21/2021 2:15:00 PM 21.04 69.872 0.195 7.85 6.32 10.08
9/21/2021 2:30:00 PM 21.06 69.908 0.195 7.87 6.21 10.12
9/21/2021 2:45:00 PM 21.08 69.944 0.195 7.89 6.66 10.17
9/21/2021 3:00:00 PM 21.14 70.052 0.195 7.92 6.69 10.25
9/21/2021 3:15:00 PM 21.16 70.088 0.195 7.95 6.37 10.31
9/21/2021 3:30:00 PM 21.18 70.124 0.195 7.96 6.44 10.35
9/21/2021 3:45:00 PM 21.18 70.124 0.195 7.98 6.33 10.38
9/21/2021 4:00:00 PM 21.19 70.142 0.195 8 6.55 10.42
9/21/2021 4:15:00 PM 21.19 70.142 0.196 8.02 6.63 10.46
9/21/2021 4:30:00 PM 21.18 70.124 0.196 8.03 6.54 10.48
9/21/2021 4:45:00 PM 21.19 70.142 0.196 8.03 6.28 10.47
9/21/2021 5:00:00 PM 21.18 70.124 0.197 8.03 6.32 10.44
9/21/2021 5:15:00 PM 21.18 70.124 0.197 8.02 6.56 10.42
9/21/2021 5:30:00 PM 21.17 70.106 0.197 8.02 6.28 10.41
9/21/2021 5:45:00 PM 21.17 70.106 0.197 8.01 6.52 10.39
9/21/2021 6:00:00 PM 21.16 70.088 0.197 8.01 6.63 10.37
9/21/2021 6:15:00 PM 21.15 70.07 0.197 8.01 6.6 10.35
9/21/2021 6:30:00 PM 21.14 70.052 0.197 8 6.82 10.33
9/21/2021 6:45:00 PM 21.12 70.016 0.197 7.98 6.66 10.27
9/21/2021 7:00:00 PM 21.1 69.98 0.197 7.95 6.64 10.23
9/21/2021 7:15:00 PM 21.08 69.944 0.198 7.94 6.91 10.2
9/21/2021 7:30:00 PM 21.06 69.908 0.198 7.93 6.94 10.16
9/21/2021 7:45:00 PM 21.04 69.872 0.198 7.91 7.28 10.11
9/21/2021 8:00:00 PM 21.02 69.836 0.198 7.9 6.95 10.07
9/21/2021 8:15:00 PM 21 69.8 0.199 7.88 6.68 10.03
9/21/2021 8:30:00 PM 20.97 69.746 0.199 7.86 6.94 9.98
9/21/2021 8:45:00 PM 20.95 69.71 0.199 7.84 6.81 9.93
9/21/2021 9:00:00 PM 20.93 69.674 0.199 7.83 7.14 9.9
9/21/2021 9:15:00 PM 20.91 69.638 0.199 7.81 6.61 9.86
9/21/2021 9:30:00 PM 20.89 69.602 0.199 7.8 6.92 9.83
9/21/2021 9:45:00 PM 20.87 69.566 0.199 7.79 6.82 9.78
9/21/2021 10:00:00 PM 20.85 69.53 0.199 7.77 6.45 9.74
9/21/2021 10:15:00 PM 20.84 69.512 0.199 7.76 6.62 9.71
9/21/2021 10:30:00 PM 20.82 69.476 0.199 7.75 6.5 9.69
9/21/2021 10:45:00 PM 20.81 69.458 0.199 7.74 7.04 9.65
9/21/2021 11:00:00 PM 20.8 69.44 0.199 7.73 6.92 9.62
9/21/2021 11:15:00 PM 20.78 69.404 0.199 7.72 6.64 9.59
9/21/2021 11:30:00 PM 20.78 69.404 0.199 7.71 6.91 9.55
9/21/2021 11:45:00 PM 20.76 69.368 0.2 7.69 6.75 9.52
9/22/2021 12:00:00 AM 20.75 69.35 0.2 7.68 6.88 9.48
9/22/2021 12:15:00 AM 20.73 69.314 0.2 7.67 6.61 9.45
9/22/2021 12:30:00 AM 20.71 69.278 0.2 7.66 6.34 9.41
9/22/2021 12:45:00 AM 20.69 69.242 0.2 7.66 7.01 9.38
9/22/2021 1:00:00 AM 20.69 69.242 0.2 7.64 6.5 9.34
9/22/2021 1:15:00 AM 20.67 69.206 0.2 7.63 8.14 9.32
9/22/2021 1:30:00 AM 20.66 69.188 0.201 7.63 7.14 9.3
9/22/2021 1:45:00 AM 20.64 69.152 0.201 7.62 7.51 9.27
9/22/2021 2:00:00 AM 20.62 69.116 0.201 7.61 6.91 9.25
9/22/2021 2:15:00 AM 20.61 69.098 0.2 7.6 7.19 9.23
9/22/2021 2:30:00 AM 20.59 69.062 0.2 7.59 7.21 9.21
9/22/2021 2:45:00 AM 20.57 69.026 0.201 7.59 7.1 9.18
9/22/2021 3:00:00 AM 20.56 69.008 0.2 7.58 6.41 9.16
9/22/2021 3:15:00 AM 20.54 68.972 0.201 7.57 6.5 9.14
9/22/2021 3:30:00 AM 20.65 69.17 0.205 7.61 7.1 9.29
9/22/2021 3:45:00 AM 20.63 69.134 0.204 7.57 6.78 9.27
9/22/2021 4:00:00 AM 20.5 68.9 0.201 7.56 7.34 9.14
9/22/2021 4:15:00 AM 20.48 68.864 0.201 7.57 7.21 9.12
9/22/2021 4:30:00 AM 20.47 68.846 0.201 7.56 7.04 9.12
9/22/2021 4:45:00 AM 20.46 68.828 0.201 7.56 7.19 9.11
9/22/2021 5:00:00 AM 20.46 68.828 0.201 7.56 6.93 9.12
9/22/2021 5:15:00 AM 20.46 68.828 0.201 7.56 7.28 9.11
9/22/2021 5:30:00 AM 20.45 68.81 0.201 7.55 7.11 9.1
9/22/2021 5:45:00 AM 20.45 68.81 0.201 7.55 7.23 9.11
9/22/2021 6:00:00 AM 20.44 68.792 0.201 7.56 7.33 9.1
9/22/2021 6:15:00 AM 20.43 68.774 0.202 7.55 7.06 9.09
9/22/2021 6:30:00 AM 20.43 68.774 0.202 7.55 7.05 9.09
9/22/2021 6:45:00 AM 20.43 68.774 0.202 7.55 7.03 9.07
9/22/2021 7:00:00 AM 20.42 68.756 0.202 7.55 8.03 9.07
9/22/2021 7:15:00 AM 20.43 68.774 0.202 7.54 6.84 9.07
9/22/2021 7:30:00 AM 20.42 68.756 0.202 7.55 7.24 9.08
9/22/2021 7:45:00 AM 20.42 68.756 0.203 7.55 7.4 9.07
9/22/2021 8:00:00 AM 20.43 68.774 0.203 7.55 6.99 9.08
9/22/2021 8:15:00 AM 20.44 68.792 0.203 7.55 7.1 9.1
9/22/2021 8:30:00 AM 20.44 68.792 0.203 7.56 6.74 9.13
9/22/2021 8:45:00 AM 20.45 68.81 0.203 7.56 6.55 9.13
9/22/2021 9:00:00 AM 20.47 68.846 0.204 7.57 6.7 9.17
9/22/2021 9:15:00 AM 20.49 68.882 0.204 7.58 6.92 9.2
9/22/2021 9:30:00 AM 20.52 68.936 0.204 7.59 6.69 9.25
9/22/2021 9:45:00 AM 20.54 68.972 0.204 7.59 6.35 9.28
9/22/2021 10:00:00 AM 20.71 69.278 0.21 7.59 8.57 9.46
9/22/2021 10:15:00 AM 20.65 69.17 0.208 7.57 6.32 9.42
9/22/2021 10:30:00 AM 20.64 69.152 0.204 7.63 6.66 9.45
9/22/2021 10:45:00 AM 20.68 69.224 0.204 7.65 6.68 9.51
9/22/2021 11:00:00 AM 20.73 69.314 0.204 7.67 6.58 9.59
9/22/2021 11:15:00 AM 20.78 69.404 0.204 7.68 6.44 9.66
9/22/2021 11:30:00 AM 20.84 69.512 0.205 7.71 6.36 9.72
9/22/2021 11:45:00 AM 20.87 69.566 0.205 7.72 6.44 9.78
9/22/2021 12:00:00 PM 20.91 69.638 0.205 7.74 6.27 9.83
9/22/2021 12:15:00 PM 20.95 69.71 0.205 7.76 6.61 9.88
9/22/2021 12:30:00 PM 20.98 69.764 0.205 7.78 6.01 9.92
9/22/2021 12:45:00 PM 21.03 69.854 0.205 7.8 6.08 9.99
9/22/2021 1:00:00 PM 21.05 69.89 0.205 7.82 6.29 10.02
9/22/2021 1:15:00 PM 21.07 69.926 0.205 7.83 6.34 10.04
9/22/2021 1:30:00 PM 21.08 69.944 0.205 7.84 6.42 10.06
9/22/2021 1:45:00 PM 21.09 69.962 0.205 7.85 6.6 10.05
9/22/2021 2:00:00 PM 21.09 69.962 0.205 7.86 6.29 10.04
9/22/2021 2:15:00 PM 21.11 69.998 0.205 7.87 6.17 10.07
9/22/2021 2:30:00 PM 21.13 70.034 0.205 7.89 6.65 10.1
9/22/2021 2:45:00 PM 21.15 70.07 0.205 7.92 6.56 10.16
9/22/2021 3:00:00 PM 21.18 70.124 0.203 7.94 6.98 10.16
9/22/2021 3:15:00 PM 21.18 70.124 0.203 7.94 6.73 10.18
9/22/2021 3:30:00 PM 21.18 70.124 0.204 7.95 6.5 10.19
9/22/2021 3:45:00 PM 21.2 70.16 0.204 7.97 6.45 10.25
9/22/2021 4:00:00 PM 21.2 70.16 0.204 7.98 6.41 10.27
9/22/2021 4:15:00 PM 21.21 70.17799 0.204 7.99 6.13 10.25
9/22/2021 4:30:00 PM 21.21 70.17799 0.204 7.99 6.04 10.23
9/22/2021 4:45:00 PM 21.21 70.17799 0.203 7.97 6.32 10.19
9/22/2021 5:00:00 PM 21.21 70.17799 0.204 7.97 6.44 10.16
9/22/2021 5:15:00 PM 21.21 70.17799 0.204 7.97 7 10.14
9/22/2021 5:30:00 PM 21.22 70.196 0.204 7.96 6.02 10.12
9/22/2021 5:45:00 PM 21.22 70.196 0.205 7.96 6.24 10.1
9/22/2021 6:00:00 PM 21.22 70.196 0.205 7.95 6.22 10.08
9/22/2021 6:15:00 PM 21.21 70.17799 0.205 7.95 6.11 10.04
9/22/2021 6:30:00 PM 21.2 70.16 0.205 7.93 6.32 10
9/22/2021 6:45:00 PM 21.19 70.142 0.205 7.92 6.12 9.96
9/22/2021 7:00:00 PM 21.18 70.124 0.205 7.91 6.49 9.94
9/22/2021 7:15:00 PM 21.18 70.124 0.205 7.9 6.2 9.89
9/22/2021 7:30:00 PM 21.17 70.106 0.206 7.88 5.92 9.85
9/22/2021 7:45:00 PM 21.17 70.106 0.206 7.87 6.21 9.82
9/22/2021 8:00:00 PM 21.16 70.088 0.206 7.86 6.5 9.78
9/22/2021 8:15:00 PM 21.15 70.07 0.205 7.85 6.52 9.72
9/22/2021 8:30:00 PM 21.14 70.052 0.205 7.83 6.82 9.68
9/22/2021 8:45:00 PM 21.14 70.052 0.205 7.82 6.48 9.63
9/22/2021 9:00:00 PM 21.12 70.016 0.206 7.8 6.47 9.59
9/22/2021 9:15:00 PM 21.12 70.016 0.205 7.79 6.65 9.54
9/22/2021 9:30:00 PM 21.11 69.998 0.205 7.78 6.9 9.5
9/22/2021 9:45:00 PM 21.1 69.98 0.205 7.76 6.64 9.46
9/22/2021 10:00:00 PM 21.08 69.944 0.206 7.75 6.72 9.42
9/22/2021 10:15:00 PM 21.07 69.926 0.206 7.73 6.54 9.38
9/22/2021 10:30:00 PM 21.05 69.89 0.206 7.72 6.58 9.34
9/22/2021 10:45:00 PM 21.04 69.872 0.206 7.7 7.08 9.3
9/22/2021 11:00:00 PM 21.02 69.836 0.205 7.7 6.75 9.25
9/22/2021 11:15:00 PM 21 69.8 0.206 7.68 6.84 9.22
9/22/2021 11:30:00 PM 20.97 69.746 0.206 7.67 7.22 9.18
9/22/2021 11:45:00 PM 20.95 69.71 0.206 7.66 7.12 9.14
9/23/2021 12:00:00 AM 20.93 69.674 0.207 7.66 6.72 9.1
9/23/2021 12:15:00 AM 20.92 69.656 0.207 7.64 6.94 9.08
9/23/2021 12:30:00 AM 20.89 69.602 0.208 7.64 6.75 9.04
9/23/2021 12:45:00 AM 20.87 69.566 0.208 7.63 7.66 9.03
9/23/2021 1:00:00 AM 20.86 69.548 0.208 7.62 5.91 8.99
9/23/2021 1:15:00 AM 20.85 69.53 0.208 7.62 6.94 8.97
9/23/2021 1:30:00 AM 20.93 69.674 0.214 7.64 7.12 9.18
9/23/2021 1:45:00 AM 20.93 69.674 0.211 7.6 6.76 9.15
9/23/2021 2:00:00 AM 20.83 69.494 0.208 7.61 8.03 8.95
9/23/2021 2:15:00 AM 20.81 69.458 0.208 7.61 8.02 8.93
9/23/2021 2:30:00 AM 20.8 69.44 0.207 7.6 8.19 8.92
9/23/2021 2:45:00 AM 20.8 69.44 0.207 7.6 8.74 8.91
9/23/2021 3:00:00 AM 20.79 69.422 0.207 7.6 7.94 8.9
9/23/2021 3:15:00 AM 20.79 69.422 0.207 7.6 8.01 8.9
9/23/2021 3:30:00 AM 20.79 69.422 0.207 7.6 7.5 8.9
9/23/2021 3:45:00 AM 20.78 69.404 0.207 7.59 7.75 8.91
9/23/2021 4:00:00 AM 20.77 69.386 0.207 7.59 7.69 8.9
9/23/2021 4:15:00 AM 20.77 69.386 0.206 7.59 7.65 8.91
9/23/2021 4:30:00 AM 20.77 69.386 0.206 7.59 8.69 8.91
9/23/2021 4:45:00 AM 20.74 69.332 0.207 7.61 8.23 8.91
9/23/2021 5:00:00 AM 20.72 69.296 0.206 7.6 7.82 8.92
9/23/2021 5:15:00 AM 20.68 69.224 0.206 7.61 8.62 8.93
9/23/2021 5:30:00 AM 20.64 69.152 0.207 7.62 8.32 8.94
9/23/2021 5:45:00 AM 20.61 69.098 0.206 7.62 8.52 8.93
9/23/2021 6:00:00 AM 20.59 69.062 0.204 7.62 8.79 8.93
9/23/2021 6:15:00 AM 20.56 69.008 0.203 7.63 8.96 8.92
9/23/2021 6:30:00 AM 20.54 68.972 0.203 7.63 9.24 8.92
9/23/2021 6:45:00 AM 20.52 68.936 0.203 7.63 8.79 8.91
9/23/2021 7:00:00 AM 20.48 68.864 0.203 7.63 8.7 8.92
9/23/2021 7:15:00 AM 20.43 68.774 0.202 7.63 9.52 8.94
9/23/2021 7:30:00 AM 20.37 68.666 0.199 7.63 11.34 8.94
9/23/2021 7:45:00 AM 20.34 68.612 0.197 7.63 12.1 8.94
9/23/2021 8:00:00 AM 20.28 68.504 0.196 7.63 12.09 8.95
9/23/2021 8:15:00 AM 20.25 68.45 0.195 7.63 13.16 8.95
9/23/2021 8:30:00 AM 20.21 68.378 0.195 7.64 14.08 8.96
9/23/2021 8:45:00 AM 20.19 68.342 0.197 7.63 16.04 8.94
9/23/2021 9:00:00 AM 20.13 68.234 0.197 7.63 17.28 8.92
9/23/2021 9:15:00 AM 20.1 68.18 0.196 7.63 22.03 8.92
9/23/2021 9:30:00 AM 20.05 68.09 0.194 7.62 26.48 8.9
9/23/2021 9:45:00 AM 19.98 67.964 0.192 7.61 35.55 8.87
9/23/2021 10:00:00 AM 19.89 67.802 0.188 7.6 45.07 8.85
9/23/2021 10:15:00 AM 19.81 67.658 0.184 7.59 49.12 8.81
9/23/2021 10:30:00 AM 19.74 67.532 0.181 7.57 53.96 8.8
9/23/2021 10:45:00 AM 19.69 67.442 0.179 7.56 58.67 8.76
9/23/2021 11:00:00 AM 19.62 67.316 0.178 7.55 68.41 8.72
9/23/2021 11:15:00 AM 19.52 67.136 0.177 7.53 78.98 8.68
9/23/2021 11:30:00 AM 19.38 66.884 0.176 7.52 88.84 8.61
9/23/2021 11:45:00 AM 19.24 66.632 0.174 7.51 100.57 8.54
9/23/2021 12:00:00 PM 19.16 66.488 0.171 7.49 151.64 8.48
9/23/2021 12:15:00 PM 19.12 66.416 0.166 7.49 170.02 8.45
9/23/2021 12:30:00 PM 19.11 66.398 0.161 7.47 191.18 8.44
9/23/2021 12:45:00 PM 19.12 66.416 0.156 7.44 160.14 8.45
9/23/2021 1:00:00 PM 19.13 66.434 0.152 7.42 180.04 8.45
9/23/2021 1:15:00 PM 19.13 66.434 0.149 7.4 201.08 8.47
9/23/2021 1:30:00 PM 19.14 66.452 0.147 7.39 184.51 8.48
9/23/2021 1:45:00 PM 19.17 66.506 0.145 7.37 177.04 8.46
9/23/2021 2:00:00 PM 19.18 66.524 0.143 7.35 202.4 8.44
9/23/2021 2:15:00 PM 19.19 66.542 0.142 7.34 212.38 8.44
9/23/2021 2:30:00 PM 19.22 66.596 0.141 7.33 208.49 8.45
9/23/2021 2:45:00 PM 19.23 66.614 0.141 7.33 173.07 8.46
9/23/2021 3:00:00 PM 19.25 66.65 0.141 7.32 187.71 8.47
9/23/2021 3:15:00 PM 19.27 66.686 0.141 7.33 172.23 8.49
9/23/2021 3:30:00 PM 19.27 66.686 0.142 7.32 169.26 8.51
9/23/2021 3:45:00 PM 19.29 66.722 0.142 7.32 153.08 8.52
9/23/2021 4:00:00 PM 19.27 66.686 0.142 7.33 165.75 8.54
9/23/2021 4:15:00 PM 19.24 66.632 0.142 7.33 148.82 8.54
9/23/2021 4:30:00 PM 19.2 66.56 0.141 7.33 139.11 8.55
9/23/2021 4:45:00 PM 19.16 66.488 0.139 7.32 158.46 8.56
9/23/2021 5:00:00 PM 19.88 67.784 0.171 7.44 92 9.01
9/23/2021 5:15:00 PM 19.7 67.46 0.175 7.43 61.9 9.2
9/23/2021 5:30:00 PM 19.12 66.416 0.139 7.33 155.71 8.72
9/23/2021 5:45:00 PM 18.95 66.11 0.13 7.3 147.89 8.67
9/23/2021 6:00:00 PM 18.88 65.984 0.127 7.3 155.28 8.69
9/23/2021 6:15:00 PM 18.81 65.858 0.124 7.29 165.28 8.71
9/23/2021 6:30:00 PM 18.73 65.714 0.122 7.27 170.98 8.74
9/23/2021 6:45:00 PM 18.67 65.606 0.121 7.27 179.9 8.78
9/23/2021 7:00:00 PM 18.63 65.534 0.121 7.27 163.26 8.81
9/23/2021 7:15:00 PM 18.56 65.408 0.12 7.25 151.91 8.83
9/23/2021 7:30:00 PM 18.51 65.318 0.12 7.25 190.72 8.85
9/23/2021 7:45:00 PM 18.47 65.246 0.12 7.24 185.99 8.87
9/23/2021 8:00:00 PM 18.42 65.156 0.119 7.24 210.39 8.9
9/23/2021 8:15:00 PM 18.41 65.138 0.135 7.23 115.53 8.82
9/23/2021 8:30:00 PM 18.3 64.94 0.115 7.23 201.61 8.94
9/23/2021 8:45:00 PM 18.31 64.958 0.118 7.23 163.9 8.9
9/23/2021 9:00:00 PM 18.22 64.796 0.113 7.2 170.88 8.95
9/23/2021 9:15:00 PM 18.17 64.706 0.112 7.2 181.73 8.97
9/23/2021 9:30:00 PM 18.15 64.67 0.112 7.19 179.13 8.97
9/23/2021 9:45:00 PM 18.14 64.652 0.113 7.19 180.33 8.99
9/23/2021 10:00:00 PM 18.11 64.598 0.113 7.18 158.46 9.02
9/23/2021 10:15:00 PM 18.09 64.562 0.113 7.18 184.75 9.02
9/23/2021 10:30:00 PM 18.07 64.526 0.114 7.17 162.09 9.03
9/23/2021 10:45:00 PM 18.04 64.472 0.115 7.18 161.57 9.05
9/23/2021 11:00:00 PM 18.02 64.436 0.115 7.18 164.78 9.05
9/23/2021 11:15:00 PM 17.99 64.382 0.116 7.18 189.44 9.04
9/23/2021 11:30:00 PM 17.97 64.346 0.116 7.17 172.04 9.05
9/23/2021 11:45:00 PM 17.95 64.31 0.116 7.18 158.04 9.06
9/24/2021 12:00:00 AM 17.93 64.274 0.116 7.18 155.18 9.06
9/24/2021 12:15:00 AM 17.91 64.238 0.116 7.17 148.21 9.06
9/24/2021 12:30:00 AM 17.88 64.184 0.115 7.18 144.77 9.06
9/24/2021 12:45:00 AM 17.86 64.148 0.115 7.17 137.8 9.07
9/24/2021 1:00:00 AM 17.78 64.004 0.113 7.16 135.83 9.06
9/24/2021 1:15:00 AM 17.73 63.914 0.112 7.16 123.01 9.06
9/24/2021 1:30:00 AM 17.69 63.842 0.112 7.15 124.19 9.04
9/24/2021 1:45:00 AM 17.65 63.77 0.111 7.14 123.19 9.03
9/24/2021 2:00:00 AM 18.24 64.832 0.138 7.23 123.35 9.34
9/24/2021 2:15:00 AM 18.22 64.796 0.138 7.18 88.32 9.5
9/24/2021 2:30:00 AM 17.67 63.806 0.115 7.16 131.4 9.15
9/24/2021 2:45:00 AM 17.5 63.5 0.11 7.14 125.03 9.06
9/24/2021 3:00:00 AM 17.42 63.356 0.108 7.14 133.63 9.04
9/24/2021 3:15:00 AM 17.38 63.284 0.108 7.13 137.51 9.04
9/24/2021 3:30:00 AM 17.34 63.212 0.108 7.14 135.99 9.04
9/24/2021 3:45:00 AM 17.3 63.14 0.108 7.13 122.78 9.04
9/24/2021 4:00:00 AM 17.27 63.086 0.108 7.13 123.31 9.03
9/24/2021 4:15:00 AM 17.24 63.032 0.108 7.14 118.5 9.04
9/24/2021 4:30:00 AM 17.21 62.978 0.108 7.14 112.11 9.02
9/24/2021 4:45:00 AM 17.17 62.906 0.108 7.14 110.07 9.03
9/24/2021 5:00:00 AM 17.14 62.852 0.108 7.14 120.42 9.03
9/24/2021 5:15:00 AM 17.11 62.798 0.108 7.13 103.55 9.02
9/24/2021 5:30:00 AM 17.07 62.726 0.107 7.14 95.29 9.02
9/24/2021 5:45:00 AM 17.04 62.672 0.106 7.13 95.76 9.01
9/24/2021 6:00:00 AM 17 62.6 0.105 7.13 90.32 9.01
9/24/2021 6:15:00 AM 16.97 62.546 0.104 7.12 90.95 9
9/24/2021 6:30:00 AM 16.92 62.456 0.103 7.12 95.68 9
9/24/2021 6:45:00 AM 16.88 62.384 0.102 7.12 91.26 9
9/24/2021 7:00:00 AM 16.83 62.294 0.101 7.11 88.75 9
9/24/2021 7:15:00 AM 16.79 62.222 0.1 7.1 92.02 9.01
9/24/2021 7:30:00 AM 16.75 62.15 0.099 7.1 90.28 9
9/24/2021 7:45:00 AM 16.71 62.078 0.098 7.1 98.89 8.99
9/24/2021 8:00:00 AM 16.67 62.006 0.098 7.09 88.5 8.98
9/24/2021 8:15:00 AM 16.63 61.934 0.097 7.08 96.7 8.98
9/24/2021 8:30:00 AM 16.59 61.862 0.095 7.08 140.19 9.01
9/24/2021 8:45:00 AM 16.56 61.808 0.095 7.08 138.75 9.04
9/24/2021 9:00:00 AM 16.53 61.754 0.094 7.07 140.53 9.02
9/24/2021 9:15:00 AM 16.5 61.7 0.093 7.07 168.19 9.03
9/24/2021 9:30:00 AM 16.49 61.682 0.093 7.07 102.84 8.96
9/24/2021 9:45:00 AM 16.46 61.628 0.092 7.05 151.26 9.04
9/24/2021 10:00:00 AM 16.45 61.61 0.092 7.06 145.42 9.05
9/24/2021 10:15:00 AM 16.44 61.592 0.092 7.05 94.51 9.01
9/24/2021 10:30:00 AM 16.42 61.556 0.092 7.06 120.23 9.03
9/24/2021 10:45:00 AM 16.42 61.556 0.091 7.05 113.83 9.01
9/24/2021 11:00:00 AM 16.41 61.538 0.091 7.05 148.18 9.08
9/24/2021 11:15:00 AM 16.41 61.538 0.091 7.05 80.99 9
9/24/2021 11:30:00 AM 16.4 61.52 0.09 7.05 99.88 9.06
9/24/2021 11:45:00 AM 16.39 61.502 0.09 7.04 92.82 9.07
9/24/2021 12:00:00 PM 16.38 61.484 0.089 7.04 95.14 9.07
9/24/2021 12:15:00 PM 16.37 61.466 0.089 7.04 90.28 9.08
9/24/2021 12:30:00 PM 16.37 61.466 0.089 7.04 93.93 9.1
9/24/2021 12:45:00 PM 16.36 61.448 0.088 7.04 97.83 9.11
9/24/2021 1:00:00 PM 16.36 61.448 0.088 7.04 90.09 9.13
9/24/2021 1:15:00 PM 16.35 61.43 0.088 7.04 87.02 9.17
9/24/2021 1:30:00 PM 16.35 61.43 0.088 7.02 87.01 9.14
9/24/2021 1:45:00 PM 16.35 61.43 0.088 7.03 72.2 9.12
9/24/2021 2:00:00 PM 16.34 61.412 0.088 7.03 74.61 9.16
9/24/2021 2:15:00 PM 16.34 61.412 0.088 7.03 87.33 9.18
9/24/2021 2:30:00 PM 16.33 61.394 0.088 7.02 94.25 9.16
9/24/2021 2:45:00 PM 16.33 61.394 0.089 7.02 84.58 9.21
9/24/2021 3:00:00 PM 16.31 61.358 0.089 7.03 84.31 9.23
9/24/2021 3:15:00 PM 16.3 61.34 0.09 7.03 97.15 9.28
9/24/2021 3:30:00 PM 16.3 61.34 0.09 7.03 75.7 9.23
9/24/2021 3:45:00 PM 16.29 61.322 0.09 7.02 83.98 9.26
9/24/2021 4:00:00 PM 16.28 61.304 0.09 7.01 85.97 9.24
9/24/2021 4:15:00 PM 16.28 61.304 0.091 7.03 91.67 9.3
9/24/2021 4:30:00 PM 16.29 61.322 0.091 7.02 60.36 9.22
9/24/2021 4:45:00 PM 16.29 61.322 0.091 7.02 66.15 9.27
9/24/2021 5:00:00 PM 16.29 61.322 0.091 7.02 67.4 9.26
9/24/2021 5:15:00 PM 16.28 61.304 0.091 7.02 63.68 9.26
9/24/2021 5:30:00 PM 16.28 61.304 0.091 7.02 62.42 9.29
9/24/2021 5:45:00 PM 16.27 61.286 0.092 7.03 62.63 9.28
9/24/2021 6:00:00 PM 16.27 61.286 0.092 7.03 65.97 9.32
9/24/2021 6:15:00 PM 16.26 61.268 0.092 7.02 63.35 9.31
9/24/2021 6:30:00 PM 16.26 61.268 0.092 7.02 55.53 9.28
9/24/2021 6:45:00 PM 16.25 61.25 0.092 7.02 55.19 9.29
9/24/2021 7:00:00 PM 16.24 61.232 0.092 7.02 53.49 9.3
9/24/2021 7:15:00 PM 16.24 61.232 0.092 7.01 55.68 9.31
9/24/2021 7:30:00 PM 16.23 61.214 0.092 7.02 53.3 9.33
9/24/2021 7:45:00 PM 16.22 61.196 0.092 7.02 51.97 9.31
9/24/2021 8:00:00 PM 16.2 61.16 0.092 7.02 57.4 9.36
9/24/2021 8:15:00 PM 16.19 61.142 0.092 7.03 57.67 9.34
9/24/2021 8:30:00 PM 16.17 61.106 0.092 7.03 55.93 9.36
9/24/2021 8:45:00 PM 16.15 61.07 0.092 7.03 58 9.39
9/24/2021 9:00:00 PM 16.14 61.052 0.092 7.03 54.26 9.41
9/24/2021 9:15:00 PM 16.12 61.016 0.093 7.04 53.65 9.43
9/24/2021 9:30:00 PM 16.11 60.998 0.093 7.03 53.98 9.42
9/24/2021 9:45:00 PM 16.09 60.962 0.092 7.04 57.08 9.44
9/24/2021 10:00:00 PM 16.08 60.944 0.093 7.04 46.97 9.42
9/24/2021 10:15:00 PM 16.06 60.908 0.093 7.03 48.65 9.36
9/24/2021 10:30:00 PM 16.04 60.872 0.093 7.03 53.67 9.44
9/24/2021 10:45:00 PM 16.03 60.854 0.093 7.03 45.31 9.45
9/24/2021 11:00:00 PM 16 60.8 0.092 7.03 43.96 9.46
9/24/2021 11:15:00 PM 15.99 60.782 0.092 7.03 43.45 9.44
9/24/2021 11:30:00 PM 15.94 60.692 0.092 7.04 58.72 9.51
9/24/2021 11:45:00 PM 15.91 60.638 0.092 7.05 56.82 9.55
9/25/2021 12:00:00 AM 15.89 60.602 0.092 7.04 47.7 9.54
9/25/2021 12:15:00 AM 15.86 60.548 0.092 7.05 58.87 9.56
9/25/2021 12:30:00 AM 15.84 60.512 0.092 7.04 53.37 9.55
9/25/2021 12:45:00 AM 15.81 60.458 0.092 7.04 50.97 9.57
9/25/2021 1:00:00 AM 15.79 60.422 0.091 7.04 46.36 9.59
9/25/2021 1:15:00 AM 15.77 60.386 0.091 7.04 48.96 9.59
9/25/2021 1:30:00 AM 15.73 60.314 0.091 7.04 55.42 9.59
9/25/2021 1:45:00 AM 15.71 60.278 0.091 7.04 46.7 9.6
9/25/2021 2:00:00 AM 15.67 60.206 0.091 7.04 51.01 9.63
9/25/2021 2:15:00 AM 15.65 60.17 0.091 7.04 49.28 9.62
9/25/2021 2:30:00 AM 15.63 60.134 0.091 7.04 47.12 9.6
9/25/2021 2:45:00 AM 15.63 60.134 0.091 7.02 42.8 9.41
9/25/2021 3:00:00 AM 15.62 60.116 0.092 7.01 38.65 9.35
9/25/2021 3:15:00 AM 16.86 62.348 0.121 7.11 32.28 9.87
9/25/2021 3:30:00 AM 16.25 61.25 0.107 7.05 30.29 9.88
9/25/2021 3:45:00 AM 15.62 60.116 0.094 7.07 55.85 9.7
9/25/2021 4:00:00 AM 15.5 59.9 0.092 7.06 47.89 9.68
9/25/2021 4:15:00 AM 15.44 59.792 0.092 7.06 46.91 9.69
9/25/2021 4:30:00 AM 15.43 59.774 0.092 7.06 46.97 9.69
9/25/2021 4:45:00 AM 15.43 59.774 0.093 7.05 43.92 9.6
9/25/2021 5:00:00 AM 15.42 59.756 0.094 7.05 38.54 9.57
9/25/2021 5:15:00 AM 15.4 59.72 0.094 7.05 40.06 9.6
9/25/2021 5:30:00 AM 15.36 59.648 0.093 7.06 43.74 9.65
9/25/2021 5:45:00 AM 15.35 59.63 0.094 7.04 40.15 9.61
9/25/2021 6:00:00 AM 15.35 59.63 0.095 7.04 39.46 9.52
9/25/2021 6:15:00 AM 15.34 59.612 0.095 7.04 40.74 9.53
9/25/2021 6:30:00 AM 15.32 59.576 0.094 7.05 41.07 9.58
9/25/2021 6:45:00 AM 15.31 59.558 0.095 7.06 39.96 9.61
9/25/2021 7:00:00 AM 15.3 59.54 0.095 7.06 40.12 9.59
9/25/2021 7:15:00 AM 15.29 59.522 0.095 7.06 43.7 9.63
9/25/2021 7:30:00 AM 15.28 59.504 0.095 7.07 39.19 9.62
9/25/2021 7:45:00 AM 15.28 59.504 0.095 7.07 38.77 9.61
9/25/2021 8:00:00 AM 15.27 59.486 0.096 7.08 36.05 9.69
9/25/2021 8:15:00 AM 15.26 59.468 0.096 7.08 39.27 9.67
9/25/2021 8:30:00 AM 15.26 59.468 0.096 7.08 39.26 9.66
9/25/2021 8:45:00 AM 15.25 59.45 0.097 7.08 37.49 9.64
9/25/2021 9:00:00 AM 15.25 59.45 0.097 7.08 39.4 9.67
9/25/2021 9:15:00 AM 15.25 59.45 0.097 7.09 38.03 9.69
9/25/2021 9:30:00 AM 15.24 59.432 0.098 7.09 36.48 9.69
9/25/2021 9:45:00 AM 15.24 59.432 0.098 7.09 37.54 9.68
9/25/2021 10:00:00 AM 15.24 59.432 0.098 7.09 37.32 9.7
9/25/2021 10:15:00 AM 15.25 59.45 0.099 7.09 35.51 9.69
9/25/2021 10:30:00 AM 15.26 59.468 0.099 7.1 36.81 9.7
9/25/2021 10:45:00 AM 15.27 59.486 0.099 7.11 36.89 9.72
9/25/2021 11:00:00 AM 15.29 59.522 0.1 7.11 35.55 9.71
9/25/2021 11:15:00 AM 16 60.8 0.114 7.15 32.84 10.09
9/25/2021 11:30:00 AM 16.09 60.962 0.112 7.07 24.08 10.1
9/25/2021 11:45:00 AM 15.75 60.35 0.107 7.1 28.82 9.97
9/25/2021 12:00:00 PM 15.65 60.17 0.106 7.1 29.58 9.92
9/25/2021 12:15:00 PM 15.42 59.756 0.101 7.13 35.62 9.83
9/25/2021 12:30:00 PM 15.43 59.774 0.101 7.13 40.61 9.85
9/25/2021 12:45:00 PM 15.45 59.81 0.101 7.13 35.64 9.84
9/25/2021 1:00:00 PM 15.47 59.846 0.101 7.14 37.4 9.85
9/25/2021 1:15:00 PM 15.48 59.864 0.102 7.13 35.15 9.83
9/25/2021 1:30:00 PM 15.51 59.918 0.102 7.13 34.55 9.84
9/25/2021 1:45:00 PM 15.53 59.954 0.102 7.13 37.85 9.82
9/25/2021 2:00:00 PM 15.54 59.972 0.102 7.13 33.75 9.83
9/25/2021 2:15:00 PM 15.55 59.99 0.103 7.14 36.41 9.84
9/25/2021 2:30:00 PM 15.56 60.008 0.103 7.14 33.02 9.84
9/25/2021 2:45:00 PM 15.57 60.026 0.103 7.14 33.64 9.82
9/25/2021 3:00:00 PM 15.58 60.044 0.103 7.14 32.61 9.86
9/25/2021 3:15:00 PM 15.58 60.044 0.103 7.14 32.71 9.83
9/25/2021 3:30:00 PM 15.58 60.044 0.103 7.14 34.95 9.84
9/25/2021 3:45:00 PM 15.57 60.026 0.103 7.15 34.89 9.89
9/25/2021 4:00:00 PM 15.55 59.99 0.104 7.15 35.22 9.86
9/25/2021 4:15:00 PM 15.54 59.972 0.104 7.15 35.66 9.9
9/25/2021 4:30:00 PM 15.54 59.972 0.104 7.15 31.66 9.89
9/25/2021 4:45:00 PM 15.53 59.954 0.104 7.16 32.36 9.91
9/25/2021 5:00:00 PM 15.52 59.936 0.105 7.16 35.74 9.92
9/25/2021 5:15:00 PM 15.5 59.9 0.105 7.17 36.55 9.91
9/25/2021 5:30:00 PM 15.5 59.9 0.105 7.16 33.78 9.91
9/25/2021 5:45:00 PM 15.49 59.882 0.105 7.16 35.64 9.93
9/25/2021 6:00:00 PM 15.48 59.864 0.106 7.16 34.21 9.94
9/25/2021 6:15:00 PM 15.47 59.846 0.106 7.16 33.06 9.92
9/25/2021 6:30:00 PM 15.46 59.828 0.106 7.17 32.79 9.95
9/25/2021 6:45:00 PM 15.46 59.828 0.107 7.17 35.26 9.94
9/25/2021 7:00:00 PM 15.45 59.81 0.107 7.18 34.73 9.94
9/25/2021 7:15:00 PM 15.44 59.792 0.107 7.18 35.56 9.94
9/25/2021 7:30:00 PM 15.44 59.792 0.107 7.18 35.15 9.93
9/25/2021 7:45:00 PM 15.43 59.774 0.108 7.18 33.63 9.95
9/25/2021 8:00:00 PM 15.43 59.774 0.108 7.18 31.59 9.95
9/25/2021 8:15:00 PM 15.42 59.756 0.108 7.18 33.67 9.95
9/25/2021 8:30:00 PM 15.42 59.756 0.109 7.18 32.12 9.96
9/25/2021 8:45:00 PM 15.41 59.738 0.109 7.18 31.95 9.95
9/25/2021 9:00:00 PM 15.4 59.72 0.109 7.18 33.37 9.96
9/25/2021 9:15:00 PM 15.4 59.72 0.109 7.18 32.24 9.93
9/25/2021 9:30:00 PM 15.38 59.684 0.11 7.19 30.85 9.96
9/25/2021 9:45:00 PM 15.37 59.666 0.11 7.18 30.27 9.95
9/25/2021 10:00:00 PM 15.37 59.666 0.11 7.19 30.97 9.96
9/25/2021 10:15:00 PM 15.36 59.648 0.11 7.19 31.37 9.96
9/25/2021 10:30:00 PM 15.36 59.648 0.111 7.19 31.76 9.96
9/25/2021 10:45:00 PM 15.35 59.63 0.111 7.19 31.15 9.96
9/25/2021 11:00:00 PM 15.35 59.63 0.111 7.19 31.42 9.95
9/25/2021 11:15:00 PM 15.35 59.63 0.111 7.2 31.42 9.96
9/25/2021 11:30:00 PM 15.34 59.612 0.111 7.2 31.84 9.97
9/25/2021 11:45:00 PM 15.33 59.594 0.111 7.2 31.85 9.97
9/26/2021 12:00:00 AM 15.32 59.576 0.112 7.2 33.16 9.95
9/26/2021 12:15:00 AM 15.32 59.576 0.112 7.2 33.63 9.97
9/26/2021 12:30:00 AM 15.31 59.558 0.112 7.2 30.66 9.98
9/26/2021 12:45:00 AM 15.3 59.54 0.112 7.23 30.8 9.96
9/26/2021 1:00:00 AM 15.29 59.522 0.112 7.21 32.98 9.98
9/26/2021 1:15:00 AM 15.27 59.486 0.112 7.2 32.12 9.97
9/26/2021 1:30:00 AM 15.26 59.468 0.112 7.2 30.47 9.98
9/26/2021 1:45:00 AM 15.24 59.432 0.112 7.2 32.55 9.99
9/26/2021 2:00:00 AM 15.23 59.414 0.112 7.2 31.58 9.96
9/26/2021 2:15:00 AM 15.22 59.396 0.112 7.21 32.89 10.01
9/26/2021 2:30:00 AM 15.2 59.36 0.112 7.2 34.02 9.98
9/26/2021 2:45:00 AM 15.19 59.342 0.112 7.21 32.34 9.99
9/26/2021 3:00:00 AM 15.17 59.306 0.112 7.21 32.69 9.98
9/26/2021 3:15:00 AM 15.15 59.27 0.112 7.21 33.51 10
9/26/2021 3:30:00 AM 15.14 59.252 0.112 7.21 33.5 10
9/26/2021 3:45:00 AM 15.12 59.216 0.112 7.21 32.45 10
9/26/2021 4:00:00 AM 15.1 59.18 0.112 7.21 33.16 10.02
9/26/2021 4:15:00 AM 15.09 59.162 0.112 7.21 32.06 10.01
9/26/2021 4:30:00 AM 15.07 59.126 0.112 7.21 34.14 10.02
9/26/2021 4:45:00 AM 15.06 59.108 0.112 7.22 32.74 10.02
9/26/2021 5:00:00 AM 15.04 59.072 0.112 7.25 30.72 10.02
9/26/2021 5:15:00 AM 15.03 59.054 0.112 7.2 32.14 9.93
9/26/2021 5:30:00 AM 15.02 59.036 0.112 7.21 30.06 10.01
9/26/2021 5:45:00 AM 15.02 59.036 0.112 7.21 30.83 9.99
9/26/2021 6:00:00 AM 15.01 59.018 0.112 7.21 28.64 9.98
9/26/2021 6:15:00 AM 15 59 0.112 7.21 29.93 9.97
9/26/2021 6:30:00 AM 14.99 58.982 0.112 7.2 28.93 9.97
9/26/2021 6:45:00 AM 14.97 58.946 0.112 7.2 30.15 9.97
9/26/2021 7:00:00 AM 14.96 58.928 0.112 7.2 27.54 9.98
9/26/2021 7:15:00 AM 14.95 58.91 0.112 7.2 28.17 9.98
9/26/2021 7:30:00 AM 14.94 58.892 0.112 7.2 29.26 9.97
9/26/2021 7:45:00 AM 14.93 58.874 0.112 7.21 28.91 9.83
9/26/2021 8:00:00 AM 14.93 58.874 0.112 7.2 29.33 9.98
9/26/2021 8:15:00 AM 14.92 58.856 0.112 7.21 28.71 10
9/26/2021 8:30:00 AM 14.92 58.856 0.112 7.21 29.78 9.95
9/26/2021 8:45:00 AM 14.92 58.856 0.112 7.21 27.73 9.98
9/26/2021 9:00:00 AM 14.93 58.874 0.112 7.2 30.85 9.97
9/26/2021 9:15:00 AM 14.93 58.874 0.112 7.21 28.57 9.98
9/26/2021 9:30:00 AM 14.95 58.91 0.112 7.21 29.68 9.96
9/26/2021 9:45:00 AM 14.96 58.928 0.112 7.22 29.78 9.99
9/26/2021 10:00:00 AM 15.28 59.504 0.117 7.23 31.28 9.93
9/26/2021 10:15:00 AM 15.9 60.62 0.122 7.19 30.65 10.02
9/26/2021 10:30:00 AM 15.37 59.666 0.115 7.23 32.41 10.09
9/26/2021 10:45:00 AM 15.14 59.252 0.113 7.23 33 10.02
9/26/2021 11:00:00 AM 15.12 59.216 0.112 7.22 32.99 10
9/26/2021 11:15:00 AM 15.14 59.252 0.112 7.22 34.36 10.01
9/26/2021 11:30:00 AM 15.17 59.306 0.112 7.22 33.89 10.01
9/26/2021 11:45:00 AM 15.21 59.378 0.112 7.23 31.76 10
9/26/2021 12:00:00 PM 15.25 59.45 0.112 7.21 30.82 10
9/26/2021 12:15:00 PM 15.28 59.504 0.112 7.22 27.23 10
9/26/2021 12:30:00 PM 15.32 59.576 0.112 7.24 26.4 9.99
9/26/2021 12:45:00 PM 15.35 59.63 0.112 7.22 24.96 9.97
9/26/2021 1:00:00 PM 15.39 59.702 0.112 7.22 26.24 10
9/26/2021 1:15:00 PM 15.42 59.756 0.112 7.23 25.79 10
9/26/2021 1:30:00 PM 15.45 59.81 0.112 7.25 27.03 9.99
9/26/2021 1:45:00 PM 15.48 59.864 0.112 7.24 26.88 9.99
9/26/2021 2:00:00 PM 15.51 59.918 0.112 7.23 26.14 9.97
9/26/2021 2:15:00 PM 15.54 59.972 0.112 7.24 26.7 10
9/26/2021 2:30:00 PM 15.58 60.044 0.112 7.23 26.31 9.98
9/26/2021 2:45:00 PM 15.6 60.08 0.112 7.24 27.93 9.97
9/26/2021 3:00:00 PM 15.62 60.116 0.112 7.23 28.45 9.98
9/26/2021 3:15:00 PM 15.66 60.188 0.112 7.23 29.12 9.96
9/26/2021 3:30:00 PM 15.68 60.224 0.112 7.24 25.57 9.97
9/26/2021 3:45:00 PM 15.7 60.26 0.112 7.24 27.26 9.97
9/26/2021 4:00:00 PM 15.71 60.278 0.112 7.24 27.43 9.97
9/26/2021 4:15:00 PM 15.72 60.296 0.112 7.24 29.78 10.01
9/26/2021 4:30:00 PM 15.73 60.314 0.112 7.24 34.02 9.92
9/26/2021 4:45:00 PM 15.75 60.35 0.112 7.24 38.07 9.91
9/26/2021 5:00:00 PM 15.77 60.386 0.112 7.24 28.7 9.95
9/26/2021 5:15:00 PM 15.78 60.404 0.112 7.25 29.94 9.98
9/26/2021 5:30:00 PM 15.79 60.422 0.112 7.24 28.88 9.92
9/26/2021 5:45:00 PM 15.79 60.422 0.112 7.26 28.58 10.02
9/26/2021 6:00:00 PM 15.79 60.422 0.112 7.26 29.69 9.99
9/26/2021 6:15:00 PM 15.79 60.422 0.112 7.27 29.38 9.97
9/26/2021 6:30:00 PM 15.79 60.422 0.112 7.3 29.25 9.99
9/26/2021 6:45:00 PM 15.78 60.404 0.112 7.26 27.19 10.01
9/26/2021 7:00:00 PM 15.78 60.404 0.112 7.27 27.69 10.01
9/26/2021 7:15:00 PM 15.77 60.386 0.112 7.27 28.73 10
9/26/2021 7:30:00 PM 15.77 60.386 0.112 7.27 27.3 9.97
9/26/2021 7:45:00 PM 15.77 60.386 0.112 7.27 28.69 10.01
9/26/2021 8:00:00 PM 15.76 60.368 0.112 7.27 28.3 10
9/26/2021 8:15:00 PM 15.76 60.368 0.112 7.27 28.16 9.98
9/26/2021 8:30:00 PM 15.76 60.368 0.112 7.29 28.27 9.99
9/26/2021 8:45:00 PM 15.76 60.368 0.112 7.27 29.16 9.97
9/26/2021 9:00:00 PM 15.76 60.368 0.112 7.27 25.6 9.98
9/26/2021 9:15:00 PM 15.76 60.368 0.112 7.27 26.97 9.98
9/26/2021 9:30:00 PM 15.76 60.368 0.112 7.27 27.45 9.97
9/26/2021 9:45:00 PM 15.75 60.35 0.112 7.26 25.48 9.95
9/26/2021 10:00:00 PM 15.74 60.332 0.112 7.27 27.27 9.94
9/26/2021 10:15:00 PM 15.74 60.332 0.112 7.29 26.5 9.96
9/26/2021 10:30:00 PM 15.73 60.314 0.113 7.28 26.49 9.98
9/26/2021 10:45:00 PM 15.72 60.296 0.113 7.27 25.49 9.96
9/26/2021 11:00:00 PM 15.71 60.278 0.113 7.27 26.18 9.9
9/26/2021 11:15:00 PM 15.7 60.26 0.113 7.28 26.92 9.96
9/26/2021 11:30:00 PM 15.69 60.242 0.113 7.27 28.4 9.98
9/26/2021 11:45:00 PM 15.67 60.206 0.113 7.28 27.88 9.97
9/27/2021 12:00:00 AM 15.65 60.17 0.113 7.27 29.09 9.89
9/27/2021 12:15:00 AM 15.64 60.152 0.113 7.29 27.08 9.97
9/27/2021 12:30:00 AM 15.61 60.098 0.113 7.32 27.7 9.97
9/27/2021 12:45:00 AM 15.59 60.062 0.113 7.28 27.86 9.97
9/27/2021 1:00:00 AM 15.57 60.026 0.113 7.29 26.82 9.95
9/27/2021 1:15:00 AM 15.55 59.99 0.113 7.32 28.55 9.97
9/27/2021 1:30:00 AM 15.54 59.972 0.113 7.28 29.07 9.97
9/27/2021 1:45:00 AM 15.94 60.692 0.125 7.36 33.5 10.09
9/27/2021 2:00:00 AM 15.92 60.656 0.123 7.22 26.96 10.04
9/27/2021 2:15:00 AM 15.61 60.098 0.117 7.25 29 9.99
9/27/2021 2:30:00 AM 15.48 59.864 0.114 7.28 31.66 9.95
9/27/2021 2:45:00 AM 15.46 59.828 0.114 7.26 29.21 9.89
9/27/2021 3:00:00 AM 15.44 59.792 0.115 7.3 28.75 9.89
9/27/2021 3:15:00 AM 15.42 59.756 0.115 7.28 32.15 9.89
9/27/2021 3:30:00 AM 15.4 59.72 0.115 7.27 31.36 9.95
9/27/2021 3:45:00 AM 15.39 59.702 0.115 7.28 30.99 9.93
9/27/2021 4:00:00 AM 15.37 59.666 0.115 7.27 28.78 9.9
9/27/2021 4:15:00 AM 15.35 59.63 0.115 7.3 30.31 9.93
9/27/2021 4:30:00 AM 15.34 59.612 0.115 7.28 31.11 9.93
9/27/2021 4:45:00 AM 15.33 59.594 0.115 7.29 28.08 9.9
9/27/2021 5:00:00 AM 15.32 59.576 0.116 7.26 28.19 9.87
9/27/2021 5:15:00 AM 15.31 59.558 0.116 7.28 27.42 9.94
9/27/2021 5:30:00 AM 15.3 59.54 0.116 7.26 28.59 9.91
9/27/2021 5:45:00 AM 15.29 59.522 0.116 7.26 28.3 9.92
9/27/2021 6:00:00 AM 15.28 59.504 0.116 7.28 27.96 9.96
9/27/2021 6:15:00 AM 15.27 59.486 0.116 7.28 27.42 9.95
9/27/2021 6:30:00 AM 15.26 59.468 0.117 7.28 28.71 9.95
9/27/2021 6:45:00 AM 15.25 59.45 0.117 7.29 29.1 9.96
9/27/2021 7:00:00 AM 15.24 59.432 0.117 7.29 27.71 9.93
9/27/2021 7:15:00 AM 15.23 59.414 0.117 7.28 27.06 9.95
9/27/2021 7:30:00 AM 15.22 59.396 0.117 7.27 28.07 9.93
9/27/2021 7:45:00 AM 15.22 59.396 0.117 7.27 28.1 9.94
9/27/2021 8:00:00 AM 15.21 59.378 0.117 7.31 26.68 9.97
9/27/2021 8:15:00 AM 15.21 59.378 0.117 7.29 26.91 9.94
9/27/2021 8:30:00 AM 15.21 59.378 0.117 7.28 28.06 9.97
9/27/2021 8:45:00 AM 15.21 59.378 0.118 7.28 27.86 9.98
9/27/2021 9:00:00 AM 15.22 59.396 0.118 7.28 28.12 9.96
9/27/2021 9:15:00 AM 15.23 59.414 0.118 7.28 27.79 10.01
9/27/2021 9:30:00 AM 15.25 59.45 0.118 7.26 28.06 9.82
9/27/2021 9:45:00 AM 15.28 59.504 0.118 7.27 26.33 9.87
9/27/2021 10:00:00 AM 15.65 60.17 0.126 7.3 26.12 9.69
9/27/2021 10:15:00 AM 15.77 60.386 0.126 7.24 23.76 9.82
9/27/2021 10:30:00 AM 15.46 59.828 0.12 7.25 26.58 9.92
9/27/2021 10:45:00 AM 15.42 59.756 0.119 7.28 28.64 9.98
9/27/2021 11:00:00 AM 15.46 59.828 0.119 7.29 28.05 9.98
9/27/2021 11:15:00 AM 15.5 59.9 0.119 7.3 29.14 10
9/27/2021 11:30:00 AM 15.54 59.972 0.119 7.29 29.34 10
9/27/2021 11:45:00 AM 15.59 60.062 0.119 7.29 27.81 9.93
9/27/2021 12:00:00 PM 15.63 60.134 0.119 7.26 27.74 9.91
9/27/2021 12:15:00 PM 15.68 60.224 0.12 7.29 28.37 9.97
9/27/2021 12:30:00 PM 15.72 60.296 0.12 7.29 28.43 9.98
9/27/2021 12:45:00 PM 15.76 60.368 0.12 7.3 27.61 10
9/27/2021 1:00:00 PM 15.8 60.44 0.12 7.32 27.94 10
9/27/2021 1:15:00 PM 15.84 60.512 0.12 7.32 28.91 9.98
9/27/2021 1:30:00 PM 15.87 60.566 0.12 7.32 27.99 10.03
9/27/2021 1:45:00 PM 15.9 60.62 0.12 7.3 28.26 9.96
9/27/2021 2:00:00 PM 15.94 60.692 0.12 7.3 28.48 9.97
9/27/2021 2:15:00 PM 15.98 60.764 0.12 7.33 28.79 10.08
9/27/2021 2:30:00 PM 16.03 60.854 0.12 7.33 28.6 10.07
9/27/2021 2:45:00 PM 16.08 60.944 0.121 7.34 29.42 10.07
9/27/2021 3:00:00 PM 16.12 61.016 0.121 7.33 30.78 10.06
9/27/2021 3:15:00 PM 16.16 61.088 0.121 7.36 30.99 10.05
9/27/2021 3:30:00 PM 16.2 61.16 0.121 7.34 31.12 10.09
9/27/2021 3:45:00 PM 16.23 61.214 0.121 7.34 31.61 10.1
9/27/2021 4:00:00 PM 16.25 61.25 0.122 7.35 30.72 10.08
9/27/2021 4:15:00 PM 16.27 61.286 0.122 7.31 31.09 10.03
9/27/2021 4:30:00 PM 16.28 61.304 0.122 7.33 29.26 10.04
9/27/2021 4:45:00 PM 16.29 61.322 0.122 7.34 29.37 10.05
9/27/2021 5:00:00 PM 16.3 61.34 0.122 7.34 28.73 10.06
9/27/2021 5:15:00 PM 16.32 61.376 0.122 7.36 29.18 10.09
9/27/2021 5:30:00 PM 16.33 61.394 0.122 7.35 28.22 10.08
9/27/2021 5:45:00 PM 16.33 61.394 0.122 7.36 29.24 10.11
9/27/2021 6:00:00 PM 16.34 61.412 0.122 7.37 29.48 10.14
9/27/2021 6:15:00 PM 16.34 61.412 0.122 7.35 29.29 10.08
9/27/2021 6:30:00 PM 16.34 61.412 0.122 7.36 29.57 10.09
9/27/2021 6:45:00 PM 16.35 61.43 0.123 7.34 30.49 10.07
9/27/2021 7:00:00 PM 16.35 61.43 0.123 7.36 29.44 10.11
9/27/2021 7:15:00 PM 16.36 61.448 0.123 7.36 29.55 10.09
9/27/2021 7:30:00 PM 16.36 61.448 0.123 7.35 29.78 10.07
9/27/2021 7:45:00 PM 16.36 61.448 0.123 7.36 28.16 10.06
9/27/2021 8:00:00 PM 16.36 61.448 0.123 7.36 29.77 10.08
9/27/2021 8:15:00 PM 16.37 61.466 0.123 7.36 29.54 10.05
9/27/2021 8:30:00 PM 16.37 61.466 0.124 7.36 28.57 10.04
9/27/2021 8:45:00 PM 16.38 61.484 0.124 7.36 28.77 10.07
9/27/2021 9:00:00 PM 16.38 61.484 0.124 7.36 28.33 10.03
9/27/2021 9:15:00 PM 16.37 61.466 0.124 7.37 29.17 10.05
9/27/2021 9:30:00 PM 16.36 61.448 0.124 7.36 29.27 10.05
9/27/2021 9:45:00 PM 16.35 61.43 0.124 7.36 28.56 10.03
9/27/2021 10:00:00 PM 16.34 61.412 0.124 7.36 27.36 10.04
9/27/2021 10:15:00 PM 16.34 61.412 0.124 7.39 28.17 10.03
9/27/2021 10:30:00 PM 16.33 61.394 0.125 7.35 27.78 10.02
9/27/2021 10:45:00 PM 16.33 61.394 0.125 7.37 27.72 10.02
9/27/2021 11:00:00 PM 16.32 61.376 0.125 7.36 27.29 9.97
9/27/2021 11:15:00 PM 16.32 61.376 0.125 7.35 28.34 9.99
9/27/2021 11:30:00 PM 16.32 61.376 0.125 7.36 28.3 9.98
9/27/2021 11:45:00 PM 16.31 61.358 0.125 7.36 29.15 9.98
9/28/2021 12:00:00 AM 16.31 61.358 0.125 7.35 28.28 9.91
9/28/2021 12:15:00 AM 16.3 61.34 0.125 7.35 28.73 9.96
9/28/2021 12:30:00 AM 16.3 61.34 0.126 7.34 29.22 9.89
9/28/2021 12:45:00 AM 16.29 61.322 0.126 7.34 30.34 9.93
9/28/2021 1:00:00 AM 16.28 61.304 0.126 7.35 29.94 9.95
9/28/2021 1:15:00 AM 16.27 61.286 0.126 7.35 28.94 9.93
9/28/2021 1:30:00 AM 16.25 61.25 0.126 7.35 29.59 9.96
9/28/2021 1:45:00 AM 16.24 61.232 0.126 7.36 30.15 9.95
9/28/2021 2:00:00 AM 16.23 61.214 0.126 7.35 28.69 9.92
9/28/2021 2:15:00 AM 16.22 61.196 0.126 7.35 29.68 9.93
9/28/2021 2:30:00 AM 16.21 61.178 0.126 7.36 29.16 9.93
9/28/2021 2:45:00 AM 16.2 61.16 0.126 7.35 29.39 9.91
9/28/2021 3:00:00 AM 16.19 61.142 0.126 7.35 28.62 9.9
9/28/2021 3:15:00 AM 16.17 61.106 0.126 7.35 28.64 9.91
9/28/2021 3:30:00 AM 16.16 61.088 0.127 7.35 29.18 9.9
9/28/2021 3:45:00 AM 16.15 61.07 0.127 7.35 29.59 9.88
9/28/2021 4:00:00 AM 16.13 61.034 0.127 7.34 30.08 9.92
9/28/2021 4:15:00 AM 16.12 61.016 0.127 7.35 28.98 9.9
9/28/2021 4:30:00 AM 16.11 60.998 0.128 7.32 28.85 9.84
9/28/2021 4:45:00 AM 16.09 60.962 0.128 7.34 29.69 9.86
9/28/2021 5:00:00 AM 16.08 60.944 0.128 7.32 29.29 9.87
9/28/2021 5:15:00 AM 16.06 60.908 0.128 7.33 30.33 9.87
9/28/2021 5:30:00 AM 16.04 60.872 0.128 7.34 21.97 9.88
9/28/2021 5:45:00 AM 16.02 60.836 0.128 7.34 21.53 9.86
9/28/2021 6:00:00 AM 16.01 60.818 0.128 7.35 22.98 9.89
9/28/2021 6:15:00 AM 15.99 60.782 0.128 7.33 22.91 9.89
9/28/2021 6:30:00 AM 15.97 60.746 0.128 7.34 21.75 9.87
9/28/2021 6:45:00 AM 15.96 60.728 0.129 7.34 22.28 9.85
9/28/2021 7:00:00 AM 15.94 60.692 0.129 7.34 19.15 9.88
9/28/2021 7:15:00 AM 15.93 60.674 0.129 7.33 20.1 9.87
9/28/2021 7:30:00 AM 15.92 60.656 0.129 7.34 20.42 9.89
9/28/2021 7:45:00 AM 15.9 60.62 0.129 7.34 19.74 9.9
9/28/2021 8:00:00 AM 15.89 60.602 0.129 7.35 21.08 9.89
9/28/2021 8:15:00 AM 15.88 60.584 0.13 7.35 20.56 9.89
9/28/2021 8:30:00 AM 15.88 60.584 0.13 7.36 22.54 9.82
9/28/2021 8:45:00 AM 16.12 61.016 0.133 7.33 27.49 9.82
9/28/2021 9:00:00 AM 15.88 60.584 0.13 7.35 26.7 9.86
9/28/2021 9:15:00 AM 16.53 61.754 0.143 7.36 26.9 9.72
9/28/2021 9:30:00 AM 16.19 61.142 0.132 7.19 25.62 9
9/28/2021 9:45:00 AM 15.86 60.548 0.131 7.34 28.34 9.9
9/28/2021 10:00:00 AM 15.82 60.476 0.131 7.34 28.85 9.91
9/28/2021 10:15:00 AM 15.81 60.458 0.131 7.34 28.77 9.92
9/28/2021 10:30:00 AM 15.81 60.458 0.132 7.35 28.43 9.93
9/28/2021 10:45:00 AM 15.8 60.44 0.132 7.35 27.84 9.91
9/28/2021 11:00:00 AM 15.8 60.44 0.132 7.35 27.87 9.92
9/28/2021 11:15:00 AM 15.79 60.422 0.133 7.35 27.72 9.93
9/28/2021 11:30:00 AM 15.78 60.404 0.133 7.36 27.58 9.94
9/28/2021 11:45:00 AM 15.78 60.404 0.133 7.35 27.35 9.93
9/28/2021 12:00:00 PM 15.79 60.422 0.133 7.35 25.78 9.91
9/28/2021 12:15:00 PM 15.81 60.458 0.133 7.35 27.36 9.95
9/28/2021 12:30:00 PM 15.84 60.512 0.133 7.37 24.9 9.96
9/28/2021 12:45:00 PM 15.87 60.566 0.134 7.35 25.59 9.95
9/28/2021 1:00:00 PM 15.89 60.602 0.134 7.36 25.1 9.95
9/28/2021 1:15:00 PM 15.91 60.638 0.134 7.38 24.48 9.97
9/28/2021 1:30:00 PM 15.91 60.638 0.134 7.36 26.54 9.99
9/28/2021 1:45:00 PM 15.93 60.674 0.135 7.37 27.07 10
9/28/2021 2:00:00 PM 15.97 60.746 0.135 7.37 26.65 9.98
9/28/2021 2:15:00 PM 16 60.8 0.135 7.36 25.73 10.01
9/28/2021 2:30:00 PM 16.03 60.854 0.135 7.38 26.03 10
9/28/2021 2:45:00 PM 16.06 60.908 0.135 7.37 25.8 10.02
9/28/2021 3:00:00 PM 16.09 60.962 0.136 7.39 26.02 10.03
9/28/2021 3:15:00 PM 16.12 61.016 0.136 7.39 26.1 10
9/28/2021 3:30:00 PM 16.13 61.034 0.136 7.38 26.07 10.01
9/28/2021 3:45:00 PM 16.14 61.052 0.136 7.39 25.82 10.02
9/28/2021 4:00:00 PM 16.15 61.07 0.136 7.4 25.37 10.02
9/28/2021 4:15:00 PM 16.17 61.106 0.136 7.4 26.64 10.05
9/28/2021 4:30:00 PM 16.2 61.16 0.137 7.4 26.47 10.04
9/28/2021 4:45:00 PM 16.22 61.196 0.137 7.4 25.1 10.05
9/28/2021 5:00:00 PM 16.24 61.232 0.137 7.4 25.85 10.03
9/28/2021 5:15:00 PM 16.26 61.268 0.137 7.41 26.32 10.03
9/28/2021 5:30:00 PM 16.29 61.322 0.137 7.4 25.86 10.06
9/28/2021 5:45:00 PM 16.32 61.376 0.137 7.4 25.67 10.04
9/28/2021 6:00:00 PM 16.32 61.376 0.137 7.41 25.46 10.04
9/28/2021 6:15:00 PM 16.3 61.34 0.137 7.42 26.65 10.04
9/28/2021 6:30:00 PM 16.27 61.286 0.137 7.4 27.04 10.03
9/28/2021 6:45:00 PM 16.26 61.268 0.138 7.41 26.39 10.03
9/28/2021 7:00:00 PM 16.26 61.268 0.138 7.4 27.09 10.02
9/28/2021 7:15:00 PM 16.45 61.61 0.144 7.44 25.9 10.1
9/28/2021 7:30:00 PM 16.38 61.484 0.142 7.34 25.85 9.93
9/28/2021 7:45:00 PM 16.28 61.304 0.139 7.37 23.82 9.99
9/28/2021 8:00:00 PM 16.25 61.25 0.138 7.41 24.61 10.03
9/28/2021 8:15:00 PM 16.24 61.232 0.138 7.4 25.07 10.02
9/28/2021 8:30:00 PM 16.23 61.214 0.138 7.4 25.4 10.01
9/28/2021 8:45:00 PM 16.21 61.178 0.138 7.42 24.82 10.01
9/28/2021 9:00:00 PM 16.2 61.16 0.138 7.41 25.7 10.01
9/28/2021 9:15:00 PM 16.19 61.142 0.139 7.41 26.21 10.01
9/28/2021 9:30:00 PM 16.17 61.106 0.139 7.4 26.02 9.99
9/28/2021 9:45:00 PM 16.16 61.088 0.139 7.41 24.69 10
9/28/2021 10:00:00 PM 16.14 61.052 0.139 7.41 24.99 10
9/28/2021 10:15:00 PM 16.13 61.034 0.139 7.4 25.89 9.97
9/28/2021 10:30:00 PM 16.12 61.016 0.14 7.4 25.89 9.99
9/28/2021 10:45:00 PM 16.11 60.998 0.139 7.41 25.86 9.97
9/28/2021 11:00:00 PM 16.1 60.98 0.139 7.41 26.05 9.94
9/28/2021 11:15:00 PM 16.1 60.98 0.139 7.41 26.84 9.96
9/28/2021 11:30:00 PM 16.09 60.962 0.139 7.41 26.4 9.94
9/28/2021 11:45:00 PM 16.09 60.962 0.14 7.4 26.99 9.96
9/29/2021 12:00:00 AM 16.08 60.944 0.14 7.42 27.2 9.94
9/29/2021 12:15:00 AM 16.07 60.926 0.14 7.41 26.95 9.95
9/29/2021 12:30:00 AM 16.06 60.908 0.14 7.4 26.83 9.95
9/29/2021 12:45:00 AM 16.05 60.89 0.139 7.41 27.73 9.94
9/29/2021 1:00:00 AM 16.04 60.872 0.139 7.41 26.94 9.94
9/29/2021 1:15:00 AM 16.03 60.854 0.139 7.41 27.72 9.93
9/29/2021 1:30:00 AM 16.03 60.854 0.139 7.4 29.33 9.82
9/29/2021 1:45:00 AM 16.01 60.818 0.139 7.39 27.89 9.89
9/29/2021 2:00:00 AM 15.99 60.782 0.139 7.41 27.88 9.92
9/29/2021 2:15:00 AM 15.98 60.764 0.139 7.41 28.38 9.92
9/29/2021 2:30:00 AM 15.97 60.746 0.139 7.41 28.69 9.91
9/29/2021 2:45:00 AM 15.95 60.71 0.139 7.41 30.11 9.92
9/29/2021 3:00:00 AM 15.94 60.692 0.139 7.41 28.41 9.9
9/29/2021 3:15:00 AM 15.92 60.656 0.139 7.42 28.61 9.91
9/29/2021 3:30:00 AM 15.91 60.638 0.14 7.41 28.24 9.89
9/29/2021 3:45:00 AM 15.89 60.602 0.14 7.41 29.76 9.91
9/29/2021 4:00:00 AM 15.88 60.584 0.14 7.41 29.39 9.88
9/29/2021 4:15:00 AM 15.85 60.53 0.14 7.42 28.86 9.9
9/29/2021 4:30:00 AM 15.83 60.494 0.14 7.41 28.47 9.89
9/29/2021 4:45:00 AM 15.82 60.476 0.14 7.41 28.47 9.89
9/29/2021 5:00:00 AM 15.8 60.44 0.14 7.41 29.66 9.87
9/29/2021 5:15:00 AM 15.78 60.404 0.14 7.41 28.41 9.87
9/29/2021 5:30:00 AM 15.76 60.368 0.14 7.39 25.76 9.78
9/29/2021 5:45:00 AM 15.72 60.296 0.14 7.41 25.72 9.84
9/29/2021 6:00:00 AM 15.7 60.26 0.14 7.41 26.23 9.84
9/29/2021 6:15:00 AM 15.68 60.224 0.14 7.4 25.84 9.87
9/29/2021 6:30:00 AM 15.65 60.17 0.14 7.41 25.57 9.87
9/29/2021 6:45:00 AM 15.63 60.134 0.14 7.41 24.96 9.85
9/29/2021 7:00:00 AM 15.62 60.116 0.141 7.41 25.02 9.86
9/29/2021 7:15:00 AM 15.6 60.08 0.141 7.4 25.42 9.87
9/29/2021 7:30:00 AM 15.59 60.062 0.141 7.41 25.25 9.88
9/29/2021 7:45:00 AM 15.58 60.044 0.141 7.41 25.17 9.89
9/29/2021 8:00:00 AM 15.57 60.026 0.141 7.41 24.28 9.88
9/29/2021 8:15:00 AM 15.56 60.008 0.141 7.4 25.36 9.88
9/29/2021 8:30:00 AM 15.56 60.008 0.141 7.4 24.67 9.89
9/29/2021 8:45:00 AM 15.55 59.99 0.141 7.41 24.16 9.86
9/29/2021 9:00:00 AM 15.86 60.548 0.146 7.38 22.41 9.86
9/29/2021 9:15:00 AM 15.74 60.332 0.143 7.25 22.29 9.5
9/29/2021 9:30:00 AM 15.6 60.08 0.141 7.41 24.7 9.92
9/29/2021 9:45:00 AM 15.61 60.098 0.141 7.39 24.82 9.9
9/29/2021 10:00:00 AM 15.63 60.134 0.142 7.42 23.67 9.94
9/29/2021 10:15:00 AM 15.66 60.188 0.142 7.44 25.57 9.96
9/29/2021 10:30:00 AM 15.7 60.26 0.142 7.44 23.7 10
9/29/2021 10:45:00 AM 15.74 60.332 0.142 7.42 23.75 10
9/29/2021 11:00:00 AM 15.77 60.386 0.142 7.43 24.9 9.98
9/29/2021 11:15:00 AM 15.81 60.458 0.142 7.44 23.67 9.99
9/29/2021 11:30:00 AM 15.84 60.512 0.142 7.43 23.06 9.88
9/29/2021 11:45:00 AM 15.89 60.602 0.142 7.44 23.16 10.04
9/29/2021 12:00:00 PM 15.94 60.692 0.142 7.44 23.92 10.06
9/29/2021 12:15:00 PM 15.99 60.782 0.142 7.44 23.08 9.99
9/29/2021 12:30:00 PM 16.04 60.872 0.142 7.42 23.6 10
9/29/2021 12:45:00 PM 16.1 60.98 0.142 7.44 23.85 10.03
9/29/2021 1:00:00 PM 16.15 61.07 0.142 7.47 23.81 10.13
9/29/2021 1:15:00 PM 16.18 61.124 0.142 7.47 23.35 10.14
9/29/2021 1:30:00 PM 16.21 61.178 0.143 7.46 23.4 10.13
9/29/2021 1:45:00 PM 16.27 61.286 0.143 7.48 23.66 10.12
9/29/2021 2:00:00 PM 16.32 61.376 0.143 7.48 22.83 10.16
9/29/2021 2:15:00 PM 16.36 61.448 0.143 7.48 22.51 10.14
9/29/2021 2:30:00 PM 16.41 61.538 0.143 7.47 22.42 10.18
9/29/2021 2:45:00 PM 16.42 61.556 0.143 7.48 22.82 10.14
9/29/2021 3:00:00 PM 16.4 61.52 0.144 7.49 23.76 10.2
9/29/2021 3:15:00 PM 16.41 61.538 0.144 7.49 22.69 10.19
9/29/2021 3:30:00 PM 16.43 61.574 0.144 7.51 23.37 10.25
9/29/2021 3:45:00 PM 16.46 61.628 0.144 7.49 23.02 10.16
9/29/2021 4:00:00 PM 16.51 61.718 0.144 7.5 22.61 10.2
9/29/2021 4:15:00 PM 16.57 61.826 0.144 7.5 23.25 10.22
9/29/2021 4:30:00 PM 16.58 61.844 0.144 7.51 22.45 10.27
9/29/2021 4:45:00 PM 16.6 61.88 0.144 7.51 22.74 10.25
9/29/2021 5:00:00 PM 16.61 61.898 0.144 7.52 23.06 10.31
9/29/2021 5:15:00 PM 16.62 61.916 0.144 7.52 23.08 10.26
9/29/2021 5:30:00 PM 16.61 61.898 0.145 7.51 22.71 10.28
9/29/2021 5:45:00 PM 16.59 61.862 0.145 7.51 23.66 10.29
9/29/2021 6:00:00 PM 16.57 61.826 0.145 7.51 23.12 10.28
9/29/2021 6:15:00 PM 16.57 61.826 0.145 7.55 22.75 10.31
9/29/2021 6:30:00 PM 16.55 61.79 0.145 7.53 22.81 10.31
9/29/2021 6:45:00 PM 16.54 61.772 0.145 7.52 23.91 10.31
9/29/2021 7:00:00 PM 16.53 61.754 0.145 7.53 22.66 10.29
9/29/2021 7:15:00 PM 16.51 61.718 0.146 7.52 23.53 10.3
9/29/2021 7:30:00 PM 16.48 61.664 0.146 7.52 23.06 10.29
9/29/2021 7:45:00 PM 16.44 61.592 0.146 7.52 23 10.26
9/29/2021 8:00:00 PM 16.41 61.538 0.146 7.52 23.16 10.25
9/29/2021 8:15:00 PM 16.39 61.502 0.146 7.51 22.97 10.22
9/29/2021 8:30:00 PM 16.37 61.466 0.146 7.51 22.46 10.21
9/29/2021 8:45:00 PM 16.35 61.43 0.146 7.49 22.3 10.21
9/29/2021 9:00:00 PM 16.34 61.412 0.146 7.48 23.69 10.14
9/29/2021 9:15:00 PM 16.34 61.412 0.146 7.5 22.78 10.19
9/29/2021 9:30:00 PM 16.34 61.412 0.146 7.49 23.26 10.2
9/29/2021 9:45:00 PM 16.33 61.394 0.146 7.5 22.7 10.17
9/29/2021 10:00:00 PM 16.33 61.394 0.146 7.5 21.41 10.2
9/29/2021 10:15:00 PM 16.31 61.358 0.147 7.5 21.06 10.18
9/29/2021 10:30:00 PM 16.31 61.358 0.147 7.49 21.19 10.18
9/29/2021 10:45:00 PM 16.29 61.322 0.147 7.5 21.07 10.16
9/29/2021 11:00:00 PM 16.28 61.304 0.147 7.49 21 10.17
9/29/2021 11:15:00 PM 16.27 61.286 0.147 7.49 21.39 10.13
9/29/2021 11:30:00 PM 16.25 61.25 0.147 7.5 21.3 10.16
9/29/2021 11:45:00 PM 16.22 61.196 0.147 7.51 21.3 10.11
9/30/2021 12:00:00 AM 16.2 61.16 0.148 7.5 21.42 10.13
9/30/2021 12:15:00 AM 16.18 61.124 0.148 7.49 21.92 10.11
9/30/2021 12:30:00 AM 16.16 61.088 0.149 7.49 22.03 10.11
9/30/2021 12:45:00 AM 16.15 61.07 0.148 7.48 21.93 10.07
9/30/2021 1:00:00 AM 16.13 61.034 0.148 7.47 20.96 10.04
9/30/2021 1:15:00 AM 16.11 60.998 0.149 7.47 20.97 10.06
9/30/2021 1:30:00 AM 16.09 60.962 0.149 7.47 21.23 10.05
9/30/2021 1:45:00 AM 16.08 60.944 0.149 7.47 20.75 10.05
9/30/2021 2:00:00 AM 16.06 60.908 0.149 7.47 21.18 10.03
9/30/2021 2:15:00 AM 16.05 60.89 0.149 7.48 20.39 10.05
9/30/2021 2:30:00 AM 16.04 60.872 0.149 7.47 20.83 9.99
9/30/2021 2:45:00 AM 16.04 60.872 0.149 7.46 21.17 10.04
9/30/2021 3:00:00 AM 16.03 60.854 0.149 7.44 20.51 9.99
9/30/2021 3:15:00 AM 16.01 60.818 0.149 7.47 20.97 9.99
9/30/2021 3:30:00 AM 16.26 61.268 0.156 7.45 21.12 10.04
9/30/2021 3:45:00 AM 16.18 61.124 0.152 7.38 19.95 10
9/30/2021 4:00:00 AM 15.98 60.764 0.15 7.45 21.04 9.99
9/30/2021 4:15:00 AM 15.93 60.674 0.15 7.45 21.89 9.97
9/30/2021 4:30:00 AM 15.9 60.62 0.15 7.45 21.39 9.97
9/30/2021 4:45:00 AM 15.87 60.566 0.149 7.45 20.99 9.97
9/30/2021 5:00:00 AM 15.84 60.512 0.149 7.46 21.61 9.96
9/30/2021 5:15:00 AM 15.81 60.458 0.149 7.45 21.45 9.96
9/30/2021 5:30:00 AM 15.79 60.422 0.149 7.45 21.12 9.96
9/30/2021 5:45:00 AM 15.76 60.368 0.149 7.45 22.04 9.96
9/30/2021 6:00:00 AM 15.73 60.314 0.149 7.44 21.8 9.95
9/30/2021 6:15:00 AM 15.71 60.278 0.149 7.44 21.8 9.94
9/30/2021 6:30:00 AM 15.68 60.224 0.148 7.44 22.17 9.94
9/30/2021 6:45:00 AM 15.66 60.188 0.148 7.47 21.37 9.95
9/30/2021 7:00:00 AM 15.64 60.152 0.148 7.43 21.49 9.94
9/30/2021 7:15:00 AM 15.62 60.116 0.148 7.43 21.35 9.96
9/30/2021 7:30:00 AM 15.61 60.098 0.149 7.44 21.6 9.94
9/30/2021 7:45:00 AM 15.59 60.062 0.149 7.44 22.11 9.95
9/30/2021 8:00:00 AM 15.58 60.044 0.149 7.43 21.58 9.94
9/30/2021 8:15:00 AM 15.57 60.026 0.149 7.43 21.87 9.95
9/30/2021 8:30:00 AM 15.56 60.008 0.148 7.44 21.94 9.96
9/30/2021 8:45:00 AM 15.56 60.008 0.149 7.44 21.79 9.97
9/30/2021 9:00:00 AM 15.56 60.008 0.149 7.44 21.47 9.99
9/30/2021 9:15:00 AM 15.56 60.008 0.149 7.44 21.76 10.01
9/30/2021 9:30:00 AM 15.57 60.026 0.149 7.45 22.69 10.02